PWSweather.com
Personal Weather Stations
Station Observations
KKYCRABO2
Cedar Creek Lake 840 Ky. Hwy. 39 N, Crab Orchard, KY 40419

Cedar Creek Lake 840 Ky. Hwy. 39 NCrab Orchard, KY 40419

Lat: 37.4736234544238, Lon: -84.5120286941528

Elevation: 952

Station Type: TYCON Power TP1080WC Pro

http://kbweather.net/

High Low Average
Temperature 63.3°F17.4°C 40.8°F4.9°C 57.3°F14.1°C
Dew Point 57.2°F14.0°C 33.8°F1.0°C 45.9°F7.7°C
Winds 18.6 mph 29.9 kmh Calm Calm 5.0 mph SW8.0 kmh SW
Wind Gusts 26.4 mph42.5 kmh 4.3 mph6.9 kmh 11.0 mph17.7 kmh
Humidity 93% 45% 66%
Pressure 29.88 in1011.9 mb 29.32 in992.9 mb -
Precipitation 0.50 in12.7 mm - -
Hour Temp Dew Point Humidity Winds Wind Gusts Pressure Precip Precip Rate Daily Precip Total
12:00 AM 55.8°F13.2°C 35.6°F2.0°C 46% 2.7 mph S4.3 kmh S 8.5 mph13.7 kmh 29.88 in1011.9 mb 0.00 in0.0 mm 0.00 in0.0 mm 0.00 in0.0 mm
12:01 AM 55.8°F13.2°C 35.6°F2.0°C 46% 4.0 mph S6.4 kmh S 7.8 mph12.6 kmh 29.88 in1011.9 mb 0.00 in0.0 mm 0.00 in0.0 mm 0.00 in0.0 mm
12:02 AM 55.9°F13.3°C 35.6°F2.0°C 46% 5.4 mph S8.7 kmh S 7.8 mph12.6 kmh 29.85 in1010.8 mb 0.00 in0.0 mm 0.00 in0.0 mm 0.00 in0.0 mm
12:03 AM 55.9°F13.3°C 35.6°F2.0°C 46% 3.8 mph S6.1 kmh S 7.8 mph12.6 kmh 29.85 in1010.8 mb 0.00 in0.0 mm 0.00 in0.0 mm 0.00 in0.0 mm
12:04 AM 55.9°F13.3°C 35.6°F2.0°C 46% 4.0 mph S6.4 kmh S 7.8 mph12.6 kmh 29.85 in1010.8 mb 0.00 in0.0 mm 0.00 in0.0 mm 0.00 in0.0 mm
12:05 AM 55.9°F13.3°C 35.6°F2.0°C 46% 4.0 mph S6.4 kmh S 7.8 mph12.6 kmh 29.85 in1010.8 mb 0.00 in0.0 mm 0.00 in0.0 mm 0.00 in0.0 mm
12:06 AM 55.9°F13.3°C 35.6°F2.0°C 46% 3.1 mph S5.0 kmh S 7.8 mph12.6 kmh 29.85 in1010.8 mb 0.00 in0.0 mm 0.00 in0.0 mm 0.00 in0.0 mm
12:07 AM 56.1°F13.4°C 35.6°F2.0°C 46% 5.6 mph S9.0 kmh S 7.8 mph12.6 kmh 29.85 in1010.8 mb 0.00 in0.0 mm 0.00 in0.0 mm 0.00 in0.0 mm
12:08 AM 56.1°F13.4°C 35.6°F2.0°C 46% 3.1 mph S5.0 kmh S 7.8 mph12.6 kmh 29.85 in1010.8 mb 0.00 in0.0 mm 0.00 in0.0 mm 0.00 in0.0 mm
12:09 AM 56.1°F13.4°C 35.6°F2.0°C 46% 4.7 mph S7.6 kmh S 7.8 mph12.6 kmh 29.85 in1010.8 mb 0.00 in0.0 mm 0.00 in0.0 mm 0.00 in0.0 mm
12:10 AM 56.1°F13.4°C 35.6°F2.0°C 46% 4.3 mph S6.9 kmh S 8.1 mph13.0 kmh 29.85 in1010.8 mb 0.00 in0.0 mm 0.00 in0.0 mm 0.00 in0.0 mm
12:11 AM 56.3°F13.5°C 37.4°F3.0°C 46% 4.0 mph S6.4 kmh S 8.1 mph13.0 kmh 29.85 in1010.8 mb 0.00 in0.0 mm 0.00 in0.0 mm 0.00 in0.0 mm
12:12 AM 56.3°F13.5°C 37.4°F3.0°C 46% 4.5 mph S7.2 kmh S 8.1 mph13.0 kmh 29.85 in1010.8 mb 0.00 in0.0 mm 0.00 in0.0 mm 0.00 in0.0 mm
12:13 AM 56.3°F13.5°C 37.4°F3.0°C 46% 3.1 mph S5.0 kmh S 8.1 mph13.0 kmh 29.85 in1010.8 mb 0.00 in0.0 mm 0.00 in0.0 mm 0.00 in0.0 mm
12:14 AM 56.3°F13.5°C 37.4°F3.0°C 46% 3.1 mph S5.0 kmh S 8.1 mph13.0 kmh 29.85 in1010.8 mb 0.00 in0.0 mm 0.00 in0.0 mm 0.00 in0.0 mm
12:15 AM 56.3°F13.5°C 37.4°F3.0°C 46% 2.7 mph S4.3 kmh S 8.1 mph13.0 kmh 29.85 in1010.8 mb 0.00 in0.0 mm 0.00 in0.0 mm 0.00 in0.0 mm
12:16 AM 56.3°F13.5°C 37.4°F3.0°C 46% 3.1 mph S5.0 kmh S 8.1 mph13.0 kmh 29.85 in1010.8 mb 0.00 in0.0 mm 0.00 in0.0 mm 0.00 in0.0 mm
12:17 AM 56.3°F13.5°C 37.4°F3.0°C 46% 3.8 mph S6.1 kmh S 8.1 mph13.0 kmh 29.85 in1010.8 mb 0.00 in0.0 mm 0.00 in0.0 mm 0.00 in0.0 mm
12:18 AM 56.3°F13.5°C 37.4°F3.0°C 46% 2.5 mph S4.0 kmh S 8.1 mph13.0 kmh 29.85 in1010.8 mb 0.00 in0.0 mm 0.00 in0.0 mm 0.00 in0.0 mm
12:19 AM 56.3°F13.5°C 37.4°F3.0°C 46% 4.3 mph S6.9 kmh S 8.1 mph13.0 kmh 29.85 in1010.8 mb 0.00 in0.0 mm 0.00 in0.0 mm 0.00 in0.0 mm
12:20 AM 56.3°F13.5°C 37.4°F3.0°C 46% 3.6 mph S5.8 kmh S 6.5 mph10.5 kmh 29.85 in1010.8 mb 0.00 in0.0 mm 0.00 in0.0 mm 0.00 in0.0 mm
12:21 AM 56.3°F13.5°C 37.4°F3.0°C 46% 2.7 mph S4.3 kmh S 6.5 mph10.5 kmh 29.85 in1010.8 mb 0.00 in0.0 mm 0.00 in0.0 mm 0.00 in0.0 mm
12:22 AM 56.3°F13.5°C 37.4°F3.0°C 46% 2.7 mph S4.3 kmh S 6.5 mph10.5 kmh 29.85 in1010.8 mb 0.00 in0.0 mm 0.00 in0.0 mm 0.00 in0.0 mm
12:23 AM 56.3°F13.5°C 37.4°F3.0°C 46% 2.5 mph S4.0 kmh S 6.5 mph10.5 kmh 29.85 in1010.8 mb 0.00 in0.0 mm 0.00 in0.0 mm 0.00 in0.0 mm
12:24 AM 56.3°F13.5°C 37.4°F3.0°C 46% 3.6 mph S5.8 kmh S 6.5 mph10.5 kmh 29.85 in1010.8 mb 0.00 in0.0 mm 0.00 in0.0 mm 0.00 in0.0 mm
12:25 AM 56.5°F13.6°C 37.4°F3.0°C 46% 3.1 mph S5.0 kmh S 6.5 mph10.5 kmh 29.85 in1010.8 mb 0.00 in0.0 mm 0.00 in0.0 mm 0.00 in0.0 mm
12:26 AM 56.5°F13.6°C 37.4°F3.0°C 46% 3.6 mph S5.8 kmh S 6.5 mph10.5 kmh 29.85 in1010.8 mb 0.00 in0.0 mm 0.00 in0.0 mm 0.00 in0.0 mm
12:27 AM 56.5°F13.6°C 37.4°F3.0°C 46% 4.7 mph S7.6 kmh S 6.5 mph10.5 kmh 29.85 in1010.8 mb 0.00 in0.0 mm 0.00 in0.0 mm 0.00 in0.0 mm
12:28 AM 56.7°F13.7°C 37.4°F3.0°C 46% 4.7 mph S7.6 kmh S 6.5 mph10.5 kmh 29.85 in1010.8 mb 0.00 in0.0 mm 0.00 in0.0 mm 0.00 in0.0 mm
12:29 AM 56.7°F13.7°C 37.4°F3.0°C 46% 4.5 mph S7.2 kmh S 7.6 mph12.2 kmh 29.85 in1010.8 mb 0.00 in0.0 mm 0.00 in0.0 mm 0.00 in0.0 mm
12:30 AM 56.7°F13.7°C 37.4°F3.0°C 46% 5.8 mph S9.3 kmh S 7.6 mph12.2 kmh 29.85 in1010.8 mb 0.00 in0.0 mm 0.00 in0.0 mm 0.00 in0.0 mm
12:31 AM 56.7°F13.7°C 37.4°F3.0°C 46% 4.0 mph S6.4 kmh S 7.6 mph12.2 kmh 29.85 in1010.8 mb 0.00 in0.0 mm 0.00 in0.0 mm 0.00 in0.0 mm
12:32 AM 56.7°F13.7°C 37.4°F3.0°C 46% 3.4 mph S5.5 kmh S 7.6 mph12.2 kmh 29.85 in1010.8 mb 0.00 in0.0 mm 0.00 in0.0 mm 0.00 in0.0 mm
12:33 AM 56.7°F13.7°C 37.4°F3.0°C 46% 5.8 mph S9.3 kmh S 7.6 mph12.2 kmh 29.85 in1010.8 mb 0.00 in0.0 mm 0.00 in0.0 mm 0.00 in0.0 mm
12:34 AM 56.7°F13.7°C 37.4°F3.0°C 46% 2.9 mph S4.7 kmh S 7.6 mph12.2 kmh 29.85 in1010.8 mb 0.00 in0.0 mm 0.00 in0.0 mm 0.00 in0.0 mm
12:35 AM 56.7°F13.7°C 37.4°F3.0°C 46% 2.9 mph S4.7 kmh S 7.6 mph12.2 kmh 29.85 in1010.8 mb 0.00 in0.0 mm 0.00 in0.0 mm 0.00 in0.0 mm
12:36 AM 56.7°F13.7°C 37.4°F3.0°C 46% 3.8 mph S6.1 kmh S 7.6 mph12.2 kmh 29.85 in1010.8 mb 0.00 in0.0 mm 0.00 in0.0 mm 0.00 in0.0 mm
12:37 AM 56.7°F13.7°C 37.4°F3.0°C 46% 4.3 mph S6.9 kmh S 7.6 mph12.2 kmh 29.85 in1010.8 mb 0.00 in0.0 mm 0.00 in0.0 mm 0.00 in0.0 mm
12:38 AM 56.7°F13.7°C 37.4°F3.0°C 46% 3.4 mph S5.5 kmh S 7.6 mph12.2 kmh 29.85 in1010.8 mb 0.00 in0.0 mm 0.00 in0.0 mm 0.00 in0.0 mm
12:39 AM 56.7°F13.7°C 37.4°F3.0°C 46% 4.5 mph S7.2 kmh S 7.6 mph12.2 kmh 29.85 in1010.8 mb 0.00 in0.0 mm 0.00 in0.0 mm 0.00 in0.0 mm
12:40 AM 56.7°F13.7°C 37.4°F3.0°C 46% 4.5 mph S7.2 kmh S 7.6 mph12.2 kmh 29.85 in1010.8 mb 0.00 in0.0 mm 0.00 in0.0 mm 0.00 in0.0 mm
12:41 AM 56.7°F13.7°C 37.4°F3.0°C 46% 4.7 mph S7.6 kmh S 9.6 mph15.4 kmh 29.85 in1010.8 mb 0.00 in0.0 mm 0.00 in0.0 mm 0.00 in0.0 mm
12:42 AM 56.7°F13.7°C 37.4°F3.0°C 46% 6.5 mph S10.5 kmh S 9.6 mph15.4 kmh 29.85 in1010.8 mb 0.00 in0.0 mm 0.00 in0.0 mm 0.00 in0.0 mm
12:43 AM 56.7°F13.7°C 37.4°F3.0°C 46% 4.0 mph S6.4 kmh S 9.6 mph15.4 kmh 29.85 in1010.8 mb 0.00 in0.0 mm 0.00 in0.0 mm 0.00 in0.0 mm
12:44 AM 56.8°F13.8°C 37.4°F3.0°C 46% 4.3 mph S6.9 kmh S 9.6 mph15.4 kmh 29.85 in1010.8 mb 0.00 in0.0 mm 0.00 in0.0 mm 0.00 in0.0 mm
12:45 AM 56.8°F13.8°C 37.4°F3.0°C 46% 3.8 mph S6.1 kmh S 9.6 mph15.4 kmh 29.85 in1010.8 mb 0.00 in0.0 mm 0.00 in0.0 mm 0.00 in0.0 mm
12:46 AM 56.8°F13.8°C 37.4°F3.0°C 46% 4.3 mph S6.9 kmh S 9.6 mph15.4 kmh 29.85 in1010.8 mb 0.00 in0.0 mm 0.00 in0.0 mm 0.00 in0.0 mm
12:47 AM 56.8°F13.8°C 37.4°F3.0°C 46% 2.5 mph S4.0 kmh S 9.6 mph15.4 kmh 29.79 in1008.8 mb 0.00 in0.0 mm 0.00 in0.0 mm 0.00 in0.0 mm
12:48 AM 56.8°F13.8°C 37.4°F3.0°C 46% 3.6 mph S5.8 kmh S 9.6 mph15.4 kmh 29.79 in1008.8 mb 0.00 in0.0 mm 0.00 in0.0 mm 0.00 in0.0 mm
12:49 AM 56.8°F13.8°C 37.4°F3.0°C 46% 2.7 mph S4.3 kmh S 9.6 mph15.4 kmh 29.79 in1008.8 mb 0.00 in0.0 mm 0.00 in0.0 mm 0.00 in0.0 mm
12:50 AM 56.8°F13.8°C 37.4°F3.0°C 46% 3.6 mph S5.8 kmh S 9.6 mph15.4 kmh 29.79 in1008.8 mb 0.00 in0.0 mm 0.00 in0.0 mm 0.00 in0.0 mm
12:51 AM 56.8°F13.8°C 37.4°F3.0°C 46% 6.9 mph S11.1 kmh S 8.9 mph14.3 kmh 29.79 in1008.8 mb 0.00 in0.0 mm 0.00 in0.0 mm 0.00 in0.0 mm
12:52 AM 56.8°F13.8°C 37.4°F3.0°C 46% 4.5 mph S7.2 kmh S 8.7 mph14.0 kmh 29.79 in1008.8 mb 0.00 in0.0 mm 0.00 in0.0 mm 0.00 in0.0 mm
12:53 AM 56.8°F13.8°C 37.4°F3.0°C 46% 4.7 mph S7.6 kmh S 8.7 mph14.0 kmh 29.79 in1008.8 mb 0.00 in0.0 mm 0.00 in0.0 mm 0.00 in0.0 mm
12:54 AM 57.0°F13.9°C 37.4°F3.0°C 46% 3.6 mph S5.8 kmh S 8.7 mph14.0 kmh 29.79 in1008.8 mb 0.00 in0.0 mm 0.00 in0.0 mm 0.00 in0.0 mm
12:55 AM 57.0°F13.9°C 37.4°F3.0°C 46% 4.5 mph S7.2 kmh S 8.7 mph14.0 kmh 29.79 in1008.8 mb 0.00 in0.0 mm 0.00 in0.0 mm 0.00 in0.0 mm
12:56 AM 57.0°F13.9°C 37.4°F3.0°C 45% 5.4 mph S8.7 kmh S 9.2 mph14.8 kmh 29.79 in1008.8 mb 0.00 in0.0 mm 0.00 in0.0 mm 0.00 in0.0 mm
12:57 AM 57.0°F13.9°C 37.4°F3.0°C 45% 4.7 mph S7.6 kmh S 9.6 mph15.4 kmh 29.79 in1008.8 mb 0.00 in0.0 mm 0.00 in0.0 mm 0.00 in0.0 mm
12:58 AM 57.0°F13.9°C 37.4°F3.0°C 46% 4.9 mph S7.9 kmh S 9.6 mph15.4 kmh 29.79 in1008.8 mb 0.00 in0.0 mm 0.00 in0.0 mm 0.00 in0.0 mm
12:59 AM 57.0°F13.9°C 37.4°F3.0°C 46% 3.8 mph S6.1 kmh S 9.6 mph15.4 kmh 29.79 in1008.8 mb 0.00 in0.0 mm 0.00 in0.0 mm 0.00 in0.0 mm
01:00 AM 57.0°F13.9°C 37.4°F3.0°C 46% 3.8 mph S6.1 kmh S 9.6 mph15.4 kmh 29.79 in1008.8 mb 0.00 in0.0 mm 0.00 in0.0 mm 0.00 in0.0 mm
01:01 AM 57.0°F13.9°C 37.4°F3.0°C 46% 3.1 mph S5.0 kmh S 9.6 mph15.4 kmh 29.79 in1008.8 mb 0.00 in0.0 mm 0.00 in0.0 mm 0.00 in0.0 mm
01:02 AM 57.0°F13.9°C 37.4°F3.0°C 46% 4.3 mph S6.9 kmh S 9.6 mph15.4 kmh 29.85 in1010.8 mb 0.00 in0.0 mm 0.00 in0.0 mm 0.00 in0.0 mm
01:03 AM 57.0°F13.9°C 37.4°F3.0°C 46% 4.5 mph S7.2 kmh S 9.6 mph15.4 kmh 29.85 in1010.8 mb 0.00 in0.0 mm 0.00 in0.0 mm 0.00 in0.0 mm
01:04 AM 57.0°F13.9°C 37.4°F3.0°C 46% 3.8 mph S6.1 kmh S 9.6 mph15.4 kmh 29.85 in1010.8 mb 0.00 in0.0 mm 0.00 in0.0 mm 0.00 in0.0 mm
01:05 AM 57.0°F13.9°C 37.4°F3.0°C 46% 3.4 mph S5.5 kmh S 9.6 mph15.4 kmh 29.85 in1010.8 mb 0.00 in0.0 mm 0.00 in0.0 mm 0.00 in0.0 mm
01:06 AM 57.2°F14.0°C 37.4°F3.0°C 46% 4.0 mph S6.4 kmh S 9.6 mph15.4 kmh 29.85 in1010.8 mb 0.00 in0.0 mm 0.00 in0.0 mm 0.00 in0.0 mm
01:07 AM 57.2°F14.0°C 37.4°F3.0°C 46% 4.0 mph S6.4 kmh S 7.4 mph11.9 kmh 29.85 in1010.8 mb 0.00 in0.0 mm 0.00 in0.0 mm 0.00 in0.0 mm
01:08 AM 57.2°F14.0°C 37.4°F3.0°C 46% 4.0 mph S6.4 kmh S 7.4 mph11.9 kmh 29.85 in1010.8 mb 0.00 in0.0 mm 0.00 in0.0 mm 0.00 in0.0 mm
01:09 AM 57.2°F14.0°C 37.4°F3.0°C 46% 4.3 mph S6.9 kmh S 7.4 mph11.9 kmh 29.85 in1010.8 mb 0.00 in0.0 mm 0.00 in0.0 mm 0.00 in0.0 mm
01:10 AM 57.2°F14.0°C 37.4°F3.0°C 46% 6.0 mph S9.7 kmh S 7.8 mph12.6 kmh 29.85 in1010.8 mb 0.00 in0.0 mm 0.00 in0.0 mm 0.00 in0.0 mm
01:11 AM 57.4°F14.1°C 37.4°F3.0°C 46% 5.4 mph S8.7 kmh S 7.8 mph12.6 kmh 29.85 in1010.8 mb 0.00 in0.0 mm 0.00 in0.0 mm 0.00 in0.0 mm
01:12 AM 57.4°F14.1°C 37.4°F3.0°C 45% 6.0 mph S9.7 kmh S 11.0 mph17.7 kmh 29.85 in1010.8 mb 0.00 in0.0 mm 0.00 in0.0 mm 0.00 in0.0 mm
01:13 AM 57.4°F14.1°C 37.4°F3.0°C 46% 4.3 mph S6.9 kmh S 11.0 mph17.7 kmh 29.85 in1010.8 mb 0.00 in0.0 mm 0.00 in0.0 mm 0.00 in0.0 mm
01:14 AM 57.4°F14.1°C 37.4°F3.0°C 46% 3.4 mph S5.5 kmh S 11.0 mph17.7 kmh 29.85 in1010.8 mb 0.00 in0.0 mm 0.00 in0.0 mm 0.00 in0.0 mm
01:15 AM 57.4°F14.1°C 37.4°F3.0°C 46% 3.1 mph S5.0 kmh S 11.0 mph17.7 kmh 29.85 in1010.8 mb 0.00 in0.0 mm 0.00 in0.0 mm 0.00 in0.0 mm
01:16 AM 57.4°F14.1°C 37.4°F3.0°C 46% 5.6 mph S9.0 kmh S 11.0 mph17.7 kmh 29.85 in1010.8 mb 0.00 in0.0 mm 0.00 in0.0 mm 0.00 in0.0 mm
01:17 AM 57.4°F14.1°C 37.4°F3.0°C 46% 3.6 mph S5.8 kmh S 11.0 mph17.7 kmh 29.82 in1009.8 mb 0.00 in0.0 mm 0.00 in0.0 mm 0.00 in0.0 mm
01:18 AM 57.4°F14.1°C 37.4°F3.0°C 46% 5.4 mph S8.7 kmh S 11.0 mph17.7 kmh 29.82 in1009.8 mb 0.00 in0.0 mm 0.00 in0.0 mm 0.00 in0.0 mm
01:19 AM 57.4°F14.1°C 37.4°F3.0°C 46% 3.6 mph S5.8 kmh S 11.0 mph17.7 kmh 29.82 in1009.8 mb 0.00 in0.0 mm 0.00 in0.0 mm 0.00 in0.0 mm
01:20 AM 57.4°F14.1°C 37.4°F3.0°C 46% 3.8 mph S6.1 kmh S 11.0 mph17.7 kmh 29.82 in1009.8 mb 0.00 in0.0 mm 0.00 in0.0 mm 0.00 in0.0 mm
01:21 AM 57.4°F14.1°C 37.4°F3.0°C 46% 4.0 mph SSW6.4 kmh SSW 11.0 mph17.7 kmh 29.82 in1009.8 mb 0.00 in0.0 mm 0.00 in0.0 mm 0.00 in0.0 mm
01:22 AM 57.4°F14.1°C 37.4°F3.0°C 46% 3.8 mph S6.1 kmh S 8.7 mph14.0 kmh 29.82 in1009.8 mb 0.00 in0.0 mm 0.00 in0.0 mm 0.00 in0.0 mm
01:23 AM 57.4°F14.1°C 37.4°F3.0°C 46% 3.8 mph SSW6.1 kmh SSW 8.7 mph14.0 kmh 29.82 in1009.8 mb 0.00 in0.0 mm 0.00 in0.0 mm 0.00 in0.0 mm
01:24 AM 57.4°F14.1°C 37.4°F3.0°C 46% 3.1 mph S5.0 kmh S 8.7 mph14.0 kmh 29.82 in1009.8 mb 0.00 in0.0 mm 0.00 in0.0 mm 0.00 in0.0 mm
01:25 AM 57.4°F14.1°C 37.4°F3.0°C 46% 3.8 mph S6.1 kmh S 8.7 mph14.0 kmh 29.82 in1009.8 mb 0.00 in0.0 mm 0.00 in0.0 mm 0.00 in0.0 mm
01:26 AM 57.4°F14.1°C 37.4°F3.0°C 46% 6.0 mph S9.7 kmh S 8.7 mph14.0 kmh 29.82 in1009.8 mb 0.00 in0.0 mm 0.00 in0.0 mm 0.00 in0.0 mm
01:27 AM 57.4°F14.1°C 37.4°F3.0°C 46% 3.8 mph S6.1 kmh S 8.7 mph14.0 kmh 29.82 in1009.8 mb 0.00 in0.0 mm 0.00 in0.0 mm 0.00 in0.0 mm
01:28 AM 57.6°F14.2°C 37.4°F3.0°C 46% 5.8 mph S9.3 kmh S 10.7 mph17.2 kmh 29.82 in1009.8 mb 0.00 in0.0 mm 0.00 in0.0 mm 0.00 in0.0 mm
01:29 AM 57.6°F14.2°C 37.4°F3.0°C 46% 4.0 mph S6.4 kmh S 10.7 mph17.2 kmh 29.82 in1009.8 mb 0.00 in0.0 mm 0.00 in0.0 mm 0.00 in0.0 mm
01:30 AM 57.6°F14.2°C 37.4°F3.0°C 46% 4.5 mph S7.2 kmh S 10.7 mph17.2 kmh 29.82 in1009.8 mb 0.00 in0.0 mm 0.00 in0.0 mm 0.00 in0.0 mm
01:31 AM 57.6°F14.2°C 37.4°F3.0°C 46% 4.7 mph S7.6 kmh S 10.7 mph17.2 kmh 29.82 in1009.8 mb 0.00 in0.0 mm 0.00 in0.0 mm 0.00 in0.0 mm
01:32 AM 57.6°F14.2°C 37.4°F3.0°C 46% 2.9 mph S4.7 kmh S 10.7 mph17.2 kmh 29.82 in1009.8 mb 0.00 in0.0 mm 0.00 in0.0 mm 0.00 in0.0 mm
01:33 AM 57.6°F14.2°C 37.4°F3.0°C 46% 2.9 mph S4.7 kmh S 10.7 mph17.2 kmh 29.82 in1009.8 mb 0.00 in0.0 mm 0.00 in0.0 mm 0.00 in0.0 mm
01:34 AM 57.6°F14.2°C 37.4°F3.0°C 46% 3.8 mph S6.1 kmh S 10.7 mph17.2 kmh 29.82 in1009.8 mb 0.00 in0.0 mm 0.00 in0.0 mm 0.00 in0.0 mm
01:35 AM 57.6°F14.2°C 37.4°F3.0°C 46% 4.3 mph S6.9 kmh S 10.7 mph17.2 kmh 29.82 in1009.8 mb 0.00 in0.0 mm 0.00 in0.0 mm 0.00 in0.0 mm
01:36 AM 57.6°F14.2°C 37.4°F3.0°C 46% 2.9 mph S4.7 kmh S 10.7 mph17.2 kmh 29.82 in1009.8 mb 0.00 in0.0 mm 0.00 in0.0 mm 0.00 in0.0 mm
01:37 AM 57.6°F14.2°C 37.4°F3.0°C 46% 3.4 mph S5.5 kmh S 10.7 mph17.2 kmh 29.82 in1009.8 mb 0.00 in0.0 mm 0.00 in0.0 mm 0.00 in0.0 mm
01:38 AM 57.6°F14.2°C 37.4°F3.0°C 46% 3.6 mph S5.8 kmh S 7.8 mph12.6 kmh 29.82 in1009.8 mb 0.00 in0.0 mm 0.00 in0.0 mm 0.00 in0.0 mm
01:39 AM 57.6°F14.2°C 37.4°F3.0°C 46% 3.8 mph S6.1 kmh S 7.8 mph12.6 kmh 29.82 in1009.8 mb 0.00 in0.0 mm 0.00 in0.0 mm 0.00 in0.0 mm
01:40 AM 57.6°F14.2°C 37.4°F3.0°C 46% 4.3 mph SSW6.9 kmh SSW 6.9 mph11.1 kmh 29.82 in1009.8 mb 0.00 in0.0 mm 0.00 in0.0 mm 0.00 in0.0 mm
01:41 AM 57.4°F14.1°C 37.4°F3.0°C 46% 3.1 mph SSW5.0 kmh SSW 6.9 mph11.1 kmh 29.82 in1009.8 mb 0.00 in0.0 mm 0.00 in0.0 mm 0.00 in0.0 mm
01:42 AM 57.4°F14.1°C 37.4°F3.0°C 46% 2.2 mph SSW3.5 kmh SSW 6.9 mph11.1 kmh 29.82 in1009.8 mb 0.00 in0.0 mm 0.00 in0.0 mm 0.00 in0.0 mm
01:43 AM 57.4°F14.1°C 37.4°F3.0°C 46% 3.8 mph S6.1 kmh S 6.9 mph11.1 kmh 29.82 in1009.8 mb 0.00 in0.0 mm 0.00 in0.0 mm 0.00 in0.0 mm
01:44 AM 57.4°F14.1°C 37.4°F3.0°C 46% 4.7 mph SSW7.6 kmh SSW 7.8 mph12.6 kmh 29.82 in1009.8 mb 0.00 in0.0 mm 0.00 in0.0 mm 0.00 in0.0 mm
01:45 AM 57.4°F14.1°C 37.4°F3.0°C 46% 4.0 mph SSW6.4 kmh SSW 7.8 mph12.6 kmh 29.82 in1009.8 mb 0.00 in0.0 mm 0.00 in0.0 mm 0.00 in0.0 mm
01:46 AM 57.4°F14.1°C 37.4°F3.0°C 46% 4.3 mph SSW6.9 kmh SSW 7.8 mph12.6 kmh 29.82 in1009.8 mb 0.00 in0.0 mm 0.00 in0.0 mm 0.00 in0.0 mm
01:47 AM 57.4°F14.1°C 37.4°F3.0°C 46% 3.6 mph SSW5.8 kmh SSW 7.8 mph12.6 kmh 29.82 in1009.8 mb 0.00 in0.0 mm 0.00 in0.0 mm 0.00 in0.0 mm
01:48 AM 57.4°F14.1°C 37.4°F3.0°C 47% 6.5 mph SSW10.5 kmh SSW 10.3 mph16.6 kmh 29.82 in1009.8 mb 0.00 in0.0 mm 0.00 in0.0 mm 0.00 in0.0 mm
01:49 AM 57.6°F14.2°C 37.4°F3.0°C 47% 4.9 mph SSW7.9 kmh SSW 10.3 mph16.6 kmh 29.82 in1009.8 mb 0.00 in0.0 mm 0.00 in0.0 mm 0.00 in0.0 mm
01:50 AM 57.6°F14.2°C 37.4°F3.0°C 47% 6.0 mph SSW9.7 kmh SSW 10.3 mph16.6 kmh 29.82 in1009.8 mb 0.00 in0.0 mm 0.00 in0.0 mm 0.00 in0.0 mm
01:51 AM 57.6°F14.2°C 37.4°F3.0°C 47% 3.8 mph SSW6.1 kmh SSW 10.3 mph16.6 kmh 29.82 in1009.8 mb 0.00 in0.0 mm 0.00 in0.0 mm 0.00 in0.0 mm
01:52 AM 57.6°F14.2°C 37.4°F3.0°C 47% 2.7 mph SSW4.3 kmh SSW 10.3 mph16.6 kmh 29.82 in1009.8 mb 0.00 in0.0 mm 0.00 in0.0 mm 0.00 in0.0 mm
01:53 AM 57.6°F14.2°C 37.4°F3.0°C 47% 3.1 mph SSW5.0 kmh SSW 10.3 mph16.6 kmh 29.82 in1009.8 mb 0.00 in0.0 mm 0.00 in0.0 mm 0.00 in0.0 mm
01:54 AM 57.6°F14.2°C 37.4°F3.0°C 47% 2.9 mph SSW4.7 kmh SSW 10.3 mph16.6 kmh 29.82 in1009.8 mb 0.00 in0.0 mm 0.00 in0.0 mm 0.00 in0.0 mm
01:55 AM 57.6°F14.2°C 37.4°F3.0°C 46% 3.8 mph SSW6.1 kmh SSW 10.3 mph16.6 kmh 29.82 in1009.8 mb 0.00 in0.0 mm 0.00 in0.0 mm 0.00 in0.0 mm
01:56 AM 57.6°F14.2°C 37.4°F3.0°C 47% 4.7 mph SSW7.6 kmh SSW 10.3 mph16.6 kmh 29.82 in1009.8 mb 0.00 in0.0 mm 0.00 in0.0 mm 0.00 in0.0 mm
01:57 AM 57.6°F14.2°C 37.4°F3.0°C 47% 3.4 mph SSW5.5 kmh SSW 10.3 mph16.6 kmh 29.82 in1009.8 mb 0.00 in0.0 mm 0.00 in0.0 mm 0.00 in0.0 mm
01:58 AM 57.6°F14.2°C 37.4°F3.0°C 46% 4.3 mph SSW6.9 kmh SSW 10.3 mph16.6 kmh 29.82 in1009.8 mb 0.00 in0.0 mm 0.00 in0.0 mm 0.00 in0.0 mm
01:59 AM 57.6°F14.2°C 37.4°F3.0°C 47% 4.3 mph SSW6.9 kmh SSW 9.8 mph15.8 kmh 29.82 in1009.8 mb 0.00 in0.0 mm 0.00 in0.0 mm 0.00 in0.0 mm
02:00 AM 57.6°F14.2°C 37.4°F3.0°C 47% 5.4 mph SSW8.7 kmh SSW 10.1 mph16.3 kmh 29.82 in1009.8 mb 0.00 in0.0 mm 0.00 in0.0 mm 0.00 in0.0 mm
02:01 AM 57.6°F14.2°C 37.4°F3.0°C 47% 5.8 mph SSW9.3 kmh SSW 10.1 mph16.3 kmh 29.82 in1009.8 mb 0.00 in0.0 mm 0.00 in0.0 mm 0.00 in0.0 mm
02:02 AM 57.6°F14.2°C 37.4°F3.0°C 47% 5.8 mph SSW9.3 kmh SSW 10.1 mph16.3 kmh 29.82 in1009.8 mb 0.00 in0.0 mm 0.00 in0.0 mm 0.00 in0.0 mm
02:03 AM 57.6°F14.2°C 37.4°F3.0°C 47% 4.7 mph SSW7.6 kmh SSW 10.1 mph16.3 kmh 29.82 in1009.8 mb 0.00 in0.0 mm 0.00 in0.0 mm 0.00 in0.0 mm
02:04 AM 57.4°F14.1°C 37.4°F3.0°C 47% 4.5 mph SSW7.2 kmh SSW 10.1 mph16.3 kmh 29.82 in1009.8 mb 0.00 in0.0 mm 0.00 in0.0 mm 0.00 in0.0 mm
02:05 AM 57.4°F14.1°C 37.4°F3.0°C 47% 4.7 mph SW7.6 kmh SW 10.1 mph16.3 kmh 29.82 in1009.8 mb 0.00 in0.0 mm 0.00 in0.0 mm 0.00 in0.0 mm
02:06 AM 57.4°F14.1°C 37.4°F3.0°C 47% 4.9 mph SW7.9 kmh SW 10.1 mph16.3 kmh 29.82 in1009.8 mb 0.00 in0.0 mm 0.00 in0.0 mm 0.00 in0.0 mm
02:07 AM 57.4°F14.1°C 37.4°F3.0°C 47% 5.6 mph SW9.0 kmh SW 10.1 mph16.3 kmh 29.82 in1009.8 mb 0.00 in0.0 mm 0.00 in0.0 mm 0.00 in0.0 mm
02:08 AM 57.4°F14.1°C 37.4°F3.0°C 47% 3.6 mph SSW5.8 kmh SSW 10.1 mph16.3 kmh 29.82 in1009.8 mb 0.00 in0.0 mm 0.00 in0.0 mm 0.00 in0.0 mm
02:09 AM 57.4°F14.1°C 37.4°F3.0°C 47% 4.5 mph SW7.2 kmh SW 10.1 mph16.3 kmh 29.82 in1009.8 mb 0.00 in0.0 mm 0.00 in0.0 mm 0.00 in0.0 mm
02:10 AM 57.4°F14.1°C 37.4°F3.0°C 47% 5.4 mph SW8.7 kmh SW 8.1 mph13.0 kmh 29.82 in1009.8 mb 0.00 in0.0 mm 0.00 in0.0 mm 0.00 in0.0 mm
02:11 AM 57.6°F14.2°C 37.4°F3.0°C 47% 5.8 mph SW9.3 kmh SW 8.1 mph13.0 kmh 29.82 in1009.8 mb 0.00 in0.0 mm 0.00 in0.0 mm 0.00 in0.0 mm
02:12 AM 57.6°F14.2°C 37.4°F3.0°C 47% 6.5 mph SW10.5 kmh SW 10.7 mph17.2 kmh 29.82 in1009.8 mb 0.00 in0.0 mm 0.00 in0.0 mm 0.00 in0.0 mm
02:13 AM 57.6°F14.2°C 37.4°F3.0°C 47% 5.8 mph SW9.3 kmh SW 10.7 mph17.2 kmh 29.82 in1009.8 mb 0.00 in0.0 mm 0.00 in0.0 mm 0.00 in0.0 mm
02:14 AM 57.6°F14.2°C 37.4°F3.0°C 47% 4.9 mph SW7.9 kmh SW 10.7 mph17.2 kmh 29.82 in1009.8 mb 0.00 in0.0 mm 0.00 in0.0 mm 0.00 in0.0 mm
02:15 AM 57.6°F14.2°C 37.4°F3.0°C 47% 3.4 mph SW5.5 kmh SW 10.7 mph17.2 kmh 29.82 in1009.8 mb 0.00 in0.0 mm 0.00 in0.0 mm 0.00 in0.0 mm
02:16 AM 57.6°F14.2°C 37.4°F3.0°C 47% 3.4 mph SW5.5 kmh SW 10.7 mph17.2 kmh 29.82 in1009.8 mb 0.00 in0.0 mm 0.00 in0.0 mm 0.00 in0.0 mm
02:17 AM 57.6°F14.2°C 37.4°F3.0°C 47% 5.8 mph SW9.3 kmh SW 10.7 mph17.2 kmh 29.82 in1009.8 mb 0.00 in0.0 mm 0.00 in0.0 mm 0.00 in0.0 mm
02:18 AM 57.6°F14.2°C 37.4°F3.0°C 47% 5.4 mph SW8.7 kmh SW 10.7 mph17.2 kmh 29.82 in1009.8 mb 0.00 in0.0 mm 0.00 in0.0 mm 0.00 in0.0 mm
02:19 AM 57.6°F14.2°C 37.4°F3.0°C 47% 6.3 mph SW10.1 kmh SW 10.7 mph17.2 kmh 29.82 in1009.8 mb 0.00 in0.0 mm 0.00 in0.0 mm 0.00 in0.0 mm
02:20 AM 57.6°F14.2°C 37.4°F3.0°C 47% 3.4 mph SW5.5 kmh SW 10.7 mph17.2 kmh 29.82 in1009.8 mb 0.00 in0.0 mm 0.00 in0.0 mm 0.00 in0.0 mm
02:21 AM 57.4°F14.1°C 37.4°F3.0°C 47% 3.4 mph SW5.5 kmh SW 10.7 mph17.2 kmh 29.82 in1009.8 mb 0.00 in0.0 mm 0.00 in0.0 mm 0.00 in0.0 mm
02:22 AM 57.4°F14.1°C 37.4°F3.0°C 47% 2.7 mph SW4.3 kmh SW 8.1 mph13.0 kmh 29.82 in1009.8 mb 0.00 in0.0 mm 0.00 in0.0 mm 0.00 in0.0 mm
02:23 AM 57.4°F14.1°C 37.4°F3.0°C 47% 4.7 mph SW7.6 kmh SW 8.1 mph13.0 kmh 29.82 in1009.8 mb 0.00 in0.0 mm 0.00 in0.0 mm 0.00 in0.0 mm
02:24 AM 57.4°F14.1°C 37.4°F3.0°C 47% 2.5 mph SW4.0 kmh SW 8.1 mph13.0 kmh 29.82 in1009.8 mb 0.00 in0.0 mm 0.00 in0.0 mm 0.00 in0.0 mm
02:25 AM 57.4°F14.1°C 37.4°F3.0°C 47% 1.6 mph SW2.6 kmh SW 8.1 mph13.0 kmh 29.82 in1009.8 mb 0.00 in0.0 mm 0.00 in0.0 mm 0.00 in0.0 mm
02:26 AM 57.4°F14.1°C 37.4°F3.0°C 48% 4.0 mph SW6.4 kmh SW 8.1 mph13.0 kmh 29.82 in1009.8 mb 0.00 in0.0 mm 0.00 in0.0 mm 0.00 in0.0 mm
02:27 AM 57.2°F14.0°C 37.4°F3.0°C 47% 4.0 mph SW6.4 kmh SW 8.1 mph13.0 kmh 29.82 in1009.8 mb 0.00 in0.0 mm 0.00 in0.0 mm 0.00 in0.0 mm
02:28 AM 57.2°F14.0°C 37.4°F3.0°C 48% 2.2 mph SW3.5 kmh SW 8.1 mph13.0 kmh 29.82 in1009.8 mb 0.00 in0.0 mm 0.00 in0.0 mm 0.00 in0.0 mm
02:29 AM 57.2°F14.0°C 37.4°F3.0°C 48% 4.3 mph SW6.9 kmh SW 7.4 mph11.9 kmh 29.82 in1009.8 mb 0.00 in0.0 mm 0.00 in0.0 mm 0.00 in0.0 mm
02:30 AM 57.2°F14.0°C 37.4°F3.0°C 48% 4.5 mph SW7.2 kmh SW 7.4 mph11.9 kmh 29.82 in1009.8 mb 0.00 in0.0 mm 0.00 in0.0 mm 0.00 in0.0 mm
02:31 AM 57.4°F14.1°C 37.4°F3.0°C 47% 2.7 mph SW4.3 kmh SW 7.4 mph11.9 kmh 29.82 in1009.8 mb 0.00 in0.0 mm 0.00 in0.0 mm 0.00 in0.0 mm
02:32 AM 57.4°F14.1°C 37.4°F3.0°C 48% 2.2 mph SW3.5 kmh SW 7.4 mph11.9 kmh 29.79 in1008.8 mb 0.00 in0.0 mm 0.00 in0.0 mm 0.00 in0.0 mm
02:33 AM 57.4°F14.1°C 37.4°F3.0°C 48% 2.7 mph SW4.3 kmh SW 5.8 mph9.3 kmh 29.79 in1008.8 mb 0.00 in0.0 mm 0.00 in0.0 mm 0.00 in0.0 mm
02:34 AM 57.4°F14.1°C 37.4°F3.0°C 48% 2.5 mph SSW4.0 kmh SSW 5.8 mph9.3 kmh 29.79 in1008.8 mb 0.00 in0.0 mm 0.00 in0.0 mm 0.00 in0.0 mm
02:35 AM 57.4°F14.1°C 37.4°F3.0°C 47% 2.7 mph SSW4.3 kmh SSW 5.8 mph9.3 kmh 29.79 in1008.8 mb 0.00 in0.0 mm 0.00 in0.0 mm 0.00 in0.0 mm
02:36 AM 57.4°F14.1°C 37.4°F3.0°C 47% 3.4 mph SSW5.5 kmh SSW 5.8 mph9.3 kmh 29.79 in1008.8 mb 0.00 in0.0 mm 0.00 in0.0 mm 0.00 in0.0 mm
02:37 AM 57.4°F14.1°C 37.4°F3.0°C 48% 4.3 mph SSW6.9 kmh SSW 6.3 mph10.1 kmh 29.79 in1008.8 mb 0.00 in0.0 mm 0.00 in0.0 mm 0.00 in0.0 mm
02:38 AM 57.4°F14.1°C 37.4°F3.0°C 48% 2.9 mph SSW4.7 kmh SSW 6.3 mph10.1 kmh 29.79 in1008.8 mb 0.00 in0.0 mm 0.00 in0.0 mm 0.00 in0.0 mm
02:39 AM 57.4°F14.1°C 37.4°F3.0°C 48% 3.4 mph SSW5.5 kmh SSW 6.3 mph10.1 kmh 29.79 in1008.8 mb 0.00 in0.0 mm 0.00 in0.0 mm 0.00 in0.0 mm
02:40 AM 57.4°F14.1°C 37.4°F3.0°C 48% 3.4 mph SSW5.5 kmh SSW 6.3 mph10.1 kmh 29.79 in1008.8 mb 0.00 in0.0 mm 0.00 in0.0 mm 0.00 in0.0 mm
02:41 AM 57.4°F14.1°C 37.4°F3.0°C 48% 3.1 mph SSW5.0 kmh SSW 6.3 mph10.1 kmh 29.79 in1008.8 mb 0.00 in0.0 mm 0.00 in0.0 mm 0.00 in0.0 mm
02:42 AM 57.4°F14.1°C 37.4°F3.0°C 48% 3.1 mph SSW5.0 kmh SSW 6.3 mph10.1 kmh 29.79 in1008.8 mb 0.00 in0.0 mm 0.00 in0.0 mm 0.00 in0.0 mm
02:43 AM 57.4°F14.1°C 37.4°F3.0°C 47% 2.9 mph SSW4.7 kmh SSW 6.3 mph10.1 kmh 29.79 in1008.8 mb 0.00 in0.0 mm 0.00 in0.0 mm 0.00 in0.0 mm
02:44 AM 57.4°F14.1°C 37.4°F3.0°C 47% 4.5 mph SSW7.2 kmh SSW 7.4 mph11.9 kmh 29.79 in1008.8 mb 0.00 in0.0 mm 0.00 in0.0 mm 0.00 in0.0 mm
02:45 AM 57.4°F14.1°C 37.4°F3.0°C 48% 3.8 mph SSW6.1 kmh SSW 7.4 mph11.9 kmh 29.79 in1008.8 mb 0.00 in0.0 mm 0.00 in0.0 mm 0.00 in0.0 mm
02:46 AM 57.4°F14.1°C 37.4°F3.0°C 48% 3.4 mph SSW5.5 kmh SSW 7.4 mph11.9 kmh 29.79 in1008.8 mb 0.00 in0.0 mm 0.00 in0.0 mm 0.00 in0.0 mm
02:47 AM 57.4°F14.1°C 37.4°F3.0°C 48% 3.4 mph SSW5.5 kmh SSW 7.4 mph11.9 kmh 29.82 in1009.8 mb 0.00 in0.0 mm 0.00 in0.0 mm 0.00 in0.0 mm
02:48 AM 57.4°F14.1°C 37.4°F3.0°C 48% 3.6 mph SSW5.8 kmh SSW 7.4 mph11.9 kmh 29.82 in1009.8 mb 0.00 in0.0 mm 0.00 in0.0 mm 0.00 in0.0 mm
02:49 AM 57.4°F14.1°C 37.4°F3.0°C 48% 3.6 mph SSW5.8 kmh SSW 7.4 mph11.9 kmh 29.82 in1009.8 mb 0.00 in0.0 mm 0.00 in0.0 mm 0.00 in0.0 mm
02:50 AM 57.4°F14.1°C 37.4°F3.0°C 47% 4.7 mph SSW7.6 kmh SSW 7.4 mph11.9 kmh 29.82 in1009.8 mb 0.00 in0.0 mm 0.00 in0.0 mm 0.00 in0.0 mm
02:51 AM 57.4°F14.1°C 37.4°F3.0°C 47% 4.5 mph SSW7.2 kmh SSW 7.4 mph11.9 kmh 29.82 in1009.8 mb 0.00 in0.0 mm 0.00 in0.0 mm 0.00 in0.0 mm
02:52 AM 57.4°F14.1°C 37.4°F3.0°C 47% 3.6 mph SSW5.8 kmh SSW 7.4 mph11.9 kmh 29.82 in1009.8 mb 0.00 in0.0 mm 0.00 in0.0 mm 0.00 in0.0 mm
02:53 AM 57.4°F14.1°C 37.4°F3.0°C 47% 3.6 mph SSW5.8 kmh SSW 7.4 mph11.9 kmh 29.82 in1009.8 mb 0.00 in0.0 mm 0.00 in0.0 mm 0.00 in0.0 mm
02:54 AM 57.4°F14.1°C 37.4°F3.0°C 47% 3.4 mph SSW5.5 kmh SSW 6.5 mph10.5 kmh 29.82 in1009.8 mb 0.00 in0.0 mm 0.00 in0.0 mm 0.00 in0.0 mm
02:55 AM 57.6°F14.2°C 39.2°F4.0°C 48% 3.4 mph S5.5 kmh S 7.2 mph11.6 kmh 29.82 in1009.8 mb 0.00 in0.0 mm 0.00 in0.0 mm 0.00 in0.0 mm
02:56 AM 57.6°F14.2°C 37.4°F3.0°C 47% 5.6 mph S9.0 kmh S 7.2 mph11.6 kmh 29.82 in1009.8 mb 0.00 in0.0 mm 0.00 in0.0 mm 0.00 in0.0 mm
02:57 AM 57.7°F14.3°C 39.2°F4.0°C 48% 4.0 mph S6.4 kmh S 8.7 mph14.0 kmh 29.82 in1009.8 mb 0.00 in0.0 mm 0.00 in0.0 mm 0.00 in0.0 mm
02:58 AM 57.7°F14.3°C 37.4°F3.0°C 47% 5.4 mph S8.7 kmh S 8.7 mph14.0 kmh 29.82 in1009.8 mb 0.00 in0.0 mm 0.00 in0.0 mm 0.00 in0.0 mm
02:59 AM 57.7°F14.3°C 37.4°F3.0°C 47% 5.4 mph S8.7 kmh S 8.7 mph14.0 kmh 29.82 in1009.8 mb 0.00 in0.0 mm 0.00 in0.0 mm 0.00 in0.0 mm
03:00 AM 57.7°F14.3°C 37.4°F3.0°C 47% 4.0 mph S6.4 kmh S 8.7 mph14.0 kmh 29.82 in1009.8 mb 0.00 in0.0 mm 0.00 in0.0 mm 0.00 in0.0 mm
03:01 AM 57.7°F14.3°C 37.4°F3.0°C 47% 5.4 mph S8.7 kmh S 8.7 mph14.0 kmh 29.82 in1009.8 mb 0.00 in0.0 mm 0.00 in0.0 mm 0.00 in0.0 mm
03:02 AM 57.7°F14.3°C 37.4°F3.0°C 47% 4.7 mph S7.6 kmh S 8.7 mph14.0 kmh 29.82 in1009.8 mb 0.00 in0.0 mm 0.00 in0.0 mm 0.00 in0.0 mm
03:03 AM 57.9°F14.4°C 37.4°F3.0°C 47% 3.6 mph SSW5.8 kmh SSW 8.7 mph14.0 kmh 29.82 in1009.8 mb 0.00 in0.0 mm 0.00 in0.0 mm 0.00 in0.0 mm
03:04 AM 57.9°F14.4°C 37.4°F3.0°C 47% 4.0 mph S6.4 kmh S 8.7 mph14.0 kmh 29.82 in1009.8 mb 0.00 in0.0 mm 0.00 in0.0 mm 0.00 in0.0 mm
03:05 AM 57.9°F14.4°C 37.4°F3.0°C 47% 6.5 mph S10.5 kmh S 9.2 mph14.8 kmh 29.82 in1009.8 mb 0.00 in0.0 mm 0.00 in0.0 mm 0.00 in0.0 mm
03:06 AM 57.7°F14.3°C 37.4°F3.0°C 47% 3.8 mph SSW6.1 kmh SSW 9.2 mph14.8 kmh 29.82 in1009.8 mb 0.00 in0.0 mm 0.00 in0.0 mm 0.00 in0.0 mm
03:07 AM 57.7°F14.3°C 37.4°F3.0°C 47% 4.0 mph SSW6.4 kmh SSW 9.2 mph14.8 kmh 29.82 in1009.8 mb 0.00 in0.0 mm 0.00 in0.0 mm 0.00 in0.0 mm
03:08 AM 57.7°F14.3°C 37.4°F3.0°C 47% 3.8 mph S6.1 kmh S 9.2 mph14.8 kmh 29.82 in1009.8 mb 0.00 in0.0 mm 0.00 in0.0 mm 0.00 in0.0 mm
03:09 AM 57.7°F14.3°C 37.4°F3.0°C 47% 3.8 mph S6.1 kmh S 9.2 mph14.8 kmh 29.82 in1009.8 mb 0.00 in0.0 mm 0.00 in0.0 mm 0.00 in0.0 mm
03:10 AM 57.7°F14.3°C 37.4°F3.0°C 47% 4.9 mph S7.9 kmh S 9.2 mph14.8 kmh 29.82 in1009.8 mb 0.00 in0.0 mm 0.00 in0.0 mm 0.00 in0.0 mm
03:11 AM 57.7°F14.3°C 37.4°F3.0°C 47% 4.5 mph S7.2 kmh S 9.2 mph14.8 kmh 29.82 in1009.8 mb 0.00 in0.0 mm 0.00 in0.0 mm 0.00 in0.0 mm
03:12 AM 57.7°F14.3°C 37.4°F3.0°C 47% 3.6 mph S5.8 kmh S 9.2 mph14.8 kmh 29.82 in1009.8 mb 0.00 in0.0 mm 0.00 in0.0 mm 0.00 in0.0 mm
03:13 AM 57.7°F14.3°C 37.4°F3.0°C 47% 4.9 mph S7.9 kmh S 10.5 mph16.9 kmh 29.82 in1009.8 mb 0.00 in0.0 mm 0.00 in0.0 mm 0.00 in0.0 mm
03:14 AM 57.9°F14.4°C 37.4°F3.0°C 47% 5.6 mph S9.0 kmh S 10.5 mph16.9 kmh 29.82 in1009.8 mb 0.00 in0.0 mm 0.00 in0.0 mm 0.00 in0.0 mm
03:15 AM 57.9°F14.4°C 37.4°F3.0°C 47% 2.9 mph S4.7 kmh S 10.5 mph16.9 kmh 29.82 in1009.8 mb 0.00 in0.0 mm 0.00 in0.0 mm 0.00 in0.0 mm
03:16 AM 57.9°F14.4°C 37.4°F3.0°C 47% 2.9 mph S4.7 kmh S 10.5 mph16.9 kmh 29.82 in1009.8 mb 0.00 in0.0 mm 0.00 in0.0 mm 0.00 in0.0 mm
03:17 AM 57.9°F14.4°C 37.4°F3.0°C 47% 6.0 mph S9.7 kmh S 10.5 mph16.9 kmh 29.79 in1008.8 mb 0.00 in0.0 mm 0.00 in0.0 mm 0.00 in0.0 mm
03:18 AM 57.9°F14.4°C 37.4°F3.0°C 47% 3.8 mph S6.1 kmh S 10.5 mph16.9 kmh 29.79 in1008.8 mb 0.00 in0.0 mm 0.00 in0.0 mm 0.00 in0.0 mm
03:19 AM 57.9°F14.4°C 37.4°F3.0°C 47% 3.4 mph S5.5 kmh S 10.5 mph16.9 kmh 29.79 in1008.8 mb 0.00 in0.0 mm 0.00 in0.0 mm 0.00 in0.0 mm
03:20 AM 57.9°F14.4°C 37.4°F3.0°C 47% 4.7 mph S7.6 kmh S 10.5 mph16.9 kmh 29.79 in1008.8 mb 0.00 in0.0 mm 0.00 in0.0 mm 0.00 in0.0 mm
03:21 AM 57.9°F14.4°C 37.4°F3.0°C 47% 4.3 mph S6.9 kmh S 10.5 mph16.9 kmh 29.79 in1008.8 mb 0.00 in0.0 mm 0.00 in0.0 mm 0.00 in0.0 mm
03:22 AM 57.9°F14.4°C 37.4°F3.0°C 47% 4.0 mph S6.4 kmh S 10.5 mph16.9 kmh 29.79 in1008.8 mb 0.00 in0.0 mm 0.00 in0.0 mm 0.00 in0.0 mm
03:23 AM 57.9°F14.4°C 37.4°F3.0°C 47% 4.7 mph S7.6 kmh S 10.5 mph16.9 kmh 29.79 in1008.8 mb 0.00 in0.0 mm 0.00 in0.0 mm 0.00 in0.0 mm
03:24 AM 57.9°F14.4°C 37.4°F3.0°C 47% 5.4 mph S8.7 kmh S 8.5 mph13.7 kmh 29.79 in1008.8 mb 0.00 in0.0 mm 0.00 in0.0 mm 0.00 in0.0 mm
03:25 AM 57.9°F14.4°C 37.4°F3.0°C 47% 5.4 mph S8.7 kmh S 8.5 mph13.7 kmh 29.79 in1008.8 mb 0.00 in0.0 mm 0.00 in0.0 mm 0.00 in0.0 mm
03:26 AM 57.9°F14.4°C 37.4°F3.0°C 47% 4.3 mph S6.9 kmh S 8.5 mph13.7 kmh 29.79 in1008.8 mb 0.00 in0.0 mm 0.00 in0.0 mm 0.00 in0.0 mm
03:27 AM 57.9°F14.4°C 37.4°F3.0°C 47% 3.8 mph S6.1 kmh S 8.5 mph13.7 kmh 29.79 in1008.8 mb 0.00 in0.0 mm 0.00 in0.0 mm 0.00 in0.0 mm
03:28 AM 57.9°F14.4°C 37.4°F3.0°C 47% 6.5 mph S10.5 kmh S 9.4 mph15.1 kmh 29.79 in1008.8 mb 0.00 in0.0 mm 0.00 in0.0 mm 0.00 in0.0 mm
03:29 AM 57.9°F14.4°C 37.4°F3.0°C 47% 5.8 mph S9.3 kmh S 9.4 mph15.1 kmh 29.79 in1008.8 mb 0.00 in0.0 mm 0.00 in0.0 mm 0.00 in0.0 mm
03:30 AM 57.9°F14.4°C 37.4°F3.0°C 47% 4.9 mph S7.9 kmh S 9.4 mph15.1 kmh 29.79 in1008.8 mb 0.00 in0.0 mm 0.00 in0.0 mm 0.00 in0.0 mm
03:31 AM 57.9°F14.4°C 37.4°F3.0°C 47% 4.7 mph S7.6 kmh S 9.4 mph15.1 kmh 29.79 in1008.8 mb 0.00 in0.0 mm 0.00 in0.0 mm 0.00 in0.0 mm
03:32 AM 57.9°F14.4°C 37.4°F3.0°C 47% 4.7 mph S7.6 kmh S 9.4 mph15.1 kmh 29.77 in1008.1 mb 0.00 in0.0 mm 0.00 in0.0 mm 0.00 in0.0 mm
03:33 AM 57.9°F14.4°C 37.4°F3.0°C 47% 4.0 mph S6.4 kmh S 9.4 mph15.1 kmh 29.77 in1008.1 mb 0.00 in0.0 mm 0.00 in0.0 mm 0.00 in0.0 mm
03:34 AM 57.9°F14.4°C 37.4°F3.0°C 47% 5.6 mph S9.0 kmh S 9.8 mph15.8 kmh 29.77 in1008.1 mb 0.00 in0.0 mm 0.00 in0.0 mm 0.00 in0.0 mm
03:35 AM 57.9°F14.4°C 37.4°F3.0°C 47% 4.0 mph S6.4 kmh S 9.8 mph15.8 kmh 29.77 in1008.1 mb 0.00 in0.0 mm 0.00 in0.0 mm 0.00 in0.0 mm
03:36 AM 57.9°F14.4°C 37.4°F3.0°C 47% 4.0 mph S6.4 kmh S 9.8 mph15.8 kmh 29.77 in1008.1 mb 0.00 in0.0 mm 0.00 in0.0 mm 0.00 in0.0 mm
03:37 AM 57.9°F14.4°C 37.4°F3.0°C 47% 4.5 mph S7.2 kmh S 9.8 mph15.8 kmh 29.77 in1008.1 mb 0.00 in0.0 mm 0.00 in0.0 mm 0.00 in0.0 mm
03:38 AM 57.9°F14.4°C 37.4°F3.0°C 47% 4.0 mph S6.4 kmh S 9.8 mph15.8 kmh 29.77 in1008.1 mb 0.00 in0.0 mm 0.00 in0.0 mm 0.00 in0.0 mm
03:39 AM 57.9°F14.4°C 37.4°F3.0°C 47% 8.1 mph S13.0 kmh S 9.8 mph15.8 kmh 29.77 in1008.1 mb 0.00 in0.0 mm 0.00 in0.0 mm 0.00 in0.0 mm
03:40 AM 57.9°F14.4°C 37.4°F3.0°C 47% 4.5 mph S7.2 kmh S 9.8 mph15.8 kmh 29.77 in1008.1 mb 0.00 in0.0 mm 0.00 in0.0 mm 0.00 in0.0 mm
03:41 AM 57.9°F14.4°C 37.4°F3.0°C 47% 4.0 mph S6.4 kmh S 9.8 mph15.8 kmh 29.77 in1008.1 mb 0.00 in0.0 mm 0.00 in0.0 mm 0.00 in0.0 mm
03:42 AM 57.9°F14.4°C 37.4°F3.0°C 47% 4.9 mph S7.9 kmh S 9.8 mph15.8 kmh 29.77 in1008.1 mb 0.00 in0.0 mm 0.00 in0.0 mm 0.00 in0.0 mm
03:43 AM 57.9°F14.4°C 37.4°F3.0°C 47% 4.0 mph S6.4 kmh S 9.8 mph15.8 kmh 29.77 in1008.1 mb 0.00 in0.0 mm 0.00 in0.0 mm 0.00 in0.0 mm
03:44 AM 57.9°F14.4°C 37.4°F3.0°C 47% 4.9 mph S7.9 kmh S 9.8 mph15.8 kmh 29.77 in1008.1 mb 0.00 in0.0 mm 0.00 in0.0 mm 0.00 in0.0 mm
03:45 AM 58.1°F14.5°C 39.2°F4.0°C 47% 5.4 mph S8.7 kmh S 9.8 mph15.8 kmh 29.77 in1008.1 mb 0.00 in0.0 mm 0.00 in0.0 mm 0.00 in0.0 mm
03:46 AM 58.1°F14.5°C 39.2°F4.0°C 47% 5.6 mph S9.0 kmh S 9.8 mph15.8 kmh 29.77 in1008.1 mb 0.00 in0.0 mm 0.00 in0.0 mm 0.00 in0.0 mm
03:47 AM 57.9°F14.4°C 37.4°F3.0°C 47% 5.6 mph S9.0 kmh S 10.7 mph17.2 kmh 29.77 in1008.1 mb 0.00 in0.0 mm 0.00 in0.0 mm 0.00 in0.0 mm
03:48 AM 57.9°F14.4°C 37.4°F3.0°C 47% 6.3 mph S10.1 kmh S 10.7 mph17.2 kmh 29.77 in1008.1 mb 0.00 in0.0 mm 0.00 in0.0 mm 0.00 in0.0 mm
03:49 AM 57.9°F14.4°C 37.4°F3.0°C 46% 4.9 mph S7.9 kmh S 10.7 mph17.2 kmh 29.77 in1008.1 mb 0.00 in0.0 mm 0.00 in0.0 mm 0.00 in0.0 mm
03:50 AM 57.9°F14.4°C 37.4°F3.0°C 47% 3.6 mph S5.8 kmh S 10.7 mph17.2 kmh 29.77 in1008.1 mb 0.00 in0.0 mm 0.00 in0.0 mm 0.00 in0.0 mm
03:51 AM 57.9°F14.4°C 37.4°F3.0°C 47% 4.9 mph S7.9 kmh S 10.7 mph17.2 kmh 29.77 in1008.1 mb 0.00 in0.0 mm 0.00 in0.0 mm 0.00 in0.0 mm
03:52 AM 57.9°F14.4°C 37.4°F3.0°C 47% 4.5 mph S7.2 kmh S 10.7 mph17.2 kmh 29.77 in1008.1 mb 0.00 in0.0 mm 0.00 in0.0 mm 0.00 in0.0 mm
03:53 AM 57.9°F14.4°C 37.4°F3.0°C 47% 4.0 mph S6.4 kmh S 10.7 mph17.2 kmh 29.77 in1008.1 mb 0.00 in0.0 mm 0.00 in0.0 mm 0.00 in0.0 mm
03:54 AM 57.9°F14.4°C 37.4°F3.0°C 47% 6.0 mph S9.7 kmh S 10.7 mph17.2 kmh 29.77 in1008.1 mb 0.00 in0.0 mm 0.00 in0.0 mm 0.00 in0.0 mm
03:55 AM 57.9°F14.4°C 37.4°F3.0°C 47% 6.3 mph S10.1 kmh S 10.7 mph17.2 kmh 29.77 in1008.1 mb 0.00 in0.0 mm 0.00 in0.0 mm 0.00 in0.0 mm
03:56 AM 57.9°F14.4°C 37.4°F3.0°C 47% 4.5 mph S7.2 kmh S 10.7 mph17.2 kmh 29.77 in1008.1 mb 0.00 in0.0 mm 0.00 in0.0 mm 0.00 in0.0 mm
03:57 AM 57.9°F14.4°C 37.4°F3.0°C 47% 4.5 mph S7.2 kmh S 9.8 mph15.8 kmh 29.77 in1008.1 mb 0.00 in0.0 mm 0.00 in0.0 mm 0.00 in0.0 mm
03:58 AM 57.9°F14.4°C 37.4°F3.0°C 46% 3.8 mph S6.1 kmh S 9.8 mph15.8 kmh 29.77 in1008.1 mb 0.00 in0.0 mm 0.00 in0.0 mm 0.00 in0.0 mm
03:59 AM 57.9°F14.4°C 37.4°F3.0°C 46% 5.6 mph S9.0 kmh S 9.8 mph15.8 kmh 29.77 in1008.1 mb 0.00 in0.0 mm 0.00 in0.0 mm 0.00 in0.0 mm
04:00 AM 57.9°F14.4°C 37.4°F3.0°C 47% 4.5 mph S7.2 kmh S 9.8 mph15.8 kmh 29.77 in1008.1 mb 0.00 in0.0 mm 0.00 in0.0 mm 0.00 in0.0 mm
04:01 AM 58.1°F14.5°C 37.4°F3.0°C 46% 4.5 mph S7.2 kmh S 9.8 mph15.8 kmh 29.77 in1008.1 mb 0.00 in0.0 mm 0.00 in0.0 mm 0.00 in0.0 mm
04:02 AM 58.1°F14.5°C 39.2°F4.0°C 47% 4.0 mph S6.4 kmh S 9.8 mph15.8 kmh 29.79 in1008.8 mb 0.00 in0.0 mm 0.00 in0.0 mm 0.00 in0.0 mm
04:03 AM 58.1°F14.5°C 37.4°F3.0°C 46% 5.6 mph S9.0 kmh S 9.8 mph15.8 kmh 29.79 in1008.8 mb 0.00 in0.0 mm 0.00 in0.0 mm 0.00 in0.0 mm
04:04 AM 58.1°F14.5°C 37.4°F3.0°C 46% 3.8 mph S6.1 kmh S 9.8 mph15.8 kmh 29.79 in1008.8 mb 0.00 in0.0 mm 0.00 in0.0 mm 0.00 in0.0 mm
04:05 AM 58.1°F14.5°C 37.4°F3.0°C 46% 3.8 mph S6.1 kmh S 8.5 mph13.7 kmh 29.79 in1008.8 mb 0.00 in0.0 mm 0.00 in0.0 mm 0.00 in0.0 mm
04:06 AM 58.1°F14.5°C 39.2°F4.0°C 47% 4.0 mph S6.4 kmh S 8.5 mph13.7 kmh 29.79 in1008.8 mb 0.00 in0.0 mm 0.00 in0.0 mm 0.00 in0.0 mm
04:07 AM 58.1°F14.5°C 39.2°F4.0°C 47% 4.0 mph S6.4 kmh S 8.5 mph13.7 kmh 29.79 in1008.8 mb 0.00 in0.0 mm 0.00 in0.0 mm 0.00 in0.0 mm
04:08 AM 58.1°F14.5°C 39.2°F4.0°C 47% 4.5 mph S7.2 kmh S 8.5 mph13.7 kmh 29.79 in1008.8 mb 0.00 in0.0 mm 0.00 in0.0 mm 0.00 in0.0 mm
04:09 AM 57.9°F14.4°C 37.4°F3.0°C 47% 3.6 mph S5.8 kmh S 8.5 mph13.7 kmh 29.79 in1008.8 mb 0.00 in0.0 mm 0.00 in0.0 mm 0.00 in0.0 mm
04:10 AM 57.9°F14.4°C 37.4°F3.0°C 47% 5.8 mph S9.3 kmh S 8.5 mph13.7 kmh 29.79 in1008.8 mb 0.00 in0.0 mm 0.00 in0.0 mm 0.00 in0.0 mm
04:11 AM 57.9°F14.4°C 37.4°F3.0°C 47% 5.6 mph S9.0 kmh S 8.5 mph13.7 kmh 29.79 in1008.8 mb 0.00 in0.0 mm 0.00 in0.0 mm 0.00 in0.0 mm
04:12 AM 57.9°F14.4°C 37.4°F3.0°C 47% 3.8 mph S6.1 kmh S 8.5 mph13.7 kmh 29.79 in1008.8 mb 0.00 in0.0 mm 0.00 in0.0 mm 0.00 in0.0 mm
04:13 AM 57.9°F14.4°C 37.4°F3.0°C 47% 6.5 mph S10.5 kmh S 8.1 mph13.0 kmh 29.79 in1008.8 mb 0.00 in0.0 mm 0.00 in0.0 mm 0.00 in0.0 mm
04:14 AM 57.9°F14.4°C 37.4°F3.0°C 47% 4.5 mph SSW7.2 kmh SSW 9.4 mph15.1 kmh 29.79 in1008.8 mb 0.00 in0.0 mm 0.00 in0.0 mm 0.00 in0.0 mm
04:15 AM 57.9°F14.4°C 37.4°F3.0°C 47% 4.3 mph SSW6.9 kmh SSW 9.4 mph15.1 kmh 29.79 in1008.8 mb 0.00 in0.0 mm 0.00 in0.0 mm 0.00 in0.0 mm
04:16 AM 57.9°F14.4°C 37.4°F3.0°C 47% 3.1 mph SSW5.0 kmh SSW 9.4 mph15.1 kmh 29.79 in1008.8 mb 0.00 in0.0 mm 0.00 in0.0 mm 0.00 in0.0 mm
04:17 AM 57.9°F14.4°C 37.4°F3.0°C 47% 3.8 mph SSW6.1 kmh SSW 9.4 mph15.1 kmh 29.73 in1006.8 mb 0.00 in0.0 mm 0.00 in0.0 mm 0.00 in0.0 mm
04:18 AM 58.1°F14.5°C 39.2°F4.0°C 47% 4.9 mph SSW7.9 kmh SSW 9.4 mph15.1 kmh 29.73 in1006.8 mb 0.00 in0.0 mm 0.00 in0.0 mm 0.00 in0.0 mm
04:19 AM 58.1°F14.5°C 39.2°F4.0°C 47% 3.8 mph SSW6.1 kmh SSW 9.4 mph15.1 kmh 29.73 in1006.8 mb 0.00 in0.0 mm 0.00 in0.0 mm 0.00 in0.0 mm
04:20 AM 58.1°F14.5°C 39.2°F4.0°C 47% 4.9 mph SSW7.9 kmh SSW 9.4 mph15.1 kmh 29.73 in1006.8 mb 0.00 in0.0 mm 0.00 in0.0 mm 0.00 in0.0 mm
04:21 AM 58.1°F14.5°C 39.2°F4.0°C 47% 5.6 mph S9.0 kmh S 9.4 mph15.1 kmh 29.73 in1006.8 mb 0.00 in0.0 mm 0.00 in0.0 mm 0.00 in0.0 mm
04:22 AM 58.1°F14.5°C 39.2°F4.0°C 47% 4.9 mph SSW7.9 kmh SSW 9.6 mph15.4 kmh 29.73 in1006.8 mb 0.00 in0.0 mm 0.00 in0.0 mm 0.00 in0.0 mm
04:23 AM 58.1°F14.5°C 39.2°F4.0°C 47% 4.7 mph SSW7.6 kmh SSW 9.6 mph15.4 kmh 29.73 in1006.8 mb 0.00 in0.0 mm 0.00 in0.0 mm 0.00 in0.0 mm
04:24 AM 58.1°F14.5°C 39.2°F4.0°C 47% 3.6 mph S5.8 kmh S 9.6 mph15.4 kmh 29.73 in1006.8 mb 0.00 in0.0 mm 0.00 in0.0 mm 0.00 in0.0 mm
04:25 AM 58.1°F14.5°C 39.2°F4.0°C 47% 2.7 mph S4.3 kmh S 9.6 mph15.4 kmh 29.73 in1006.8 mb 0.00 in0.0 mm 0.00 in0.0 mm 0.00 in0.0 mm
04:26 AM 58.1°F14.5°C 39.2°F4.0°C 47% 6.3 mph SSW10.1 kmh SSW 10.3 mph16.6 kmh 29.73 in1006.8 mb 0.00 in0.0 mm 0.00 in0.0 mm 0.00 in0.0 mm
04:27 AM 58.1°F14.5°C 39.2°F4.0°C 47% 3.8 mph SSW6.1 kmh SSW 10.3 mph16.6 kmh 29.73 in1006.8 mb 0.00 in0.0 mm 0.00 in0.0 mm 0.00 in0.0 mm
04:28 AM 58.1°F14.5°C 39.2°F4.0°C 47% 4.9 mph SSW7.9 kmh SSW 10.3 mph16.6 kmh 29.73 in1006.8 mb 0.00 in0.0 mm 0.00 in0.0 mm 0.00 in0.0 mm
04:29 AM 58.1°F14.5°C 39.2°F4.0°C 47% 4.9 mph SSW7.9 kmh SSW 10.3 mph16.6 kmh 29.73 in1006.8 mb 0.00 in0.0 mm 0.00 in0.0 mm 0.00 in0.0 mm
04:30 AM 58.1°F14.5°C 39.2°F4.0°C 47% 3.6 mph SSW5.8 kmh SSW 10.3 mph16.6 kmh 29.73 in1006.8 mb 0.00 in0.0 mm 0.00 in0.0 mm 0.00 in0.0 mm
04:31 AM 58.1°F14.5°C 39.2°F4.0°C 47% 2.7 mph SSW4.3 kmh SSW 10.3 mph16.6 kmh 29.73 in1006.8 mb 0.00 in0.0 mm 0.00 in0.0 mm 0.00 in0.0 mm
04:32 AM 58.1°F14.5°C 39.2°F4.0°C 47% 2.7 mph SW4.3 kmh SW 10.3 mph16.6 kmh 29.73 in1006.8 mb 0.00 in0.0 mm 0.00 in0.0 mm 0.00 in0.0 mm
04:33 AM 58.1°F14.5°C 39.2°F4.0°C 47% 3.8 mph SSW6.1 kmh SSW 10.3 mph16.6 kmh 29.73 in1006.8 mb 0.00 in0.0 mm 0.00 in0.0 mm 0.00 in0.0 mm
04:34 AM 57.9°F14.4°C 37.4°F3.0°C 47% 3.8 mph SSW6.1 kmh SSW 12.1 mph19.5 kmh 29.73 in1006.8 mb 0.00 in0.0 mm 0.00 in0.0 mm 0.00 in0.0 mm
04:35 AM 57.9°F14.4°C 37.4°F3.0°C 47% 5.6 mph SSW9.0 kmh SSW 12.1 mph19.5 kmh 29.73 in1006.8 mb 0.00 in0.0 mm 0.00 in0.0 mm 0.00 in0.0 mm
04:36 AM 57.9°F14.4°C 37.4°F3.0°C 47% 6.0 mph SSW9.7 kmh SSW 12.1 mph19.5 kmh 29.73 in1006.8 mb 0.00 in0.0 mm 0.00 in0.0 mm 0.00 in0.0 mm
04:37 AM 57.9°F14.4°C 37.4°F3.0°C 47% 3.1 mph SSW5.0 kmh SSW 12.1 mph19.5 kmh 29.73 in1006.8 mb 0.00 in0.0 mm 0.00 in0.0 mm 0.00 in0.0 mm
04:38 AM 57.9°F14.4°C 37.4°F3.0°C 47% 3.8 mph SSW6.1 kmh SSW 12.1 mph19.5 kmh 29.73 in1006.8 mb 0.00 in0.0 mm 0.00 in0.0 mm 0.00 in0.0 mm
04:39 AM 58.1°F14.5°C 39.2°F4.0°C 47% 4.9 mph SSW7.9 kmh SSW 12.1 mph19.5 kmh 29.73 in1006.8 mb 0.00 in0.0 mm 0.00 in0.0 mm 0.00 in0.0 mm
04:40 AM 58.1°F14.5°C 39.2°F4.0°C 47% 4.3 mph SSW6.9 kmh SSW 12.1 mph19.5 kmh 29.73 in1006.8 mb 0.00 in0.0 mm 0.00 in0.0 mm 0.00 in0.0 mm
04:41 AM 58.1°F14.5°C 39.2°F4.0°C 47% 4.0 mph SSW6.4 kmh SSW 12.1 mph19.5 kmh 29.73 in1006.8 mb 0.00 in0.0 mm 0.00 in0.0 mm 0.00 in0.0 mm
04:42 AM 58.1°F14.5°C 39.2°F4.0°C 47% 4.5 mph SSW7.2 kmh SSW 12.1 mph19.5 kmh 29.73 in1006.8 mb 0.00 in0.0 mm 0.00 in0.0 mm 0.00 in0.0 mm
04:43 AM 58.1°F14.5°C 39.2°F4.0°C 47% 3.8 mph SSW6.1 kmh SSW 12.1 mph19.5 kmh 29.73 in1006.8 mb 0.00 in0.0 mm 0.00 in0.0 mm 0.00 in0.0 mm
04:44 AM 58.1°F14.5°C 39.2°F4.0°C 47% 3.6 mph SSW5.8 kmh SSW 12.1 mph19.5 kmh 29.73 in1006.8 mb 0.00 in0.0 mm 0.00 in0.0 mm 0.00 in0.0 mm
04:45 AM 58.1°F14.5°C 39.2°F4.0°C 47% 3.8 mph SSW6.1 kmh SSW 8.7 mph14.0 kmh 29.73 in1006.8 mb 0.00 in0.0 mm 0.00 in0.0 mm 0.00 in0.0 mm
04:46 AM 58.1°F14.5°C 39.2°F4.0°C 47% 4.7 mph S7.6 kmh S 8.7 mph14.0 kmh 29.73 in1006.8 mb 0.00 in0.0 mm 0.00 in0.0 mm 0.00 in0.0 mm
04:47 AM 58.1°F14.5°C 39.2°F4.0°C 47% 5.6 mph SSW9.0 kmh SSW 8.7 mph14.0 kmh 29.77 in1008.1 mb 0.00 in0.0 mm 0.00 in0.0 mm 0.00 in0.0 mm
04:48 AM 58.1°F14.5°C 39.2°F4.0°C 47% 4.5 mph S7.2 kmh S 8.7 mph14.0 kmh 29.77 in1008.1 mb 0.00 in0.0 mm 0.00 in0.0 mm 0.00 in0.0 mm
04:49 AM 58.1°F14.5°C 39.2°F4.0°C 47% 3.6 mph S5.8 kmh S 8.7 mph14.0 kmh 29.77 in1008.1 mb 0.00 in0.0 mm 0.00 in0.0 mm 0.00 in0.0 mm
04:50 AM 58.1°F14.5°C 39.2°F4.0°C 47% 4.3 mph S6.9 kmh S 8.7 mph14.0 kmh 29.77 in1008.1 mb 0.00 in0.0 mm 0.00 in0.0 mm 0.00 in0.0 mm
04:51 AM 58.1°F14.5°C 39.2°F4.0°C 47% 4.0 mph S6.4 kmh S 8.7 mph14.0 kmh 29.77 in1008.1 mb 0.00 in0.0 mm 0.00 in0.0 mm 0.00 in0.0 mm
04:52 AM 58.1°F14.5°C 39.2°F4.0°C 47% 4.3 mph SSW6.9 kmh SSW 8.7 mph14.0 kmh 29.77 in1008.1 mb 0.00 in0.0 mm 0.00 in0.0 mm 0.00 in0.0 mm
04:53 AM 58.1°F14.5°C 39.2°F4.0°C 48% 6.0 mph SSW9.7 kmh SSW 9.2 mph14.8 kmh 29.77 in1008.1 mb 0.00 in0.0 mm 0.00 in0.0 mm 0.00 in0.0 mm
04:54 AM 58.1°F14.5°C 39.2°F4.0°C 48% 5.8 mph S9.3 kmh S 9.2 mph14.8 kmh 29.77 in1008.1 mb 0.00 in0.0 mm 0.00 in0.0 mm 0.00 in0.0 mm
04:55 AM 58.1°F14.5°C 39.2°F4.0°C 48% 4.0 mph S6.4 kmh S 9.2 mph14.8 kmh 29.77 in1008.1 mb 0.00 in0.0 mm 0.00 in0.0 mm 0.00 in0.0 mm
04:56 AM 58.1°F14.5°C 39.2°F4.0°C 48% 4.7 mph S7.6 kmh S 9.2 mph14.8 kmh 29.77 in1008.1 mb 0.00 in0.0 mm 0.00 in0.0 mm 0.00 in0.0 mm
04:57 AM 58.1°F14.5°C 39.2°F4.0°C 47% 5.4 mph S8.7 kmh S 9.2 mph14.8 kmh 29.77 in1008.1 mb 0.00 in0.0 mm 0.00 in0.0 mm 0.00 in0.0 mm
04:58 AM 58.3°F14.6°C 39.2°F4.0°C 48% 5.4 mph S8.7 kmh S 9.6 mph15.4 kmh 29.77 in1008.1 mb 0.00 in0.0 mm 0.00 in0.0 mm 0.00 in0.0 mm
04:59 AM 58.3°F14.6°C 39.2°F4.0°C 48% 3.4 mph S5.5 kmh S 9.6 mph15.4 kmh 29.77 in1008.1 mb 0.00 in0.0 mm 0.00 in0.0 mm 0.00 in0.0 mm
05:00 AM 58.3°F14.6°C 39.2°F4.0°C 48% 5.6 mph S9.0 kmh S 9.6 mph15.4 kmh 29.77 in1008.1 mb 0.00 in0.0 mm 0.00 in0.0 mm 0.00 in0.0 mm
05:01 AM 58.3°F14.6°C 39.2°F4.0°C 48% 4.9 mph S7.9 kmh S 9.6 mph15.4 kmh 29.77 in1008.1 mb 0.00 in0.0 mm 0.00 in0.0 mm 0.00 in0.0 mm
05:02 AM 58.3°F14.6°C 39.2°F4.0°C 48% 4.3 mph S6.9 kmh S 9.6 mph15.4 kmh 29.77 in1008.1 mb 0.00 in0.0 mm 0.00 in0.0 mm 0.00 in0.0 mm
05:03 AM 58.3°F14.6°C 39.2°F4.0°C 48% 3.8 mph S6.1 kmh S 9.6 mph15.4 kmh 29.77 in1008.1 mb 0.00 in0.0 mm 0.00 in0.0 mm 0.00 in0.0 mm
05:04 AM 58.3°F14.6°C 39.2°F4.0°C 48% 3.6 mph S5.8 kmh S 9.6 mph15.4 kmh 29.77 in1008.1 mb 0.00 in0.0 mm 0.00 in0.0 mm 0.00 in0.0 mm
05:05 AM 58.3°F14.6°C 39.2°F4.0°C 48% 4.3 mph S6.9 kmh S 9.8 mph15.8 kmh 29.77 in1008.1 mb 0.00 in0.0 mm 0.00 in0.0 mm 0.00 in0.0 mm
05:06 AM 58.3°F14.6°C 39.2°F4.0°C 48% 6.0 mph SSW9.7 kmh SSW 9.8 mph15.8 kmh 29.77 in1008.1 mb 0.00 in0.0 mm 0.00 in0.0 mm 0.00 in0.0 mm
05:07 AM 58.3°F14.6°C 39.2°F4.0°C 48% 4.9 mph SSW7.9 kmh SSW 9.8 mph15.8 kmh 29.77 in1008.1 mb 0.00 in0.0 mm 0.00 in0.0 mm 0.00 in0.0 mm
05:08 AM 58.3°F14.6°C 39.2°F4.0°C 48% 4.3 mph SSW6.9 kmh SSW 9.8 mph15.8 kmh 29.77 in1008.1 mb 0.00 in0.0 mm 0.00 in0.0 mm 0.00 in0.0 mm
05:09 AM 58.3°F14.6°C 39.2°F4.0°C 48% 4.0 mph SSW6.4 kmh SSW 9.8 mph15.8 kmh 29.77 in1008.1 mb 0.00 in0.0 mm 0.00 in0.0 mm 0.00 in0.0 mm
05:10 AM 58.3°F14.6°C 39.2°F4.0°C 48% 4.0 mph SSW6.4 kmh SSW 9.8 mph15.8 kmh 29.77 in1008.1 mb 0.00 in0.0 mm 0.00 in0.0 mm 0.00 in0.0 mm
05:11 AM 58.3°F14.6°C 39.2°F4.0°C 48% 4.0 mph SSW6.4 kmh SSW 9.8 mph15.8 kmh 29.77 in1008.1 mb 0.00 in0.0 mm 0.00 in0.0 mm 0.00 in0.0 mm
05:12 AM 58.3°F14.6°C 39.2°F4.0°C 48% 4.5 mph SSW7.2 kmh SSW 9.8 mph15.8 kmh 29.77 in1008.1 mb 0.00 in0.0 mm 0.00 in0.0 mm 0.00 in0.0 mm
05:13 AM 58.3°F14.6°C 39.2°F4.0°C 48% 4.0 mph SSW6.4 kmh SSW 9.8 mph15.8 kmh 29.77 in1008.1 mb 0.00 in0.0 mm 0.00 in0.0 mm 0.00 in0.0 mm
05:14 AM 58.3°F14.6°C 39.2°F4.0°C 48% 3.6 mph SSW5.8 kmh SSW 9.8 mph15.8 kmh 29.77 in1008.1 mb 0.00 in0.0 mm 0.00 in0.0 mm 0.00 in0.0 mm
05:15 AM 58.1°F14.5°C 39.2°F4.0°C 48% 3.8 mph SSW6.1 kmh SSW 15.4 mph24.8 kmh 29.77 in1008.1 mb 0.00 in0.0 mm 0.00 in0.0 mm 0.00 in0.0 mm
05:16 AM 58.3°F14.6°C 39.2°F4.0°C 48% 6.9 mph SSW11.1 kmh SSW 15.4 mph24.8 kmh 29.77 in1008.1 mb 0.00 in0.0 mm 0.00 in0.0 mm 0.00 in0.0 mm
05:17 AM 58.3°F14.6°C 39.2°F4.0°C 48% 3.6 mph S5.8 kmh S 15.4 mph24.8 kmh 29.77 in1008.1 mb 0.00 in0.0 mm 0.00 in0.0 mm 0.00 in0.0 mm
05:18 AM 58.3°F14.6°C 39.2°F4.0°C 48% 3.1 mph S5.0 kmh S 15.4 mph24.8 kmh 29.77 in1008.1 mb 0.00 in0.0 mm 0.00 in0.0 mm 0.00 in0.0 mm
05:19 AM 58.3°F14.6°C 39.2°F4.0°C 48% 3.8 mph SSW6.1 kmh SSW 15.4 mph24.8 kmh 29.77 in1008.1 mb 0.00 in0.0 mm 0.00 in0.0 mm 0.00 in0.0 mm
05:20 AM 58.3°F14.6°C 39.2°F4.0°C 48% 5.6 mph SSW9.0 kmh SSW 15.4 mph24.8 kmh 29.77 in1008.1 mb 0.00 in0.0 mm 0.00 in0.0 mm 0.00 in0.0 mm
05:21 AM 58.3°F14.6°C 39.2°F4.0°C 48% 5.6 mph SSW9.0 kmh SSW 15.4 mph24.8 kmh 29.77 in1008.1 mb 0.00 in0.0 mm 0.00 in0.0 mm 0.00 in0.0 mm
05:22 AM 58.3°F14.6°C 39.2°F4.0°C 48% 2.9 mph S4.7 kmh S 15.4 mph24.8 kmh 29.77 in1008.1 mb 0.00 in0.0 mm 0.00 in0.0 mm 0.00 in0.0 mm
05:23 AM 58.3°F14.6°C 39.2°F4.0°C 48% 4.3 mph S6.9 kmh S 15.4 mph24.8 kmh 29.77 in1008.1 mb 0.00 in0.0 mm 0.00 in0.0 mm 0.00 in0.0 mm
05:24 AM 58.3°F14.6°C 39.2°F4.0°C 48% 4.7 mph S7.6 kmh S 15.4 mph24.8 kmh 29.77 in1008.1 mb 0.00 in0.0 mm 0.00 in0.0 mm 0.00 in0.0 mm
05:25 AM 58.5°F14.7°C 39.2°F4.0°C 48% 5.6 mph SSW9.0 kmh SSW 10.3 mph16.6 kmh 29.77 in1008.1 mb 0.00 in0.0 mm 0.00 in0.0 mm 0.00 in0.0 mm
05:26 AM 58.5°F14.7°C 39.2°F4.0°C 48% 5.6 mph S9.0 kmh S 8.1 mph13.0 kmh 29.77 in1008.1 mb 0.00 in0.0 mm 0.00 in0.0 mm 0.00 in0.0 mm
05:27 AM 58.5°F14.7°C 39.2°F4.0°C 48% 4.5 mph SSW7.2 kmh SSW 8.5 mph13.7 kmh 29.77 in1008.1 mb 0.00 in0.0 mm 0.00 in0.0 mm 0.00 in0.0 mm
05:28 AM 58.5°F14.7°C 39.2°F4.0°C 48% 4.9 mph S7.9 kmh S 9.8 mph15.8 kmh 29.77 in1008.1 mb 0.00 in0.0 mm 0.00 in0.0 mm 0.00 in0.0 mm
05:29 AM 58.5°F14.7°C 39.2°F4.0°C 48% 3.8 mph S6.1 kmh S 9.8 mph15.8 kmh 29.77 in1008.1 mb 0.00 in0.0 mm 0.00 in0.0 mm 0.00 in0.0 mm
05:30 AM 58.5°F14.7°C 39.2°F4.0°C 48% 3.4 mph S5.5 kmh S 9.8 mph15.8 kmh 29.77 in1008.1 mb 0.00 in0.0 mm 0.00 in0.0 mm 0.00 in0.0 mm
05:31 AM 58.3°F14.6°C 39.2°F4.0°C 48% 3.4 mph SSW5.5 kmh SSW 9.8 mph15.8 kmh 29.77 in1008.1 mb 0.00 in0.0 mm 0.00 in0.0 mm 0.00 in0.0 mm
05:32 AM 58.3°F14.6°C 39.2°F4.0°C 48% 4.7 mph SSW7.6 kmh SSW 9.8 mph15.8 kmh 29.73 in1006.8 mb 0.00 in0.0 mm 0.00 in0.0 mm 0.00 in0.0 mm
05:33 AM 58.3°F14.6°C 39.2°F4.0°C 48% 4.5 mph S7.2 kmh S 9.8 mph15.8 kmh 29.73 in1006.8 mb 0.00 in0.0 mm 0.00 in0.0 mm 0.00 in0.0 mm
05:34 AM 58.3°F14.6°C 39.2°F4.0°C 48% 2.7 mph S4.3 kmh S 9.8 mph15.8 kmh 29.73 in1006.8 mb 0.00 in0.0 mm 0.00 in0.0 mm 0.00 in0.0 mm
05:35 AM 58.3°F14.6°C 39.2°F4.0°C 48% 3.6 mph S5.8 kmh S 9.8 mph15.8 kmh 29.73 in1006.8 mb 0.00 in0.0 mm 0.00 in0.0 mm 0.00 in0.0 mm
05:36 AM 58.1°F14.5°C 39.2°F4.0°C 48% 5.4 mph S8.7 kmh S 9.8 mph15.8 kmh 29.73 in1006.8 mb 0.00 in0.0 mm 0.00 in0.0 mm 0.00 in0.0 mm
05:37 AM 58.1°F14.5°C 39.2°F4.0°C 48% 7.4 mph S11.9 kmh S 9.8 mph15.8 kmh 29.73 in1006.8 mb 0.00 in0.0 mm 0.00 in0.0 mm 0.00 in0.0 mm
05:38 AM 58.1°F14.5°C 39.2°F4.0°C 48% 3.8 mph S6.1 kmh S 8.7 mph14.0 kmh 29.73 in1006.8 mb 0.00 in0.0 mm 0.00 in0.0 mm 0.00 in0.0 mm
05:39 AM 58.1°F14.5°C 39.2°F4.0°C 48% 3.8 mph S6.1 kmh S 8.7 mph14.0 kmh 29.73 in1006.8 mb 0.00 in0.0 mm 0.00 in0.0 mm 0.00 in0.0 mm
05:40 AM 58.1°F14.5°C 39.2°F4.0°C 49% 4.3 mph S6.9 kmh S 8.7 mph14.0 kmh 29.73 in1006.8 mb 0.00 in0.0 mm 0.00 in0.0 mm 0.00 in0.0 mm
05:41 AM 58.1°F14.5°C 39.2°F4.0°C 49% 4.0 mph S6.4 kmh S 8.7 mph14.0 kmh 29.73 in1006.8 mb 0.00 in0.0 mm 0.00 in0.0 mm 0.00 in0.0 mm
05:42 AM 58.1°F14.5°C 39.2°F4.0°C 49% 5.4 mph S8.7 kmh S 8.7 mph14.0 kmh 29.73 in1006.8 mb 0.00 in0.0 mm 0.00 in0.0 mm 0.00 in0.0 mm
05:43 AM 58.1°F14.5°C 39.2°F4.0°C 48% 4.5 mph S7.2 kmh S 8.7 mph14.0 kmh 29.73 in1006.8 mb 0.00 in0.0 mm 0.00 in0.0 mm 0.00 in0.0 mm
05:44 AM 58.3°F14.6°C 39.2°F4.0°C 48% 3.6 mph S5.8 kmh S 8.7 mph14.0 kmh 29.73 in1006.8 mb 0.00 in0.0 mm 0.00 in0.0 mm 0.00 in0.0 mm
05:45 AM 58.3°F14.6°C 39.2°F4.0°C 49% 4.0 mph S6.4 kmh S 8.7 mph14.0 kmh 29.73 in1006.8 mb 0.00 in0.0 mm 0.00 in0.0 mm 0.00 in0.0 mm
05:46 AM 58.3°F14.6°C 39.2°F4.0°C 49% 4.5 mph S7.2 kmh S 8.5 mph13.7 kmh 29.73 in1006.8 mb 0.00 in0.0 mm 0.00 in0.0 mm 0.00 in0.0 mm
05:47 AM 58.3°F14.6°C 39.2°F4.0°C 49% 3.6 mph S5.8 kmh S 7.4 mph11.9 kmh 29.73 in1006.8 mb 0.00 in0.0 mm 0.00 in0.0 mm 0.00 in0.0 mm
05:48 AM 58.3°F14.6°C 39.2°F4.0°C 49% 4.9 mph SSW7.9 kmh SSW 7.4 mph11.9 kmh 29.73 in1006.8 mb 0.00 in0.0 mm 0.00 in0.0 mm 0.00 in0.0 mm
05:49 AM 58.3°F14.6°C 39.2°F4.0°C 49% 6.3 mph SSW10.1 kmh SSW 7.4 mph11.9 kmh 29.73 in1006.8 mb 0.00 in0.0 mm 0.00 in0.0 mm 0.00 in0.0 mm
05:50 AM 58.3°F14.6°C 39.2°F4.0°C 49% 4.9 mph S7.9 kmh S 7.4 mph11.9 kmh 29.73 in1006.8 mb 0.00 in0.0 mm 0.00 in0.0 mm 0.00 in0.0 mm
05:51 AM 58.3°F14.6°C 39.2°F4.0°C 49% 5.4 mph S8.7 kmh S 8.7 mph14.0 kmh 29.73 in1006.8 mb 0.00 in0.0 mm 0.00 in0.0 mm 0.00 in0.0 mm
05:52 AM 58.3°F14.6°C 39.2°F4.0°C 49% 3.4 mph S5.5 kmh S 8.7 mph14.0 kmh 29.73 in1006.8 mb 0.00 in0.0 mm 0.00 in0.0 mm 0.00 in0.0 mm
05:53 AM 58.3°F14.6°C 39.2°F4.0°C 49% 4.7 mph S7.6 kmh S 8.7 mph14.0 kmh 29.73 in1006.8 mb 0.00 in0.0 mm 0.00 in0.0 mm 0.00 in0.0 mm
05:54 AM 58.3°F14.6°C 39.2°F4.0°C 49% 3.8 mph S6.1 kmh S 8.7 mph14.0 kmh 29.73 in1006.8 mb 0.00 in0.0 mm 0.00 in0.0 mm 0.00 in0.0 mm
05:55 AM 58.3°F14.6°C 39.2°F4.0°C 49% 4.0 mph S6.4 kmh S 9.6 mph15.4 kmh 29.73 in1006.8 mb 0.00 in0.0 mm 0.00 in0.0 mm 0.00 in0.0 mm
05:56 AM 58.3°F14.6°C 39.2°F4.0°C 49% 4.0 mph S6.4 kmh S 9.6 mph15.4 kmh 29.73 in1006.8 mb 0.00 in0.0 mm 0.00 in0.0 mm 0.00 in0.0 mm
05:57 AM 58.3°F14.6°C 39.2°F4.0°C 49% 3.8 mph S6.1 kmh S 9.6 mph15.4 kmh 29.73 in1006.8 mb 0.00 in0.0 mm 0.00 in0.0 mm 0.00 in0.0 mm
05:58 AM 58.3°F14.6°C 39.2°F4.0°C 49% 4.9 mph S7.9 kmh S 9.6 mph15.4 kmh 29.73 in1006.8 mb 0.00 in0.0 mm 0.00 in0.0 mm 0.00 in0.0 mm
05:59 AM 58.1°F14.5°C 39.2°F4.0°C 49% 5.4 mph SSW8.7 kmh SSW 9.6 mph15.4 kmh 29.73 in1006.8 mb 0.00 in0.0 mm 0.00 in0.0 mm 0.00 in0.0 mm
06:00 AM 58.1°F14.5°C 39.2°F4.0°C 49% 4.9 mph SSW7.9 kmh SSW 9.6 mph15.4 kmh 29.73 in1006.8 mb 0.00 in0.0 mm 0.00 in0.0 mm 0.00 in0.0 mm
06:01 AM 58.3°F14.6°C 39.2°F4.0°C 49% 4.5 mph SSW7.2 kmh SSW 9.6 mph15.4 kmh 29.73 in1006.8 mb 0.00 in0.0 mm 0.00 in0.0 mm 0.00 in0.0 mm
06:02 AM 58.3°F14.6°C 39.2°F4.0°C 49% 4.3 mph SSW6.9 kmh SSW 9.6 mph15.4 kmh 29.71 in1006.1 mb 0.00 in0.0 mm 0.00 in0.0 mm 0.00 in0.0 mm
06:03 AM 58.1°F14.5°C 39.2°F4.0°C 49% 6.0 mph SSW9.7 kmh SSW 9.6 mph15.4 kmh 29.71 in1006.1 mb 0.00 in0.0 mm 0.00 in0.0 mm 0.00 in0.0 mm
06:04 AM 58.3°F14.6°C 41.0°F5.0°C 50% 4.5 mph SSW7.2 kmh SSW 9.6 mph15.4 kmh 29.71 in1006.1 mb 0.00 in0.0 mm 0.00 in0.0 mm 0.00 in0.0 mm
06:05 AM 58.3°F14.6°C 41.0°F5.0°C 50% 4.7 mph S7.6 kmh S 9.6 mph15.4 kmh 29.71 in1006.1 mb 0.00 in0.0 mm 0.00 in0.0 mm 0.00 in0.0 mm
06:06 AM 58.3°F14.6°C 41.0°F5.0°C 50% 4.0 mph S6.4 kmh S 9.6 mph15.4 kmh 29.71 in1006.1 mb 0.00 in0.0 mm 0.00 in0.0 mm 0.00 in0.0 mm
06:07 AM 58.3°F14.6°C 41.0°F5.0°C 50% 4.3 mph S6.9 kmh S 9.6 mph15.4 kmh 29.71 in1006.1 mb 0.00 in0.0 mm 0.00 in0.0 mm 0.00 in0.0 mm
06:08 AM 58.3°F14.6°C 41.0°F5.0°C 50% 4.3 mph S6.9 kmh S 9.6 mph15.4 kmh 29.71 in1006.1 mb 0.00 in0.0 mm 0.00 in0.0 mm 0.00 in0.0 mm
06:09 AM 58.3°F14.6°C 41.0°F5.0°C 50% 6.3 mph S10.1 kmh S 9.6 mph15.4 kmh 29.71 in1006.1 mb 0.00 in0.0 mm 0.00 in0.0 mm 0.00 in0.0 mm
06:10 AM 58.3°F14.6°C 41.0°F5.0°C 50% 4.3 mph S6.9 kmh S 9.6 mph15.4 kmh 29.71 in1006.1 mb 0.00 in0.0 mm 0.00 in0.0 mm 0.00 in0.0 mm
06:11 AM 58.3°F14.6°C 41.0°F5.0°C 50% 4.9 mph S7.9 kmh S 9.6 mph15.4 kmh 29.71 in1006.1 mb 0.00 in0.0 mm 0.00 in0.0 mm 0.00 in0.0 mm
06:12 AM 58.3°F14.6°C 41.0°F5.0°C 50% 4.9 mph S7.9 kmh S 9.4 mph15.1 kmh 29.71 in1006.1 mb 0.00 in0.0 mm 0.00 in0.0 mm 0.00 in0.0 mm
06:13 AM 58.3°F14.6°C 41.0°F5.0°C 50% 3.6 mph S5.8 kmh S 9.4 mph15.1 kmh 29.71 in1006.1 mb 0.00 in0.0 mm 0.00 in0.0 mm 0.00 in0.0 mm
06:14 AM 58.3°F14.6°C 41.0°F5.0°C 50% 4.9 mph S7.9 kmh S 9.4 mph15.1 kmh 29.71 in1006.1 mb 0.00 in0.0 mm 0.00 in0.0 mm 0.00 in0.0 mm
06:15 AM 58.3°F14.6°C 41.0°F5.0°C 50% 4.0 mph SSW6.4 kmh SSW 9.4 mph15.1 kmh 29.71 in1006.1 mb 0.00 in0.0 mm 0.00 in0.0 mm 0.00 in0.0 mm
06:16 AM 58.1°F14.5°C 41.0°F5.0°C 50% 3.6 mph SSW5.8 kmh SSW 7.6 mph12.2 kmh 29.71 in1006.1 mb 0.00 in0.0 mm 0.00 in0.0 mm 0.00 in0.0 mm
06:17 AM 58.1°F14.5°C 41.0°F5.0°C 50% 3.4 mph SSW5.5 kmh SSW 7.6 mph12.2 kmh 29.71 in1006.1 mb 0.00 in0.0 mm 0.00 in0.0 mm 0.00 in0.0 mm
06:18 AM 58.1°F14.5°C 41.0°F5.0°C 51% 3.4 mph SSW5.5 kmh SSW 7.6 mph12.2 kmh 29.71 in1006.1 mb 0.00 in0.0 mm 0.00 in0.0 mm 0.00 in0.0 mm
06:19 AM 58.1°F14.5°C 41.0°F5.0°C 51% 3.6 mph SSW5.8 kmh SSW 7.6 mph12.2 kmh 29.71 in1006.1 mb 0.00 in0.0 mm 0.00 in0.0 mm 0.00 in0.0 mm
06:20 AM 58.1°F14.5°C 41.0°F5.0°C 51% 4.9 mph S7.9 kmh S 7.6 mph12.2 kmh 29.71 in1006.1 mb 0.00 in0.0 mm 0.00 in0.0 mm 0.00 in0.0 mm
06:21 AM 58.1°F14.5°C 41.0°F5.0°C 51% 6.0 mph S9.7 kmh S 7.6 mph12.2 kmh 29.71 in1006.1 mb 0.00 in0.0 mm 0.00 in0.0 mm 0.00 in0.0 mm
06:22 AM 58.1°F14.5°C 41.0°F5.0°C 51% 5.4 mph S8.7 kmh S 6.3 mph10.1 kmh 29.71 in1006.1 mb 0.00 in0.0 mm 0.00 in0.0 mm 0.00 in0.0 mm
06:23 AM 58.1°F14.5°C 41.0°F5.0°C 51% 4.7 mph S7.6 kmh S 7.8 mph12.6 kmh 29.71 in1006.1 mb 0.00 in0.0 mm 0.00 in0.0 mm 0.00 in0.0 mm
06:24 AM 58.1°F14.5°C 41.0°F5.0°C 51% 4.0 mph S6.4 kmh S 7.8 mph12.6 kmh 29.71 in1006.1 mb 0.00 in0.0 mm 0.00 in0.0 mm 0.00 in0.0 mm
06:25 AM 58.1°F14.5°C 41.0°F5.0°C 51% 4.0 mph S6.4 kmh S 7.8 mph12.6 kmh 29.71 in1006.1 mb 0.00 in0.0 mm 0.00 in0.0 mm 0.00 in0.0 mm
06:26 AM 58.1°F14.5°C 41.0°F5.0°C 51% 4.9 mph S7.9 kmh S 8.7 mph14.0 kmh 29.71 in1006.1 mb 0.00 in0.0 mm 0.00 in0.0 mm 0.00 in0.0 mm
06:27 AM 58.1°F14.5°C 41.0°F5.0°C 51% 6.3 mph S10.1 kmh S 8.7 mph14.0 kmh 29.71 in1006.1 mb 0.00 in0.0 mm 0.00 in0.0 mm 0.00 in0.0 mm
06:28 AM 58.1°F14.5°C 41.0°F5.0°C 51% 3.6 mph S5.8 kmh S 8.7 mph14.0 kmh 29.71 in1006.1 mb 0.00 in0.0 mm 0.00 in0.0 mm 0.00 in0.0 mm
06:29 AM 58.1°F14.5°C 41.0°F5.0°C 51% 4.0 mph S6.4 kmh S 8.7 mph14.0 kmh 29.71 in1006.1 mb 0.00 in0.0 mm 0.00 in0.0 mm 0.00 in0.0 mm
06:30 AM 58.1°F14.5°C 41.0°F5.0°C 51% 4.3 mph S6.9 kmh S 8.7 mph14.0 kmh 29.71 in1006.1 mb 0.00 in0.0 mm 0.00 in0.0 mm 0.00 in0.0 mm
06:31 AM 58.1°F14.5°C 41.0°F5.0°C 51% 4.9 mph S7.9 kmh S 8.7 mph14.0 kmh 29.71 in1006.1 mb 0.00 in0.0 mm 0.00 in0.0 mm 0.00 in0.0 mm
06:32 AM 58.1°F14.5°C 41.0°F5.0°C 51% 4.7 mph S7.6 kmh S 8.7 mph14.0 kmh 29.71 in1006.1 mb 0.00 in0.0 mm 0.00 in0.0 mm 0.00 in0.0 mm
06:33 AM 58.1°F14.5°C 41.0°F5.0°C 51% 4.7 mph S7.6 kmh S 8.7 mph14.0 kmh 29.71 in1006.1 mb 0.00 in0.0 mm 0.00 in0.0 mm 0.00 in0.0 mm
06:34 AM 58.1°F14.5°C 41.0°F5.0°C 51% 4.0 mph S6.4 kmh S 8.7 mph14.0 kmh 29.71 in1006.1 mb 0.00 in0.0 mm 0.00 in0.0 mm 0.00 in0.0 mm
06:35 AM 58.1°F14.5°C 41.0°F5.0°C 51% 4.7 mph S7.6 kmh S 8.7 mph14.0 kmh 29.71 in1006.1 mb 0.00 in0.0 mm 0.00 in0.0 mm 0.00 in0.0 mm
06:36 AM 58.1°F14.5°C 41.0°F5.0°C 51% 4.7 mph S7.6 kmh S 8.5 mph13.7 kmh 29.71 in1006.1 mb 0.00 in0.0 mm 0.00 in0.0 mm 0.00 in0.0 mm
06:37 AM 58.1°F14.5°C 41.0°F5.0°C 52% 3.4 mph S5.5 kmh S 7.4 mph11.9 kmh 29.71 in1006.1 mb 0.00 in0.0 mm 0.00 in0.0 mm 0.00 in0.0 mm
06:38 AM 57.9°F14.4°C 41.0°F5.0°C 52% 4.3 mph S6.9 kmh S 9.8 mph15.8 kmh 29.71 in1006.1 mb 0.00 in0.0 mm 0.00 in0.0 mm 0.00 in0.0 mm
06:39 AM 57.9°F14.4°C 41.0°F5.0°C 52% 4.9 mph SSW7.9 kmh SSW 9.8 mph15.8 kmh 29.71 in1006.1 mb 0.00 in0.0 mm 0.00 in0.0 mm 0.00 in0.0 mm
06:40 AM 57.9°F14.4°C 41.0°F5.0°C 52% 3.8 mph SSW6.1 kmh SSW 9.8 mph15.8 kmh 29.71 in1006.1 mb 0.00 in0.0 mm 0.00 in0.0 mm 0.00 in0.0 mm
06:41 AM 57.9°F14.4°C 41.0°F5.0°C 52% 4.7 mph SSW7.6 kmh SSW 9.8 mph15.8 kmh 29.71 in1006.1 mb 0.00 in0.0 mm 0.00 in0.0 mm 0.00 in0.0 mm
06:42 AM 57.9°F14.4°C 41.0°F5.0°C 52% 5.6 mph SSW9.0 kmh SSW 9.8 mph15.8 kmh 29.71 in1006.1 mb 0.00 in0.0 mm 0.00 in0.0 mm 0.00 in0.0 mm
06:43 AM 57.9°F14.4°C 41.0°F5.0°C 52% 3.6 mph SSW5.8 kmh SSW 9.8 mph15.8 kmh 29.71 in1006.1 mb 0.00 in0.0 mm 0.00 in0.0 mm 0.00 in0.0 mm
06:44 AM 57.9°F14.4°C 41.0°F5.0°C 52% 4.5 mph SSW7.2 kmh SSW 9.8 mph15.8 kmh 29.71 in1006.1 mb 0.00 in0.0 mm 0.00 in0.0 mm 0.00 in0.0 mm
06:45 AM 57.9°F14.4°C 41.0°F5.0°C 52% 3.4 mph SSW5.5 kmh SSW 9.8 mph15.8 kmh 29.71 in1006.1 mb 0.00 in0.0 mm 0.00 in0.0 mm 0.00 in0.0 mm
06:46 AM 57.9°F14.4°C 41.0°F5.0°C 52% 2.2 mph SSW3.5 kmh SSW 9.8 mph15.8 kmh 29.71 in1006.1 mb 0.00 in0.0 mm 0.00 in0.0 mm 0.00 in0.0 mm
06:47 AM 57.9°F14.4°C 41.0°F5.0°C 52% 4.5 mph SSW7.2 kmh SSW 9.8 mph15.8 kmh 29.68 in1005.1 mb 0.00 in0.0 mm 0.00 in0.0 mm 0.00 in0.0 mm
06:48 AM 58.1°F14.5°C 41.0°F5.0°C 52% 4.7 mph SSW7.6 kmh SSW 8.1 mph13.0 kmh 29.68 in1005.1 mb 0.00 in0.0 mm 0.00 in0.0 mm 0.00 in0.0 mm
06:49 AM 58.1°F14.5°C 41.0°F5.0°C 52% 4.7 mph SSW7.6 kmh SSW 8.1 mph13.0 kmh 29.68 in1005.1 mb 0.00 in0.0 mm 0.00 in0.0 mm 0.00 in0.0 mm
06:50 AM 58.1°F14.5°C 41.0°F5.0°C 52% 4.7 mph SSW7.6 kmh SSW 8.5 mph13.7 kmh 29.68 in1005.1 mb 0.00 in0.0 mm 0.00 in0.0 mm 0.00 in0.0 mm
06:51 AM 58.1°F14.5°C 41.0°F5.0°C 52% 3.1 mph S5.0 kmh S 8.5 mph13.7 kmh 29.68 in1005.1 mb 0.00 in0.0 mm 0.00 in0.0 mm 0.00 in0.0 mm
06:52 AM 58.1°F14.5°C 41.0°F5.0°C 52% 4.0 mph S6.4 kmh S 8.5 mph13.7 kmh 29.68 in1005.1 mb 0.00 in0.0 mm 0.00 in0.0 mm 0.00 in0.0 mm
06:53 AM 58.1°F14.5°C 41.0°F5.0°C 52% 5.6 mph S9.0 kmh S 8.5 mph13.7 kmh 29.68 in1005.1 mb 0.00 in0.0 mm 0.00 in0.0 mm 0.00 in0.0 mm
06:54 AM 58.1°F14.5°C 42.8°F6.0°C 53% 3.4 mph S5.5 kmh S 8.5 mph13.7 kmh 29.68 in1005.1 mb 0.00 in0.0 mm 0.00 in0.0 mm 0.00 in0.0 mm
06:55 AM 58.1°F14.5°C 42.8°F6.0°C 53% 4.3 mph S6.9 kmh S 8.5 mph13.7 kmh 29.68 in1005.1 mb 0.00 in0.0 mm 0.00 in0.0 mm 0.00 in0.0 mm
06:56 AM 58.1°F14.5°C 42.8°F6.0°C 53% 4.0 mph S6.4 kmh S 8.5 mph13.7 kmh 29.68 in1005.1 mb 0.00 in0.0 mm 0.00 in0.0 mm 0.00 in0.0 mm
06:57 AM 58.1°F14.5°C 42.8°F6.0°C 53% 2.7 mph S4.3 kmh S 8.5 mph13.7 kmh 29.68 in1005.1 mb 0.00 in0.0 mm 0.00 in0.0 mm 0.00 in0.0 mm
06:58 AM 58.1°F14.5°C 42.8°F6.0°C 53% 4.0 mph S6.4 kmh S 8.5 mph13.7 kmh 29.68 in1005.1 mb 0.00 in0.0 mm 0.00 in0.0 mm 0.00 in0.0 mm
06:59 AM 58.1°F14.5°C 42.8°F6.0°C 53% 4.5 mph S7.2 kmh S 12.3 mph19.8 kmh 29.68 in1005.1 mb 0.00 in0.0 mm 0.00 in0.0 mm 0.00 in0.0 mm
07:00 AM 58.1°F14.5°C 42.8°F6.0°C 53% 4.5 mph S7.2 kmh S 12.3 mph19.8 kmh 29.68 in1005.1 mb 0.00 in0.0 mm 0.00 in0.0 mm 0.00 in0.0 mm
07:01 AM 58.1°F14.5°C 42.8°F6.0°C 53% 3.4 mph S5.5 kmh S 12.3 mph19.8 kmh 29.68 in1005.1 mb 0.00 in0.0 mm 0.00 in0.0 mm 0.00 in0.0 mm
07:02 AM 58.1°F14.5°C 42.8°F6.0°C 53% 4.0 mph S6.4 kmh S 12.3 mph19.8 kmh 29.71 in1006.1 mb 0.00 in0.0 mm 0.00 in0.0 mm 0.00 in0.0 mm
07:03 AM 58.1°F14.5°C 42.8°F6.0°C 53% 2.9 mph S4.7 kmh S 12.3 mph19.8 kmh 29.71 in1006.1 mb 0.00 in0.0 mm 0.00 in0.0 mm 0.00 in0.0 mm
07:04 AM 58.1°F14.5°C 42.8°F6.0°C 53% 5.4 mph S8.7 kmh S 12.3 mph19.8 kmh 29.71 in1006.1 mb 0.00 in0.0 mm 0.00 in0.0 mm 0.00 in0.0 mm
07:05 AM 58.1°F14.5°C 42.8°F6.0°C 53% 5.4 mph S8.7 kmh S 12.3 mph19.8 kmh 29.71 in1006.1 mb 0.00 in0.0 mm 0.00 in0.0 mm 0.00 in0.0 mm
07:06 AM 58.1°F14.5°C 42.8°F6.0°C 53% 4.5 mph S7.2 kmh S 12.3 mph19.8 kmh 29.71 in1006.1 mb 0.00 in0.0 mm 0.00 in0.0 mm 0.00 in0.0 mm
07:07 AM 58.1°F14.5°C 42.8°F6.0°C 54% 3.1 mph S5.0 kmh S 12.3 mph19.8 kmh 29.71 in1006.1 mb 0.00 in0.0 mm 0.00 in0.0 mm 0.00 in0.0 mm
07:08 AM 58.1°F14.5°C 42.8°F6.0°C 54% 2.2 mph S3.5 kmh S 12.3 mph19.8 kmh 29.71 in1006.1 mb 0.00 in0.0 mm 0.00 in0.0 mm 0.00 in0.0 mm
07:09 AM 58.1°F14.5°C 42.8°F6.0°C 54% 4.3 mph S6.9 kmh S 12.3 mph19.8 kmh 29.71 in1006.1 mb 0.00 in0.0 mm 0.00 in0.0 mm 0.00 in0.0 mm
07:10 AM 58.1°F14.5°C 42.8°F6.0°C 54% 6.7 mph S10.8 kmh S 10.7 mph17.2 kmh 29.71 in1006.1 mb 0.00 in0.0 mm 0.00 in0.0 mm 0.00 in0.0 mm
07:11 AM 58.3°F14.6°C 42.8°F6.0°C 54% 5.6 mph S9.0 kmh S 10.7 mph17.2 kmh 29.71 in1006.1 mb 0.00 in0.0 mm 0.00 in0.0 mm 0.00 in0.0 mm
07:12 AM 58.3°F14.6°C 42.8°F6.0°C 54% 4.0 mph S6.4 kmh S 10.7 mph17.2 kmh 29.71 in1006.1 mb 0.00 in0.0 mm 0.00 in0.0 mm 0.00 in0.0 mm
07:13 AM 58.3°F14.6°C 42.8°F6.0°C 54% 4.0 mph S6.4 kmh S 10.7 mph17.2 kmh 29.71 in1006.1 mb 0.00 in0.0 mm 0.00 in0.0 mm 0.00 in0.0 mm
07:14 AM 58.3°F14.6°C 42.8°F6.0°C 54% 5.4 mph S8.7 kmh S 10.7 mph17.2 kmh 29.71 in1006.1 mb 0.00 in0.0 mm 0.00 in0.0 mm 0.00 in0.0 mm
07:15 AM 58.3°F14.6°C 42.8°F6.0°C 54% 3.1 mph S5.0 kmh S 10.7 mph17.2 kmh 29.71 in1006.1 mb 0.00 in0.0 mm 0.00 in0.0 mm 0.00 in0.0 mm
07:16 AM 58.3°F14.6°C 42.8°F6.0°C 54% 4.3 mph S6.9 kmh S 10.7 mph17.2 kmh 29.71 in1006.1 mb 0.00 in0.0 mm 0.00 in0.0 mm 0.00 in0.0 mm
07:17 AM 58.3°F14.6°C 42.8°F6.0°C 54% 2.5 mph S4.0 kmh S 10.7 mph17.2 kmh 29.71 in1006.1 mb 0.00 in0.0 mm 0.00 in0.0 mm 0.00 in0.0 mm
07:18 AM 58.3°F14.6°C 42.8°F6.0°C 54% 4.0 mph S6.4 kmh S 10.7 mph17.2 kmh 29.71 in1006.1 mb 0.00 in0.0 mm 0.00 in0.0 mm 0.00 in0.0 mm
07:19 AM 58.3°F14.6°C 42.8°F6.0°C 54% 6.3 mph S10.1 kmh S 10.7 mph17.2 kmh 29.71 in1006.1 mb 0.00 in0.0 mm 0.00 in0.0 mm 0.00 in0.0 mm
07:20 AM 58.3°F14.6°C 42.8°F6.0°C 54% 4.5 mph S7.2 kmh S 8.1 mph13.0 kmh 29.71 in1006.1 mb 0.00 in0.0 mm 0.00 in0.0 mm 0.00 in0.0 mm
07:21 AM 58.3°F14.6°C 42.8°F6.0°C 54% 3.6 mph SSW5.8 kmh SSW 8.1 mph13.0 kmh 29.71 in1006.1 mb 0.00 in0.0 mm 0.00 in0.0 mm 0.00 in0.0 mm
07:22 AM 58.3°F14.6°C 42.8°F6.0°C 54% 3.6 mph S5.8 kmh S 8.1 mph13.0 kmh 29.71 in1006.1 mb 0.00 in0.0 mm 0.00 in0.0 mm 0.00 in0.0 mm
07:23 AM 58.3°F14.6°C 42.8°F6.0°C 54% 5.8 mph S9.3 kmh S 8.1 mph13.0 kmh 29.71 in1006.1 mb 0.00 in0.0 mm 0.00 in0.0 mm 0.00 in0.0 mm
07:24 AM 58.3°F14.6°C 42.8°F6.0°C 54% 5.4 mph S8.7 kmh S 7.2 mph11.6 kmh 29.71 in1006.1 mb 0.00 in0.0 mm 0.00 in0.0 mm 0.00 in0.0 mm
07:25 AM 58.3°F14.6°C 42.8°F6.0°C 54% 4.5 mph S7.2 kmh S 7.2 mph11.6 kmh 29.71 in1006.1 mb 0.00 in0.0 mm 0.00 in0.0 mm 0.00 in0.0 mm
07:26 AM 58.3°F14.6°C 42.8°F6.0°C 54% 4.3 mph S6.9 kmh S 7.2 mph11.6 kmh 29.71 in1006.1 mb 0.00 in0.0 mm 0.00 in0.0 mm 0.00 in0.0 mm
07:27 AM 58.3°F14.6°C 42.8°F6.0°C 54% 5.4 mph S8.7 kmh S 8.7 mph14.0 kmh 29.71 in1006.1 mb 0.00 in0.0 mm 0.00 in0.0 mm 0.00 in0.0 mm
07:28 AM 58.3°F14.6°C 42.8°F6.0°C 54% 3.8 mph S6.1 kmh S 8.7 mph14.0 kmh 29.71 in1006.1 mb 0.00 in0.0 mm 0.00 in0.0 mm 0.00 in0.0 mm
07:29 AM 58.3°F14.6°C 42.8°F6.0°C 54% 4.0 mph S6.4 kmh S 8.7 mph14.0 kmh 29.71 in1006.1 mb 0.00 in0.0 mm 0.00 in0.0 mm 0.00 in0.0 mm
07:30 AM 58.3°F14.6°C 42.8°F6.0°C 54% 4.7 mph S7.6 kmh S 8.7 mph14.0 kmh 29.71 in1006.1 mb 0.00 in0.0 mm 0.00 in0.0 mm 0.00 in0.0 mm
07:31 AM 58.5°F14.7°C 42.8°F6.0°C 54% 5.4 mph S8.7 kmh S 9.6 mph15.4 kmh 29.71 in1006.1 mb 0.00 in0.0 mm 0.00 in0.0 mm 0.00 in0.0 mm
07:32 AM 58.5°F14.7°C 42.8°F6.0°C 54% 3.4 mph S5.5 kmh S 9.6 mph15.4 kmh 29.71 in1006.1 mb 0.00 in0.0 mm 0.00 in0.0 mm 0.00 in0.0 mm
07:33 AM 58.5°F14.7°C 42.8°F6.0°C 54% 3.6 mph S5.8 kmh S 9.6 mph15.4 kmh 29.71 in1006.1 mb 0.00 in0.0 mm 0.00 in0.0 mm 0.00 in0.0 mm
07:34 AM 58.5°F14.7°C 42.8°F6.0°C 54% 3.8 mph S6.1 kmh S 9.6 mph15.4 kmh 29.71 in1006.1 mb 0.00 in0.0 mm 0.00 in0.0 mm 0.00 in0.0 mm
07:35 AM 58.5°F14.7°C 42.8°F6.0°C 54% 4.5 mph S7.2 kmh S 9.6 mph15.4 kmh 29.71 in1006.1 mb 0.00 in0.0 mm 0.00 in0.0 mm 0.00 in0.0 mm
07:36 AM 58.5°F14.7°C 42.8°F6.0°C 54% 3.8 mph SSW6.1 kmh SSW 9.6 mph15.4 kmh 29.71 in1006.1 mb 0.00 in0.0 mm 0.00 in0.0 mm 0.00 in0.0 mm
07:37 AM 58.5°F14.7°C 42.8°F6.0°C 55% 4.0 mph SSW6.4 kmh SSW 9.6 mph15.4 kmh 29.71 in1006.1 mb 0.00 in0.0 mm 0.00 in0.0 mm 0.00 in0.0 mm
07:38 AM 58.5°F14.7°C 42.8°F6.0°C 55% 3.8 mph S6.1 kmh S 9.6 mph15.4 kmh 29.71 in1006.1 mb 0.00 in0.0 mm 0.00 in0.0 mm 0.00 in0.0 mm
07:39 AM 58.5°F14.7°C 42.8°F6.0°C 55% 3.1 mph S5.0 kmh S 9.6 mph15.4 kmh 29.71 in1006.1 mb 0.00 in0.0 mm 0.00 in0.0 mm 0.00 in0.0 mm
07:40 AM 58.5°F14.7°C 42.8°F6.0°C 55% 4.0 mph S6.4 kmh S 9.6 mph15.4 kmh 29.71 in1006.1 mb 0.00 in0.0 mm 0.00 in0.0 mm 0.00 in0.0 mm
07:41 AM 58.5°F14.7°C 42.8°F6.0°C 55% 3.1 mph S5.0 kmh S 6.9 mph11.1 kmh 29.71 in1006.1 mb 0.00 in0.0 mm 0.00 in0.0 mm 0.00 in0.0 mm
07:42 AM 58.3°F14.6°C 42.8°F6.0°C 55% 3.1 mph S5.0 kmh S 6.9 mph11.1 kmh 29.71 in1006.1 mb 0.00 in0.0 mm 0.00 in0.0 mm 0.00 in0.0 mm
07:43 AM 58.3°F14.6°C 42.8°F6.0°C 55% 3.1 mph S5.0 kmh S 6.9 mph11.1 kmh 29.71 in1006.1 mb 0.00 in0.0 mm 0.00 in0.0 mm 0.00 in0.0 mm
07:44 AM 58.3°F14.6°C 42.8°F6.0°C 55% 4.9 mph S7.9 kmh S 6.9 mph11.1 kmh 29.71 in1006.1 mb 0.00 in0.0 mm 0.00 in0.0 mm 0.00 in0.0 mm
07:45 AM 58.3°F14.6°C 42.8°F6.0°C 55% 4.9 mph SSW7.9 kmh SSW 6.9 mph11.1 kmh 29.71 in1006.1 mb 0.00 in0.0 mm 0.00 in0.0 mm 0.00 in0.0 mm
07:46 AM 58.5°F14.7°C 42.8°F6.0°C 55% 5.8 mph S9.3 kmh S 8.7 mph14.0 kmh 29.71 in1006.1 mb 0.00 in0.0 mm 0.00 in0.0 mm 0.00 in0.0 mm
07:47 AM 58.5°F14.7°C 42.8°F6.0°C 55% 2.9 mph S4.7 kmh S 8.7 mph14.0 kmh 29.71 in1006.1 mb 0.00 in0.0 mm 0.00 in0.0 mm 0.00 in0.0 mm
07:48 AM 58.5°F14.7°C 42.8°F6.0°C 55% 4.9 mph S7.9 kmh S 8.7 mph14.0 kmh 29.71 in1006.1 mb 0.00 in0.0 mm 0.00 in0.0 mm 0.00 in0.0 mm
07:49 AM 58.5°F14.7°C 42.8°F6.0°C 55% 4.9 mph S7.9 kmh S 8.7 mph14.0 kmh 29.71 in1006.1 mb 0.00 in0.0 mm 0.00 in0.0 mm 0.00 in0.0 mm
07:50 AM 58.5°F14.7°C 42.8°F6.0°C 55% 4.7 mph S7.6 kmh S 8.7 mph14.0 kmh 29.71 in1006.1 mb 0.00 in0.0 mm 0.00 in0.0 mm 0.00 in0.0 mm
07:51 AM 58.5°F14.7°C 42.8°F6.0°C 55% 3.6 mph S5.8 kmh S 8.7 mph14.0 kmh 29.71 in1006.1 mb 0.00 in0.0 mm 0.00 in0.0 mm 0.00 in0.0 mm
07:52 AM 58.5°F14.7°C 42.8°F6.0°C 55% 3.4 mph S5.5 kmh S 8.7 mph14.0 kmh 29.71 in1006.1 mb 0.00 in0.0 mm 0.00 in0.0 mm 0.00 in0.0 mm
07:53 AM 58.5°F14.7°C 42.8°F6.0°C 55% 4.0 mph SSW6.4 kmh SSW 8.7 mph14.0 kmh 29.71 in1006.1 mb 0.00 in0.0 mm 0.00 in0.0 mm 0.00 in0.0 mm
07:54 AM 58.6°F14.8°C 42.8°F6.0°C 55% 3.1 mph S5.0 kmh S 8.7 mph14.0 kmh 29.71 in1006.1 mb 0.00 in0.0 mm 0.00 in0.0 mm 0.00 in0.0 mm
07:55 AM 58.6°F14.8°C 42.8°F6.0°C 55% 3.8 mph S6.1 kmh S 8.7 mph14.0 kmh 29.71 in1006.1 mb 0.00 in0.0 mm 0.00 in0.0 mm 0.00 in0.0 mm
07:56 AM 58.6°F14.8°C 42.8°F6.0°C 55% 4.7 mph SSW7.6 kmh SSW 8.1 mph13.0 kmh 29.71 in1006.1 mb 0.00 in0.0 mm 0.00 in0.0 mm 0.00 in0.0 mm
07:57 AM 58.6°F14.8°C 42.8°F6.0°C 55% 3.6 mph SSW5.8 kmh SSW 8.1 mph13.0 kmh 29.71 in1006.1 mb 0.00 in0.0 mm 0.00 in0.0 mm 0.00 in0.0 mm
07:58 AM 58.6°F14.8°C 42.8°F6.0°C 55% 4.0 mph SSW6.4 kmh SSW 9.8 mph15.8 kmh 29.71 in1006.1 mb 0.00 in0.0 mm 0.00 in0.0 mm 0.00 in0.0 mm
07:59 AM 58.6°F14.8°C 42.8°F6.0°C 55% 4.0 mph SSW6.4 kmh SSW 9.8 mph15.8 kmh 29.71 in1006.1 mb 0.00 in0.0 mm 0.00 in0.0 mm 0.00 in0.0 mm
08:00 AM 58.6°F14.8°C 42.8°F6.0°C 56% 3.8 mph SSW6.1 kmh SSW 9.8 mph15.8 kmh 29.71 in1006.1 mb 0.00 in0.0 mm 0.00 in0.0 mm 0.00 in0.0 mm
08:01 AM 58.6°F14.8°C 42.8°F6.0°C 55% 4.7 mph SSW7.6 kmh SSW 9.8 mph15.8 kmh 29.71 in1006.1 mb 0.00 in0.0 mm 0.00 in0.0 mm 0.00 in0.0 mm
08:02 AM 58.6°F14.8°C 42.8°F6.0°C 56% 2.9 mph SSW4.7 kmh SSW 9.8 mph15.8 kmh 29.71 in1006.1 mb 0.00 in0.0 mm 0.00 in0.0 mm 0.00 in0.0 mm
08:03 AM 58.6°F14.8°C 42.8°F6.0°C 55% 4.3 mph SSW6.9 kmh SSW 9.8 mph15.8 kmh 29.71 in1006.1 mb 0.00 in0.0 mm 0.00 in0.0 mm 0.00 in0.0 mm
08:04 AM 58.8°F14.9°C 42.8°F6.0°C 56% 5.8 mph SSW9.3 kmh SSW 9.8 mph15.8 kmh 29.71 in1006.1 mb 0.00 in0.0 mm 0.00 in0.0 mm 0.00 in0.0 mm
08:05 AM 58.8°F14.9°C 42.8°F6.0°C 56% 3.6 mph SSW5.8 kmh SSW 9.8 mph15.8 kmh 29.71 in1006.1 mb 0.00 in0.0 mm 0.00 in0.0 mm 0.00 in0.0 mm
08:06 AM 58.8°F14.9°C 42.8°F6.0°C 56% 2.9 mph SSW4.7 kmh SSW 9.8 mph15.8 kmh 29.71 in1006.1 mb 0.00 in0.0 mm 0.00 in0.0 mm 0.00 in0.0 mm
08:07 AM 58.6°F14.8°C 42.8°F6.0°C 56% 3.6 mph SSW5.8 kmh SSW 9.8 mph15.8 kmh 29.71 in1006.1 mb 0.00 in0.0 mm 0.00 in0.0 mm 0.00 in0.0 mm
08:08 AM 58.6°F14.8°C 42.8°F6.0°C 56% 4.5 mph SSW7.2 kmh SSW 9.8 mph15.8 kmh 29.71 in1006.1 mb 0.00 in0.0 mm 0.00 in0.0 mm 0.00 in0.0 mm
08:09 AM 58.6°F14.8°C 42.8°F6.0°C 56% 4.5 mph SSW7.2 kmh SSW 9.8 mph15.8 kmh 29.71 in1006.1 mb 0.00 in0.0 mm 0.00 in0.0 mm 0.00 in0.0 mm
08:10 AM 58.6°F14.8°C 42.8°F6.0°C 56% 4.5 mph SSW7.2 kmh SSW 9.8 mph15.8 kmh 29.71 in1006.1 mb 0.00 in0.0 mm 0.00 in0.0 mm 0.00 in0.0 mm
08:11 AM 58.6°F14.8°C 42.8°F6.0°C 56% 3.4 mph SSW5.5 kmh SSW 8.7 mph14.0 kmh 29.71 in1006.1 mb 0.00 in0.0 mm 0.00 in0.0 mm 0.00 in0.0 mm
08:12 AM 58.6°F14.8°C 42.8°F6.0°C 56% 3.8 mph SSW6.1 kmh SSW 8.7 mph14.0 kmh 29.71 in1006.1 mb 0.00 in0.0 mm 0.00 in0.0 mm 0.00 in0.0 mm
08:13 AM 58.6°F14.8°C 42.8°F6.0°C 56% 3.6 mph SSW5.8 kmh SSW 8.7 mph14.0 kmh 29.71 in1006.1 mb 0.00 in0.0 mm 0.00 in0.0 mm 0.00 in0.0 mm
08:14 AM 58.6°F14.8°C 42.8°F6.0°C 56% 4.0 mph SSW6.4 kmh SSW 8.7 mph14.0 kmh 29.71 in1006.1 mb 0.00 in0.0 mm 0.00 in0.0 mm 0.00 in0.0 mm
08:15 AM 58.8°F14.9°C 42.8°F6.0°C 56% 3.6 mph SSW5.8 kmh SSW 8.7 mph14.0 kmh 29.71 in1006.1 mb 0.00 in0.0 mm 0.00 in0.0 mm 0.00 in0.0 mm
08:16 AM 58.8°F14.9°C 42.8°F6.0°C 56% 4.5 mph SSW7.2 kmh SSW 8.7 mph14.0 kmh 29.71 in1006.1 mb 0.00 in0.0 mm 0.00 in0.0 mm 0.00 in0.0 mm
08:17 AM 58.8°F14.9°C 42.8°F6.0°C 56% 5.8 mph SSW9.3 kmh SSW 10.3 mph16.6 kmh 29.71 in1006.1 mb 0.00 in0.0 mm 0.00 in0.0 mm 0.00 in0.0 mm
08:18 AM 59.0°F15.0°C 42.8°F6.0°C 56% 2.7 mph SSW4.3 kmh SSW 10.3 mph16.6 kmh 29.71 in1006.1 mb 0.00 in0.0 mm 0.00 in0.0 mm 0.00 in0.0 mm
08:19 AM 59.0°F15.0°C 42.8°F6.0°C 56% 3.8 mph SSW6.1 kmh SSW 10.3 mph16.6 kmh 29.71 in1006.1 mb 0.00 in0.0 mm 0.00 in0.0 mm 0.00 in0.0 mm
08:20 AM 59.0°F15.0°C 42.8°F6.0°C 56% 3.8 mph SSW6.1 kmh SSW 10.3 mph16.6 kmh 29.71 in1006.1 mb 0.00 in0.0 mm 0.00 in0.0 mm 0.00 in0.0 mm
08:21 AM 59.0°F15.0°C 42.8°F6.0°C 56% 6.5 mph SSW10.5 kmh SSW 10.3 mph16.6 kmh 29.71 in1006.1 mb 0.00 in0.0 mm 0.00 in0.0 mm 0.00 in0.0 mm
08:22 AM 59.0°F15.0°C 42.8°F6.0°C 56% 3.1 mph SSW5.0 kmh SSW 10.3 mph16.6 kmh 29.71 in1006.1 mb 0.00 in0.0 mm 0.00 in0.0 mm 0.00 in0.0 mm
08:23 AM 59.0°F15.0°C 42.8°F6.0°C 56% 6.5 mph SSW10.5 kmh SSW 10.3 mph16.6 kmh 29.71 in1006.1 mb 0.00 in0.0 mm 0.00 in0.0 mm 0.00 in0.0 mm
08:24 AM 59.0°F15.0°C 42.8°F6.0°C 56% 3.8 mph SSW6.1 kmh SSW 10.3 mph16.6 kmh 29.71 in1006.1 mb 0.00 in0.0 mm 0.00 in0.0 mm 0.00 in0.0 mm
08:25 AM 59.0°F15.0°C 42.8°F6.0°C 56% 4.0 mph SSW6.4 kmh SSW 10.3 mph16.6 kmh 29.71 in1006.1 mb 0.00 in0.0 mm 0.00 in0.0 mm 0.00 in0.0 mm
08:26 AM 59.0°F15.0°C 42.8°F6.0°C 56% 3.8 mph SSW6.1 kmh SSW 10.3 mph16.6 kmh 29.71 in1006.1 mb 0.00 in0.0 mm 0.00 in0.0 mm 0.00 in0.0 mm
08:27 AM 59.0°F15.0°C 42.8°F6.0°C 56% 4.0 mph SSW6.4 kmh SSW 10.1 mph16.3 kmh 29.71 in1006.1 mb 0.00 in0.0 mm 0.00 in0.0 mm 0.00 in0.0 mm
08:28 AM 59.0°F15.0°C 42.8°F6.0°C 56% 2.9 mph SSW4.7 kmh SSW 10.1 mph16.3 kmh 29.71 in1006.1 mb 0.00 in0.0 mm 0.00 in0.0 mm 0.00 in0.0 mm
08:29 AM 59.0°F15.0°C 42.8°F6.0°C 56% 4.3 mph SSW6.9 kmh SSW 10.1 mph16.3 kmh 29.71 in1006.1 mb 0.00 in0.0 mm 0.00 in0.0 mm 0.00 in0.0 mm
08:30 AM 59.0°F15.0°C 42.8°F6.0°C 56% 3.8 mph SSW6.1 kmh SSW 10.1 mph16.3 kmh 29.71 in1006.1 mb 0.00 in0.0 mm 0.00 in0.0 mm 0.00 in0.0 mm
08:31 AM 59.0°F15.0°C 42.8°F6.0°C 56% 3.8 mph S6.1 kmh S 10.1 mph16.3 kmh 29.71 in1006.1 mb 0.00 in0.0 mm 0.00 in0.0 mm 0.00 in0.0 mm
08:32 AM 59.0°F15.0°C 42.8°F6.0°C 56% 2.9 mph S4.7 kmh S 10.1 mph16.3 kmh 29.68 in1005.1 mb 0.00 in0.0 mm 0.00 in0.0 mm 0.00 in0.0 mm
08:33 AM 59.0°F15.0°C 42.8°F6.0°C 56% 2.7 mph S4.3 kmh S 8.1 mph13.0 kmh 29.68 in1005.1 mb 0.00 in0.0 mm 0.00 in0.0 mm 0.00 in0.0 mm
08:34 AM 59.0°F15.0°C 42.8°F6.0°C 56% 2.5 mph S4.0 kmh S 7.4 mph11.9 kmh 29.68 in1005.1 mb 0.00 in0.0 mm 0.00 in0.0 mm 0.00 in0.0 mm
08:35 AM 58.8°F14.9°C 42.8°F6.0°C 56% 2.7 mph S4.3 kmh S 5.8 mph9.3 kmh 29.68 in1005.1 mb 0.00 in0.0 mm 0.00 in0.0 mm 0.00 in0.0 mm
08:36 AM 58.8°F14.9°C 42.8°F6.0°C 56% 2.9 mph S4.7 kmh S 5.8 mph9.3 kmh 29.68 in1005.1 mb 0.00 in0.0 mm 0.00 in0.0 mm 0.00 in0.0 mm
08:37 AM 58.8°F14.9°C 42.8°F6.0°C 56% 2.9 mph S4.7 kmh S 5.8 mph9.3 kmh 29.68 in1005.1 mb 0.00 in0.0 mm 0.00 in0.0 mm 0.00 in0.0 mm
08:38 AM 58.8°F14.9°C 44.6°F7.0°C 57% 2.9 mph SSW4.7 kmh SSW 8.7 mph14.0 kmh 29.68 in1005.1 mb 0.00 in0.0 mm 0.00 in0.0 mm 0.00 in0.0 mm
08:39 AM 58.8°F14.9°C 42.8°F6.0°C 56% 2.9 mph SSW4.7 kmh SSW 8.7 mph14.0 kmh 29.68 in1005.1 mb 0.00 in0.0 mm 0.00 in0.0 mm 0.00 in0.0 mm
08:40 AM 59.0°F15.0°C 42.8°F6.0°C 56% 3.4 mph SSW5.5 kmh SSW 8.7 mph14.0 kmh 29.68 in1005.1 mb 0.00 in0.0 mm 0.00 in0.0 mm 0.00 in0.0 mm
08:41 AM 59.0°F15.0°C 44.6°F7.0°C 57% 3.8 mph SSW6.1 kmh SSW 8.7 mph14.0 kmh 29.68 in1005.1 mb 0.00 in0.0 mm 0.00 in0.0 mm 0.00 in0.0 mm
08:42 AM 59.0°F15.0°C 44.6°F7.0°C 57% 4.5 mph SSW7.2 kmh SSW 8.7 mph14.0 kmh 29.68 in1005.1 mb 0.00 in0.0 mm 0.00 in0.0 mm 0.00 in0.0 mm
08:43 AM 59.0°F15.0°C 44.6°F7.0°C 57% 2.5 mph SSW4.0 kmh SSW 8.7 mph14.0 kmh 29.68 in1005.1 mb 0.00 in0.0 mm 0.00 in0.0 mm 0.00 in0.0 mm
08:44 AM 59.0°F15.0°C 44.6°F7.0°C 57% 4.9 mph SSW7.9 kmh SSW 9.6 mph15.4 kmh 29.68 in1005.1 mb 0.00 in0.0 mm 0.00 in0.0 mm 0.00 in0.0 mm
08:45 AM 59.0°F15.0°C 44.6°F7.0°C 57% 4.5 mph SSW7.2 kmh SSW 9.6 mph15.4 kmh 29.68 in1005.1 mb 0.00 in0.0 mm 0.00 in0.0 mm 0.00 in0.0 mm
08:46 AM 59.0°F15.0°C 42.8°F6.0°C 56% 2.9 mph SSW4.7 kmh SSW 9.6 mph15.4 kmh 29.68 in1005.1 mb 0.00 in0.0 mm 0.00 in0.0 mm 0.00 in0.0 mm
08:47 AM 59.0°F15.0°C 44.6°F7.0°C 57% 3.4 mph SSW5.5 kmh SSW 9.6 mph15.4 kmh 29.71 in1006.1 mb 0.00 in0.0 mm 0.00 in0.0 mm 0.00 in0.0 mm
08:48 AM 59.0°F15.0°C 44.6°F7.0°C 57% 2.2 mph SSW3.5 kmh SSW 9.6 mph15.4 kmh 29.71 in1006.1 mb 0.00 in0.0 mm 0.00 in0.0 mm 0.00 in0.0 mm
08:49 AM 59.0°F15.0°C 44.6°F7.0°C 57% 2.9 mph SSW4.7 kmh SSW 9.6 mph15.4 kmh 29.71 in1006.1 mb 0.00 in0.0 mm 0.00 in0.0 mm 0.00 in0.0 mm
08:50 AM 59.0°F15.0°C 44.6°F7.0°C 57% 2.7 mph SSW4.3 kmh SSW 9.6 mph15.4 kmh 29.71 in1006.1 mb 0.00 in0.0 mm 0.00 in0.0 mm 0.00 in0.0 mm
08:51 AM 59.0°F15.0°C 44.6°F7.0°C 57% 4.9 mph SSW7.9 kmh SSW 9.6 mph15.4 kmh 29.71 in1006.1 mb 0.00 in0.0 mm 0.00 in0.0 mm 0.00 in0.0 mm
08:52 AM 59.0°F15.0°C 44.6°F7.0°C 57% 2.7 mph SSW4.3 kmh SSW 9.6 mph15.4 kmh 29.71 in1006.1 mb 0.00 in0.0 mm 0.00 in0.0 mm 0.00 in0.0 mm
08:53 AM 59.0°F15.0°C 44.6°F7.0°C 57% 2.9 mph SSW4.7 kmh SSW 9.6 mph15.4 kmh 29.71 in1006.1 mb 0.00 in0.0 mm 0.00 in0.0 mm 0.00 in0.0 mm
08:54 AM 59.0°F15.0°C 44.6°F7.0°C 57% 3.4 mph SSW5.5 kmh SSW 8.5 mph13.7 kmh 29.71 in1006.1 mb 0.00 in0.0 mm 0.00 in0.0 mm 0.00 in0.0 mm
08:55 AM 59.0°F15.0°C 44.6°F7.0°C 57% 4.7 mph SSW7.6 kmh SSW 7.6 mph12.2 kmh 29.71 in1006.1 mb 0.00 in0.0 mm 0.00 in0.0 mm 0.00 in0.0 mm
08:56 AM 59.0°F15.0°C 44.6°F7.0°C 57% 4.5 mph SW7.2 kmh SW 7.6 mph12.2 kmh 29.71 in1006.1 mb 0.00 in0.0 mm 0.00 in0.0 mm 0.00 in0.0 mm
08:57 AM 59.0°F15.0°C 44.6°F7.0°C 57% 6.3 mph SW10.1 kmh SW 11.0 mph17.7 kmh 29.71 in1006.1 mb 0.00 in0.0 mm 0.00 in0.0 mm 0.00 in0.0 mm
08:58 AM 59.0°F15.0°C 44.6°F7.0°C 57% 5.8 mph SW9.3 kmh SW 11.0 mph17.7 kmh 29.71 in1006.1 mb 0.00 in0.0 mm 0.00 in0.0 mm 0.00 in0.0 mm
08:59 AM 59.0°F15.0°C 44.6°F7.0°C 57% 3.1 mph SW5.0 kmh SW 11.0 mph17.7 kmh 29.71 in1006.1 mb 0.00 in0.0 mm 0.00 in0.0 mm 0.00 in0.0 mm
09:00 AM 59.0°F15.0°C 44.6°F7.0°C 57% 4.0 mph SW6.4 kmh SW 11.0 mph17.7 kmh 29.71 in1006.1 mb 0.00 in0.0 mm 0.00 in0.0 mm 0.00 in0.0 mm
09:01 AM 59.0°F15.0°C 44.6°F7.0°C 57% 3.8 mph SW6.1 kmh SW 11.0 mph17.7 kmh 29.71 in1006.1 mb 0.00 in0.0 mm 0.00 in0.0 mm 0.00 in0.0 mm
09:02 AM 59.0°F15.0°C 44.6°F7.0°C 57% 3.6 mph SW5.8 kmh SW 11.0 mph17.7 kmh 29.71 in1006.1 mb 0.00 in0.0 mm 0.00 in0.0 mm 0.00 in0.0 mm
09:03 AM 59.0°F15.0°C 44.6°F7.0°C 57% 3.1 mph SW5.0 kmh SW 11.0 mph17.7 kmh 29.71 in1006.1 mb 0.00 in0.0 mm 0.00 in0.0 mm 0.00 in0.0 mm
09:04 AM 59.2°F15.1°C 44.6°F7.0°C 57% 3.6 mph SW5.8 kmh SW 11.0 mph17.7 kmh 29.71 in1006.1 mb 0.00 in0.0 mm 0.00 in0.0 mm 0.00 in0.0 mm
09:05 AM 59.2°F15.1°C 44.6°F7.0°C 57% 2.7 mph SW4.3 kmh SW 11.0 mph17.7 kmh 29.71 in1006.1 mb 0.00 in0.0 mm 0.00 in0.0 mm 0.00 in0.0 mm
09:06 AM 59.2°F15.1°C 44.6°F7.0°C 57% 2.5 mph SW4.0 kmh SW 11.0 mph17.7 kmh 29.71 in1006.1 mb 0.00 in0.0 mm 0.00 in0.0 mm 0.00 in0.0 mm
09:07 AM 59.2°F15.1°C 44.6°F7.0°C 57% 2.7 mph SW4.3 kmh SW 8.1 mph13.0 kmh 29.71 in1006.1 mb 0.00 in0.0 mm 0.00 in0.0 mm 0.00 in0.0 mm
09:08 AM 59.2°F15.1°C 44.6°F7.0°C 57% 2.2 mph SW3.5 kmh SW 7.2 mph11.6 kmh 29.71 in1006.1 mb 0.00 in0.0 mm 0.00 in0.0 mm 0.00 in0.0 mm
09:09 AM 59.2°F15.1°C 44.6°F7.0°C 57% 4.7 mph SW7.6 kmh SW 7.2 mph11.6 kmh 29.71 in1006.1 mb 0.00 in0.0 mm 0.00 in0.0 mm 0.00 in0.0 mm
09:10 AM 59.2°F15.1°C 44.6°F7.0°C 57% 3.6 mph SSW5.8 kmh SSW 7.2 mph11.6 kmh 29.71 in1006.1 mb 0.00 in0.0 mm 0.00 in0.0 mm 0.00 in0.0 mm
09:11 AM 59.2°F15.1°C 44.6°F7.0°C 58% 4.3 mph SW6.9 kmh SW 7.4 mph11.9 kmh 29.71 in1006.1 mb 0.00 in0.0 mm 0.00 in0.0 mm 0.00 in0.0 mm
09:12 AM 59.2°F15.1°C 44.6°F7.0°C 58% 4.5 mph SW7.2 kmh SW 7.4 mph11.9 kmh 29.71 in1006.1 mb 0.00 in0.0 mm 0.00 in0.0 mm 0.00 in0.0 mm
09:13 AM 59.2°F15.1°C 44.6°F7.0°C 58% 4.0 mph SW6.4 kmh SW 7.4 mph11.9 kmh 29.71 in1006.1 mb 0.00 in0.0 mm 0.00 in0.0 mm 0.00 in0.0 mm
09:14 AM 59.2°F15.1°C 44.6°F7.0°C 58% 3.4 mph SW5.5 kmh SW 7.4 mph11.9 kmh 29.71 in1006.1 mb 0.00 in0.0 mm 0.00 in0.0 mm 0.00 in0.0 mm
09:15 AM 59.2°F15.1°C 44.6°F7.0°C 58% 3.4 mph SW5.5 kmh SW 7.4 mph11.9 kmh 29.71 in1006.1 mb 0.00 in0.0 mm 0.00 in0.0 mm 0.00 in0.0 mm
09:16 AM 59.2°F15.1°C 44.6°F7.0°C 58% 3.4 mph SW5.5 kmh SW 7.4 mph11.9 kmh 29.71 in1006.1 mb 0.00 in0.0 mm 0.00 in0.0 mm 0.00 in0.0 mm
09:17 AM 59.2°F15.1°C 44.6°F7.0°C 58% 3.8 mph SSW6.1 kmh SSW 7.4 mph11.9 kmh 29.68 in1005.1 mb 0.00 in0.0 mm 0.00 in0.0 mm 0.00 in0.0 mm
09:18 AM 59.2°F15.1°C 44.6°F7.0°C 58% 2.7 mph SSW4.3 kmh SSW 7.4 mph11.9 kmh 29.68 in1005.1 mb 0.00 in0.0 mm 0.00 in0.0 mm 0.00 in0.0 mm
09:19 AM 59.2°F15.1°C 44.6°F7.0°C 58% 2.9 mph SSW4.7 kmh SSW 7.4 mph11.9 kmh 29.68 in1005.1 mb 0.00 in0.0 mm 0.00 in0.0 mm 0.00 in0.0 mm
09:20 AM 59.2°F15.1°C 44.6°F7.0°C 58% 4.7 mph SSW7.6 kmh SSW 7.4 mph11.9 kmh 29.68 in1005.1 mb 0.00 in0.0 mm 0.00 in0.0 mm 0.00 in0.0 mm
09:21 AM 59.2°F15.1°C 44.6°F7.0°C 58% 3.8 mph SSW6.1 kmh SSW 7.4 mph11.9 kmh 29.68 in1005.1 mb 0.00 in0.0 mm 0.00 in0.0 mm 0.00 in0.0 mm
09:22 AM 59.2°F15.1°C 44.6°F7.0°C 58% 3.8 mph SSW6.1 kmh SSW 7.4 mph11.9 kmh 29.68 in1005.1 mb 0.00 in0.0 mm 0.00 in0.0 mm 0.00 in0.0 mm
09:23 AM 59.2°F15.1°C 44.6°F7.0°C 58% 3.4 mph S5.5 kmh S 7.4 mph11.9 kmh 29.68 in1005.1 mb 0.00 in0.0 mm 0.00 in0.0 mm 0.00 in0.0 mm
09:24 AM 59.2°F15.1°C 44.6°F7.0°C 58% 3.6 mph SSW5.8 kmh SSW 6.3 mph10.1 kmh 29.68 in1005.1 mb 0.00 in0.0 mm 0.00 in0.0 mm 0.00 in0.0 mm
09:25 AM 59.2°F15.1°C 44.6°F7.0°C 58% 4.5 mph S7.2 kmh S 6.3 mph10.1 kmh 29.68 in1005.1 mb 0.00 in0.0 mm 0.00 in0.0 mm 0.00 in0.0 mm
09:26 AM 59.2°F15.1°C 44.6°F7.0°C 58% 4.5 mph S7.2 kmh S 6.3 mph10.1 kmh 29.68 in1005.1 mb 0.00 in0.0 mm 0.00 in0.0 mm 0.00 in0.0 mm
09:27 AM 59.4°F15.2°C 44.6°F7.0°C 58% 3.1 mph SSW5.0 kmh SSW 6.3 mph10.1 kmh 29.68 in1005.1 mb 0.00 in0.0 mm 0.00 in0.0 mm 0.00 in0.0 mm
09:28 AM 59.4°F15.2°C 46.4°F8.0°C 59% 3.1 mph SSW5.0 kmh SSW 6.3 mph10.1 kmh 29.68 in1005.1 mb 0.00 in0.0 mm 0.00 in0.0 mm 0.00 in0.0 mm
09:29 AM 59.4°F15.2°C 46.4°F8.0°C 59% 3.4 mph SSW5.5 kmh SSW 6.3 mph10.1 kmh 29.68 in1005.1 mb 0.00 in0.0 mm 0.00 in0.0 mm 0.00 in0.0 mm
09:30 AM 59.4°F15.2°C 44.6°F7.0°C 58% 3.6 mph SSW5.8 kmh SSW 6.3 mph10.1 kmh 29.68 in1005.1 mb 0.00 in0.0 mm 0.00 in0.0 mm 0.00 in0.0 mm
09:31 AM 59.5°F15.3°C 44.6°F7.0°C 58% 5.6 mph SSW9.0 kmh SSW 9.6 mph15.4 kmh 29.68 in1005.1 mb 0.00 in0.0 mm 0.00 in0.0 mm 0.00 in0.0 mm
09:32 AM 59.5°F15.3°C 46.4°F8.0°C 59% 2.2 mph SSW3.5 kmh SSW 9.6 mph15.4 kmh 29.68 in1005.1 mb 0.00 in0.0 mm 0.00 in0.0 mm 0.00 in0.0 mm
09:33 AM 59.5°F15.3°C 46.4°F8.0°C 59% 2.7 mph SSW4.3 kmh SSW 9.6 mph15.4 kmh 29.68 in1005.1 mb 0.00 in0.0 mm 0.00 in0.0 mm 0.00 in0.0 mm
09:34 AM 59.5°F15.3°C 46.4°F8.0°C 59% 2.9 mph S4.7 kmh S 9.6 mph15.4 kmh 29.68 in1005.1 mb 0.00 in0.0 mm 0.00 in0.0 mm 0.00 in0.0 mm
09:35 AM 59.5°F15.3°C 46.4°F8.0°C 59% 3.1 mph SSW5.0 kmh SSW 9.6 mph15.4 kmh 29.68 in1005.1 mb 0.00 in0.0 mm 0.00 in0.0 mm 0.00 in0.0 mm
09:36 AM 59.5°F15.3°C 46.4°F8.0°C 59% 6.0 mph SSW9.7 kmh SSW 9.6 mph15.4 kmh 29.68 in1005.1 mb 0.00 in0.0 mm 0.00 in0.0 mm 0.00 in0.0 mm
09:37 AM 59.5°F15.3°C 46.4°F8.0°C 59% 4.7 mph SSW7.6 kmh SSW 9.6 mph15.4 kmh 29.68 in1005.1 mb 0.00 in0.0 mm 0.00 in0.0 mm 0.00 in0.0 mm
09:38 AM 59.5°F15.3°C 46.4°F8.0°C 59% 3.6 mph SSW5.8 kmh SSW 9.6 mph15.4 kmh 29.68 in1005.1 mb 0.00 in0.0 mm 0.00 in0.0 mm 0.00 in0.0 mm
09:39 AM 59.5°F15.3°C 46.4°F8.0°C 59% 3.4 mph SSW5.5 kmh SSW 9.6 mph15.4 kmh 29.68 in1005.1 mb 0.00 in0.0 mm 0.00 in0.0 mm 0.00 in0.0 mm
09:40 AM 59.7°F15.4°C 46.4°F8.0°C 59% 4.7 mph SSW7.6 kmh SSW 9.6 mph15.4 kmh 29.68 in1005.1 mb 0.00 in0.0 mm 0.00 in0.0 mm 0.00 in0.0 mm
09:41 AM 59.7°F15.4°C 46.4°F8.0°C 59% 3.6 mph SSW5.8 kmh SSW 6.5 mph10.5 kmh 29.68 in1005.1 mb 0.00 in0.0 mm 0.00 in0.0 mm 0.00 in0.0 mm
09:42 AM 59.7°F15.4°C 46.4°F8.0°C 59% 2.7 mph SSW4.3 kmh SSW 6.5 mph10.5 kmh 29.68 in1005.1 mb 0.00 in0.0 mm 0.00 in0.0 mm 0.00 in0.0 mm
09:43 AM 59.7°F15.4°C 46.4°F8.0°C 59% 2.2 mph SSW3.5 kmh SSW 6.5 mph10.5 kmh 29.68 in1005.1 mb 0.00 in0.0 mm 0.00 in0.0 mm 0.00 in0.0 mm
09:44 AM 59.7°F15.4°C 46.4°F8.0°C 59% 2.9 mph SSW4.7 kmh SSW 6.5 mph10.5 kmh 29.68 in1005.1 mb 0.00 in0.0 mm 0.00 in0.0 mm 0.00 in0.0 mm
09:45 AM 59.7°F15.4°C 46.4°F8.0°C 59% 4.3 mph S6.9 kmh S 6.5 mph10.5 kmh 29.68 in1005.1 mb 0.00 in0.0 mm 0.00 in0.0 mm 0.00 in0.0 mm
09:46 AM 59.7°F15.4°C 46.4°F8.0°C 59% 2.9 mph S4.7 kmh S 6.5 mph10.5 kmh 29.68 in1005.1 mb 0.00 in0.0 mm 0.00 in0.0 mm 0.00 in0.0 mm
09:47 AM 59.7°F15.4°C 46.4°F8.0°C 59% 3.1 mph S5.0 kmh S 6.0 mph9.7 kmh 29.68 in1005.1 mb 0.00 in0.0 mm 0.00 in0.0 mm 0.00 in0.0 mm
09:48 AM 59.7°F15.4°C 46.4°F8.0°C 59% 4.3 mph S6.9 kmh S 9.4 mph15.1 kmh 29.68 in1005.1 mb 0.00 in0.0 mm 0.00 in0.0 mm 0.00 in0.0 mm
09:49 AM 59.7°F15.4°C 46.4°F8.0°C 59% 3.8 mph S6.1 kmh S 9.4 mph15.1 kmh 29.68 in1005.1 mb 0.00 in0.0 mm 0.00 in0.0 mm 0.00 in0.0 mm
09:50 AM 59.7°F15.4°C 46.4°F8.0°C 60% 3.6 mph S5.8 kmh S 9.4 mph15.1 kmh 29.68 in1005.1 mb 0.00 in0.0 mm 0.00 in0.0 mm 0.00 in0.0 mm
09:51 AM 59.7°F15.4°C 46.4°F8.0°C 60% 3.8 mph S6.1 kmh S 9.4 mph15.1 kmh 29.68 in1005.1 mb 0.00 in0.0 mm 0.00 in0.0 mm 0.00 in0.0 mm
09:52 AM 59.7°F15.4°C 46.4°F8.0°C 60% 2.7 mph SSW4.3 kmh SSW 9.4 mph15.1 kmh 29.68 in1005.1 mb 0.00 in0.0 mm 0.00 in0.0 mm 0.00 in0.0 mm
09:53 AM 59.7°F15.4°C 46.4°F8.0°C 60% 4.7 mph SSW7.6 kmh SSW 9.4 mph15.1 kmh 29.68 in1005.1 mb 0.00 in0.0 mm 0.00 in0.0 mm 0.00 in0.0 mm
09:54 AM 59.7°F15.4°C 46.4°F8.0°C 60% 3.4 mph SSW5.5 kmh SSW 9.4 mph15.1 kmh 29.68 in1005.1 mb 0.00 in0.0 mm 0.00 in0.0 mm 0.00 in0.0 mm
09:55 AM 59.7°F15.4°C 46.4°F8.0°C 60% 4.3 mph SSW6.9 kmh SSW 9.4 mph15.1 kmh 29.68 in1005.1 mb 0.00 in0.0 mm 0.00 in0.0 mm 0.00 in0.0 mm
09:56 AM 59.7°F15.4°C 46.4°F8.0°C 60% 2.9 mph SSW4.7 kmh SSW 9.4 mph15.1 kmh 29.68 in1005.1 mb 0.00 in0.0 mm 0.00 in0.0 mm 0.00 in0.0 mm
09:57 AM 59.7°F15.4°C 46.4°F8.0°C 60% 3.6 mph SW5.8 kmh SW 9.4 mph15.1 kmh 29.68 in1005.1 mb 0.00 in0.0 mm 0.00 in0.0 mm 0.00 in0.0 mm
09:58 AM 59.9°F15.5°C 46.4°F8.0°C 60% 3.4 mph SSW5.5 kmh SSW 7.8 mph12.6 kmh 29.68 in1005.1 mb 0.00 in0.0 mm 0.00 in0.0 mm 0.00 in0.0 mm
09:59 AM 59.9°F15.5°C 46.4°F8.0°C 60% 2.7 mph SW4.3 kmh SW 7.8 mph12.6 kmh 29.68 in1005.1 mb 0.00 in0.0 mm 0.00 in0.0 mm 0.00 in0.0 mm
10:00 AM 59.9°F15.5°C 46.4°F8.0°C 60% 4.5 mph SSW7.2 kmh SSW 7.4 mph11.9 kmh 29.68 in1005.1 mb 0.00 in0.0 mm 0.00 in0.0 mm 0.00 in0.0 mm
10:01 AM 59.9°F15.5°C 46.4°F8.0°C 60% 5.4 mph SSW8.7 kmh SSW 7.4 mph11.9 kmh 29.68 in1005.1 mb 0.00 in0.0 mm 0.00 in0.0 mm 0.00 in0.0 mm
10:02 AM 59.9°F15.5°C 46.4°F8.0°C 60% 4.5 mph SSW7.2 kmh SSW 7.4 mph11.9 kmh 29.68 in1005.1 mb 0.00 in0.0 mm 0.00 in0.0 mm 0.00 in0.0 mm
10:03 AM 59.9°F15.5°C 46.4°F8.0°C 60% 4.3 mph SSW6.9 kmh SSW 7.4 mph11.9 kmh 29.68 in1005.1 mb 0.00 in0.0 mm 0.00 in0.0 mm 0.00 in0.0 mm
10:04 AM 60.1°F15.6°C 46.4°F8.0°C 60% 2.0 mph SSW3.2 kmh SSW 7.4 mph11.9 kmh 29.68 in1005.1 mb 0.00 in0.0 mm 0.00 in0.0 mm 0.00 in0.0 mm
10:05 AM 60.1°F15.6°C 46.4°F8.0°C 60% 2.2 mph SSW3.5 kmh SSW 7.4 mph11.9 kmh 29.68 in1005.1 mb 0.00 in0.0 mm 0.00 in0.0 mm 0.00 in0.0 mm
10:06 AM 60.1°F15.6°C 46.4°F8.0°C 60% 4.0 mph SSW6.4 kmh SSW 7.4 mph11.9 kmh 29.68 in1005.1 mb 0.00 in0.0 mm 0.00 in0.0 mm 0.00 in0.0 mm
10:07 AM 60.1°F15.6°C 46.4°F8.0°C 60% 3.1 mph S5.0 kmh S 7.4 mph11.9 kmh 29.68 in1005.1 mb 0.00 in0.0 mm 0.00 in0.0 mm 0.00 in0.0 mm
10:08 AM 60.1°F15.6°C 46.4°F8.0°C 60% 4.3 mph S6.9 kmh S 7.4 mph11.9 kmh 29.68 in1005.1 mb 0.00 in0.0 mm 0.00 in0.0 mm 0.00 in0.0 mm
10:09 AM 60.3°F15.7°C 46.4°F8.0°C 60% 3.8 mph S6.1 kmh S 7.4 mph11.9 kmh 29.68 in1005.1 mb 0.00 in0.0 mm 0.00 in0.0 mm 0.00 in0.0 mm
10:10 AM 60.3°F15.7°C 46.4°F8.0°C 60% 3.1 mph SSW5.0 kmh SSW 7.4 mph11.9 kmh 29.68 in1005.1 mb 0.00 in0.0 mm 0.00 in0.0 mm 0.00 in0.0 mm
10:11 AM 60.3°F15.7°C 46.4°F8.0°C 60% 2.7 mph SSW4.3 kmh SSW 7.4 mph11.9 kmh 29.68 in1005.1 mb 0.00 in0.0 mm 0.00 in0.0 mm 0.00 in0.0 mm
10:12 AM 60.3°F15.7°C 46.4°F8.0°C 60% 2.2 mph SSW3.5 kmh SSW 7.2 mph11.6 kmh 29.68 in1005.1 mb 0.00 in0.0 mm 0.00 in0.0 mm 0.00 in0.0 mm
10:13 AM 60.3°F15.7°C 46.4°F8.0°C 61% 4.0 mph SSW6.4 kmh SSW 9.6 mph15.4 kmh 29.68 in1005.1 mb 0.00 in0.0 mm 0.00 in0.0 mm 0.00 in0.0 mm
10:14 AM 60.4°F15.8°C 46.4°F8.0°C 61% 2.9 mph SSW4.7 kmh SSW 9.6 mph15.4 kmh 29.68 in1005.1 mb 0.00 in0.0 mm 0.00 in0.0 mm 0.00 in0.0 mm
10:15 AM 60.4°F15.8°C 46.4°F8.0°C 61% 3.1 mph SSW5.0 kmh SSW 9.6 mph15.4 kmh 29.68 in1005.1 mb 0.00 in0.0 mm 0.00 in0.0 mm 0.00 in0.0 mm
10:16 AM 60.4°F15.8°C 46.4°F8.0°C 61% 3.1 mph SSW5.0 kmh SSW 9.6 mph15.4 kmh 29.68 in1005.1 mb 0.00 in0.0 mm 0.00 in0.0 mm 0.00 in0.0 mm
10:17 AM 60.4°F15.8°C 46.4°F8.0°C 61% 4.7 mph SSW7.6 kmh SSW 9.6 mph15.4 kmh 29.68 in1005.1 mb 0.00 in0.0 mm 0.00 in0.0 mm 0.00 in0.0 mm
10:18 AM 60.4°F15.8°C 46.4°F8.0°C 61% 4.5 mph SSW7.2 kmh SSW 9.6 mph15.4 kmh 29.68 in1005.1 mb 0.00 in0.0 mm 0.00 in0.0 mm 0.00 in0.0 mm
10:19 AM 60.6°F15.9°C 48.2°F9.0°C 61% 4.9 mph SSW7.9 kmh SSW 9.6 mph15.4 kmh 29.68 in1005.1 mb 0.00 in0.0 mm 0.00 in0.0 mm 0.00 in0.0 mm
10:20 AM 60.6°F15.9°C 48.2°F9.0°C 61% 3.8 mph SSW6.1 kmh SSW 9.6 mph15.4 kmh 29.68 in1005.1 mb 0.00 in0.0 mm 0.00 in0.0 mm 0.00 in0.0 mm
10:21 AM 60.6°F15.9°C 48.2°F9.0°C 61% 2.9 mph SSW4.7 kmh SSW 9.6 mph15.4 kmh 29.68 in1005.1 mb 0.00 in0.0 mm 0.00 in0.0 mm 0.00 in0.0 mm
10:22 AM 60.6°F15.9°C 48.2°F9.0°C 61% 2.5 mph SSW4.0 kmh SSW 9.6 mph15.4 kmh 29.68 in1005.1 mb 0.00 in0.0 mm 0.00 in0.0 mm 0.00 in0.0 mm
10:23 AM 60.6°F15.9°C 48.2°F9.0°C 61% 4.3 mph SSW6.9 kmh SSW 8.5 mph13.7 kmh 29.68 in1005.1 mb 0.00 in0.0 mm 0.00 in0.0 mm 0.00 in0.0 mm
10:24 AM 60.6°F15.9°C 48.2°F9.0°C 61% 4.3 mph SSW6.9 kmh SSW 8.5 mph13.7 kmh 29.68 in1005.1 mb 0.00 in0.0 mm 0.00 in0.0 mm 0.00 in0.0 mm
10:25 AM 60.6°F15.9°C 48.2°F9.0°C 61% 3.6 mph SSW5.8 kmh SSW 8.5 mph13.7 kmh 29.68 in1005.1 mb 0.00 in0.0 mm 0.00 in0.0 mm 0.00 in0.0 mm
10:26 AM 60.6°F15.9°C 48.2°F9.0°C 61% 4.0 mph SSW6.4 kmh SSW 8.7 mph14.0 kmh 29.68 in1005.1 mb 0.00 in0.0 mm 0.00 in0.0 mm 0.00 in0.0 mm
10:27 AM 60.8°F16.0°C 48.2°F9.0°C 61% 4.5 mph SSW7.2 kmh SSW 8.7 mph14.0 kmh 29.68 in1005.1 mb 0.00 in0.0 mm 0.00 in0.0 mm 0.00 in0.0 mm
10:28 AM 60.8°F16.0°C 48.2°F9.0°C 61% 3.4 mph SSW5.5 kmh SSW 8.7 mph14.0 kmh 29.68 in1005.1 mb 0.00 in0.0 mm 0.00 in0.0 mm 0.00 in0.0 mm
10:29 AM 60.8°F16.0°C 48.2°F9.0°C 61% 4.9 mph SW7.9 kmh SW 8.7 mph14.0 kmh 29.68 in1005.1 mb 0.00 in0.0 mm 0.00 in0.0 mm 0.00 in0.0 mm
10:30 AM 60.8°F16.0°C 48.2°F9.0°C 61% 4.3 mph SW6.9 kmh SW 8.7 mph14.0 kmh 29.68 in1005.1 mb 0.00 in0.0 mm 0.00 in0.0 mm 0.00 in0.0 mm
10:31 AM 60.8°F16.0°C 48.2°F9.0°C 61% 3.1 mph SW5.0 kmh SW 8.7 mph14.0 kmh 29.68 in1005.1 mb 0.00 in0.0 mm 0.00 in0.0 mm 0.00 in0.0 mm
10:32 AM 60.8°F16.0°C 48.2°F9.0°C 61% 2.9 mph SW4.7 kmh SW 8.7 mph14.0 kmh 29.68 in1005.1 mb 0.00 in0.0 mm 0.00 in0.0 mm 0.00 in0.0 mm
10:33 AM 61.0°F16.1°C 48.2°F9.0°C 61% 3.6 mph SW5.8 kmh SW 8.7 mph14.0 kmh 29.68 in1005.1 mb 0.00 in0.0 mm 0.00 in0.0 mm 0.00 in0.0 mm
10:34 AM 61.0°F16.1°C 48.2°F9.0°C 61% 3.1 mph SW5.0 kmh SW 8.7 mph14.0 kmh 29.68 in1005.1 mb 0.00 in0.0 mm 0.00 in0.0 mm 0.00 in0.0 mm
10:35 AM 61.0°F16.1°C 48.2°F9.0°C 61% 5.8 mph SW9.3 kmh SW 9.2 mph14.8 kmh 29.68 in1005.1 mb 0.00 in0.0 mm 0.00 in0.0 mm 0.00 in0.0 mm
10:36 AM 61.0°F16.1°C 48.2°F9.0°C 61% 4.5 mph SW7.2 kmh SW 9.2 mph14.8 kmh 29.68 in1005.1 mb 0.00 in0.0 mm 0.00 in0.0 mm 0.00 in0.0 mm
10:37 AM 61.0°F16.1°C 48.2°F9.0°C 61% 3.6 mph SW5.8 kmh SW 9.2 mph14.8 kmh 29.68 in1005.1 mb 0.00 in0.0 mm 0.00 in0.0 mm 0.00 in0.0 mm
10:38 AM 61.0°F16.1°C 48.2°F9.0°C 62% 2.9 mph SSW4.7 kmh SSW 9.2 mph14.8 kmh 29.68 in1005.1 mb 0.00 in0.0 mm 0.00 in0.0 mm 0.00 in0.0 mm
10:39 AM 61.0°F16.1°C 48.2°F9.0°C 62% 5.6 mph SSW9.0 kmh SSW 9.2 mph14.8 kmh 29.68 in1005.1 mb 0.00 in0.0 mm 0.00 in0.0 mm 0.00 in0.0 mm
10:40 AM 61.2°F16.2°C 48.2°F9.0°C 61% 3.8 mph SSW6.1 kmh SSW 9.2 mph14.8 kmh 29.68 in1005.1 mb 0.00 in0.0 mm 0.00 in0.0 mm 0.00 in0.0 mm
10:41 AM 61.2°F16.2°C 48.2°F9.0°C 62% 4.7 mph SSW7.6 kmh SSW 9.2 mph14.8 kmh 29.68 in1005.1 mb 0.00 in0.0 mm 0.00 in0.0 mm 0.00 in0.0 mm
10:42 AM 61.2°F16.2°C 48.2°F9.0°C 62% 6.5 mph SSW10.5 kmh SSW 9.2 mph14.8 kmh 29.68 in1005.1 mb 0.00 in0.0 mm 0.00 in0.0 mm 0.00 in0.0 mm
10:43 AM 61.2°F16.2°C 48.2°F9.0°C 62% 6.7 mph SSW10.8 kmh SSW 9.2 mph14.8 kmh 29.68 in1005.1 mb 0.00 in0.0 mm 0.00 in0.0 mm 0.00 in0.0 mm
10:44 AM 61.3°F16.3°C 48.2°F9.0°C 62% 3.8 mph SSW6.1 kmh SSW 9.2 mph14.8 kmh 29.68 in1005.1 mb 0.00 in0.0 mm 0.00 in0.0 mm 0.00 in0.0 mm
10:45 AM 61.3°F16.3°C 48.2°F9.0°C 62% 4.3 mph S6.9 kmh S 7.8 mph12.6 kmh 29.68 in1005.1 mb 0.00 in0.0 mm 0.00 in0.0 mm 0.00 in0.0 mm
10:46 AM 61.3°F16.3°C 48.2°F9.0°C 62% 5.6 mph S9.0 kmh S 7.8 mph12.6 kmh 29.68 in1005.1 mb 0.00 in0.0 mm 0.00 in0.0 mm 0.00 in0.0 mm
10:47 AM 61.3°F16.3°C 48.2°F9.0°C 62% 3.6 mph S5.8 kmh S 7.8 mph12.6 kmh 29.62 in1003.0 mb 0.00 in0.0 mm 0.00 in0.0 mm 0.00 in0.0 mm
10:48 AM 61.3°F16.3°C 48.2°F9.0°C 62% 6.0 mph S9.7 kmh S 7.8 mph12.6 kmh 29.62 in1003.0 mb 0.00 in0.0 mm 0.00 in0.0 mm 0.00 in0.0 mm
10:49 AM 61.3°F16.3°C 48.2°F9.0°C 62% 3.6 mph S5.8 kmh S 7.8 mph12.6 kmh 29.62 in1003.0 mb 0.00 in0.0 mm 0.00 in0.0 mm 0.00 in0.0 mm
10:50 AM 61.5°F16.4°C 48.2°F9.0°C 62% 3.6 mph S5.8 kmh S 7.8 mph12.6 kmh 29.62 in1003.0 mb 0.00 in0.0 mm 0.00 in0.0 mm 0.00 in0.0 mm
10:51 AM 61.5°F16.4°C 48.2°F9.0°C 62% 4.3 mph S6.9 kmh S 7.8 mph12.6 kmh 29.62 in1003.0 mb 0.00 in0.0 mm 0.00 in0.0 mm 0.00 in0.0 mm
10:52 AM 61.5°F16.4°C 48.2°F9.0°C 62% 4.3 mph S6.9 kmh S 7.6 mph12.2 kmh 29.62 in1003.0 mb 0.00 in0.0 mm 0.00 in0.0 mm 0.00 in0.0 mm
10:53 AM 61.5°F16.4°C 48.2°F9.0°C 62% 4.3 mph S6.9 kmh S 8.7 mph14.0 kmh 29.62 in1003.0 mb 0.00 in0.0 mm 0.00 in0.0 mm 0.00 in0.0 mm
10:54 AM 61.7°F16.5°C 48.2°F9.0°C 62% 5.4 mph S8.7 kmh S 8.7 mph14.0 kmh 29.62 in1003.0 mb 0.00 in0.0 mm 0.00 in0.0 mm 0.00 in0.0 mm
10:55 AM 61.7°F16.5°C 48.2°F9.0°C 62% 3.1 mph S5.0 kmh S 8.7 mph14.0 kmh 29.62 in1003.0 mb 0.00 in0.0 mm 0.00 in0.0 mm 0.00 in0.0 mm
10:56 AM 61.7°F16.5°C 48.2°F9.0°C 62% 4.7 mph S7.6 kmh S 8.7 mph14.0 kmh 29.62 in1003.0 mb 0.00 in0.0 mm 0.00 in0.0 mm 0.00 in0.0 mm
10:57 AM 61.9°F16.6°C 48.2°F9.0°C 62% 4.3 mph S6.9 kmh S 8.7 mph14.0 kmh 29.62 in1003.0 mb 0.00 in0.0 mm 0.00 in0.0 mm 0.00 in0.0 mm
10:58 AM 61.9°F16.6°C 48.2°F9.0°C 62% 4.0 mph SSW6.4 kmh SSW 8.7 mph14.0 kmh 29.62 in1003.0 mb 0.00 in0.0 mm 0.00 in0.0 mm 0.00 in0.0 mm
10:59 AM 61.9°F16.6°C 48.2°F9.0°C 62% 5.8 mph SSW9.3 kmh SSW 8.7 mph14.0 kmh 29.62 in1003.0 mb 0.00 in0.0 mm 0.00 in0.0 mm 0.00 in0.0 mm
11:00 AM 62.1°F16.7°C 48.2°F9.0°C 62% 6.7 mph SSW10.8 kmh SSW 10.5 mph16.9 kmh 29.62 in1003.0 mb 0.00 in0.0 mm 0.00 in0.0 mm 0.00 in0.0 mm
11:01 AM 62.1°F16.7°C 48.2°F9.0°C 62% 3.6 mph SSW5.8 kmh SSW 10.5 mph16.9 kmh 29.62 in1003.0 mb 0.00 in0.0 mm 0.00 in0.0 mm 0.00 in0.0 mm
11:02 AM 62.1°F16.7°C 48.2°F9.0°C 62% 4.3 mph SSW6.9 kmh SSW 10.5 mph16.9 kmh 29.62 in1003.0 mb 0.00 in0.0 mm 0.00 in0.0 mm 0.00 in0.0 mm
11:03 AM 62.1°F16.7°C 48.2°F9.0°C 62% 5.8 mph SSW9.3 kmh SSW 10.5 mph16.9 kmh 29.62 in1003.0 mb 0.00 in0.0 mm 0.00 in0.0 mm 0.00 in0.0 mm
11:04 AM 62.1°F16.7°C 48.2°F9.0°C 62% 4.7 mph SSW7.6 kmh SSW 10.5 mph16.9 kmh 29.62 in1003.0 mb 0.00 in0.0 mm 0.00 in0.0 mm 0.00 in0.0 mm
11:05 AM 62.1°F16.7°C 48.2°F9.0°C 62% 5.4 mph SSW8.7 kmh SSW 10.5 mph16.9 kmh 29.62 in1003.0 mb 0.00 in0.0 mm 0.00 in0.0 mm 0.00 in0.0 mm
11:06 AM 62.1°F16.7°C 48.2°F9.0°C 62% 6.0 mph SW9.7 kmh SW 10.5 mph16.9 kmh 29.62 in1003.0 mb 0.00 in0.0 mm 0.00 in0.0 mm 0.00 in0.0 mm
11:07 AM 62.1°F16.7°C 48.2°F9.0°C 62% 3.8 mph SW6.1 kmh SW 10.5 mph16.9 kmh 29.62 in1003.0 mb 0.00 in0.0 mm 0.00 in0.0 mm 0.00 in0.0 mm
11:08 AM 62.1°F16.7°C 48.2°F9.0°C 62% 3.8 mph SW6.1 kmh SW 10.5 mph16.9 kmh 29.62 in1003.0 mb 0.00 in0.0 mm 0.00 in0.0 mm 0.00 in0.0 mm
11:09 AM 62.1°F16.7°C 48.2°F9.0°C 62% 3.1 mph SW5.0 kmh SW 10.5 mph16.9 kmh 29.62 in1003.0 mb 0.00 in0.0 mm 0.00 in0.0 mm 0.00 in0.0 mm
11:10 AM 62.1°F16.7°C 48.2°F9.0°C 62% 4.0 mph SSW6.4 kmh SSW 9.4 mph15.1 kmh 29.62 in1003.0 mb 0.00 in0.0 mm 0.00 in0.0 mm 0.00 in0.0 mm
11:11 AM 62.1°F16.7°C 48.2°F9.0°C 62% 3.8 mph SSW6.1 kmh SSW 9.4 mph15.1 kmh 29.62 in1003.0 mb 0.00 in0.0 mm 0.00 in0.0 mm 0.00 in0.0 mm
11:12 AM 62.1°F16.7°C 48.2°F9.0°C 62% 3.8 mph SSW6.1 kmh SSW 9.4 mph15.1 kmh 29.62 in1003.0 mb 0.00 in0.0 mm 0.00 in0.0 mm 0.00 in0.0 mm
11:13 AM 62.1°F16.7°C 48.2°F9.0°C 62% 3.6 mph SSW5.8 kmh SSW 8.9 mph14.3 kmh 29.62 in1003.0 mb 0.00 in0.0 mm 0.00 in0.0 mm 0.00 in0.0 mm
11:14 AM 62.1°F16.7°C 48.2°F9.0°C 62% 3.8 mph SSW6.1 kmh SSW 8.9 mph14.3 kmh 29.62 in1003.0 mb 0.00 in0.0 mm 0.00 in0.0 mm 0.00 in0.0 mm
11:15 AM 62.1°F16.7°C 48.2°F9.0°C 62% 2.2 mph SSW3.5 kmh SSW 8.9 mph14.3 kmh 29.62 in1003.0 mb 0.00 in0.0 mm 0.00 in0.0 mm 0.00 in0.0 mm
11:16 AM 62.1°F16.7°C 48.2°F9.0°C 62% 4.3 mph SSW6.9 kmh SSW 7.2 mph11.6 kmh 29.62 in1003.0 mb 0.00 in0.0 mm 0.00 in0.0 mm 0.00 in0.0 mm
11:17 AM 62.1°F16.7°C 48.2°F9.0°C 62% 3.6 mph SSW5.8 kmh SSW 7.2 mph11.6 kmh 29.65 in1004.1 mb 0.00 in0.0 mm 0.00 in0.0 mm 0.00 in0.0 mm
11:18 AM 62.1°F16.7°C 48.2°F9.0°C 62% 3.1 mph SSW5.0 kmh SSW 7.2 mph11.6 kmh 29.65 in1004.1 mb 0.00 in0.0 mm 0.00 in0.0 mm 0.00 in0.0 mm
11:19 AM 62.1°F16.7°C 50.0°F10.0°C 63% 3.1 mph SSW5.0 kmh SSW 7.2 mph11.6 kmh 29.65 in1004.1 mb 0.00 in0.0 mm 0.00 in0.0 mm 0.00 in0.0 mm
11:20 AM 62.1°F16.7°C 50.0°F10.0°C 63% 3.8 mph SSW6.1 kmh SSW 7.2 mph11.6 kmh 29.65 in1004.1 mb 0.00 in0.0 mm 0.00 in0.0 mm 0.00 in0.0 mm
11:21 AM 62.1°F16.7°C 50.0°F10.0°C 63% 4.9 mph SSW7.9 kmh SSW 7.8 mph12.6 kmh 29.65 in1004.1 mb 0.00 in0.0 mm 0.00 in0.0 mm 0.00 in0.0 mm
11:22 AM 62.1°F16.7°C 50.0°F10.0°C 63% 4.3 mph SSW6.9 kmh SSW 7.8 mph12.6 kmh 29.65 in1004.1 mb 0.00 in0.0 mm 0.00 in0.0 mm 0.00 in0.0 mm
11:23 AM 62.1°F16.7°C 50.0°F10.0°C 63% 6.0 mph SSW9.7 kmh SSW 9.4 mph15.1 kmh 29.65 in1004.1 mb 0.00 in0.0 mm 0.00 in0.0 mm 0.00 in0.0 mm
11:24 AM 62.1°F16.7°C 50.0°F10.0°C 63% 4.7 mph SSW7.6 kmh SSW 9.4 mph15.1 kmh 29.65 in1004.1 mb 0.00 in0.0 mm 0.00 in0.0 mm 0.00 in0.0 mm
11:25 AM 62.1°F16.7°C 50.0°F10.0°C 63% 4.5 mph SSW7.2 kmh SSW 9.4 mph15.1 kmh 29.65 in1004.1 mb 0.00 in0.0 mm 0.00 in0.0 mm 0.00 in0.0 mm
11:26 AM 62.1°F16.7°C 50.0°F10.0°C 63% 3.1 mph SSW5.0 kmh SSW 9.4 mph15.1 kmh 29.65 in1004.1 mb 0.00 in0.0 mm 0.00 in0.0 mm 0.00 in0.0 mm
11:27 AM 62.1°F16.7°C 50.0°F10.0°C 63% 3.8 mph SSW6.1 kmh SSW 9.4 mph15.1 kmh 29.65 in1004.1 mb 0.00 in0.0 mm 0.00 in0.0 mm 0.00 in0.0 mm
11:28 AM 62.1°F16.7°C 50.0°F10.0°C 63% 4.3 mph SSW6.9 kmh SSW 9.4 mph15.1 kmh 29.65 in1004.1 mb 0.00 in0.0 mm 0.00 in0.0 mm 0.00 in0.0 mm
11:29 AM 62.1°F16.7°C 50.0°F10.0°C 63% 3.8 mph SSW6.1 kmh SSW 9.4 mph15.1 kmh 29.65 in1004.1 mb 0.00 in0.0 mm 0.00 in0.0 mm 0.00 in0.0 mm
11:30 AM 62.1°F16.7°C 50.0°F10.0°C 63% 4.7 mph SSW7.6 kmh SSW 9.4 mph15.1 kmh 29.65 in1004.1 mb 0.00 in0.0 mm 0.00 in0.0 mm 0.00 in0.0 mm
11:31 AM 62.1°F16.7°C 50.0°F10.0°C 63% 4.9 mph SSW7.9 kmh SSW 9.4 mph15.1 kmh 29.65 in1004.1 mb 0.00 in0.0 mm 0.00 in0.0 mm 0.00 in0.0 mm
11:32 AM 62.2°F16.8°C 50.0°F10.0°C 63% 3.8 mph SSW6.1 kmh SSW 9.4 mph15.1 kmh 29.65 in1004.1 mb 0.00 in0.0 mm 0.00 in0.0 mm 0.00 in0.0 mm
11:33 AM 62.2°F16.8°C 50.0°F10.0°C 63% 3.8 mph SSW6.1 kmh SSW 9.4 mph15.1 kmh 29.65 in1004.1 mb 0.00 in0.0 mm 0.00 in0.0 mm 0.00 in0.0 mm
11:34 AM 62.2°F16.8°C 50.0°F10.0°C 63% 3.8 mph SSW6.1 kmh SSW 8.1 mph13.0 kmh 29.65 in1004.1 mb 0.00 in0.0 mm 0.00 in0.0 mm 0.00 in0.0 mm
11:35 AM 62.2°F16.8°C 50.0°F10.0°C 63% 4.3 mph SSW6.9 kmh SSW 7.4 mph11.9 kmh 29.65 in1004.1 mb 0.00 in0.0 mm 0.00 in0.0 mm 0.00 in0.0 mm
11:36 AM 62.2°F16.8°C 50.0°F10.0°C 63% 4.5 mph SSW7.2 kmh SSW 7.4 mph11.9 kmh 29.65 in1004.1 mb 0.00 in0.0 mm 0.00 in0.0 mm 0.00 in0.0 mm
11:37 AM 62.2°F16.8°C 50.0°F10.0°C 63% 3.1 mph SSW5.0 kmh SSW 7.4 mph11.9 kmh 29.65 in1004.1 mb 0.00 in0.0 mm 0.00 in0.0 mm 0.00 in0.0 mm
11:38 AM 62.2°F16.8°C 50.0°F10.0°C 63% 2.7 mph SSW4.3 kmh SSW 7.4 mph11.9 kmh 29.65 in1004.1 mb 0.00 in0.0 mm 0.00 in0.0 mm 0.00 in0.0 mm
11:39 AM 62.2°F16.8°C 50.0°F10.0°C 63% 4.9 mph SSW7.9 kmh SSW 7.6 mph12.2 kmh 29.65 in1004.1 mb 0.00 in0.0 mm 0.00 in0.0 mm 0.00 in0.0 mm
11:40 AM 62.2°F16.8°C 50.0°F10.0°C 64% 4.0 mph SSW6.4 kmh SSW 7.6 mph12.2 kmh 29.65 in1004.1 mb 0.00 in0.0 mm 0.00 in0.0 mm 0.00 in0.0 mm
11:41 AM 62.2°F16.8°C 50.0°F10.0°C 63% 4.5 mph SSW7.2 kmh SSW 7.6 mph12.2 kmh 29.65 in1004.1 mb 0.00 in0.0 mm 0.00 in0.0 mm 0.00 in0.0 mm
11:42 AM 62.2°F16.8°C 50.0°F10.0°C 63% 4.0 mph S6.4 kmh S 7.6 mph12.2 kmh 29.65 in1004.1 mb 0.00 in0.0 mm 0.00 in0.0 mm 0.00 in0.0 mm
11:43 AM 62.2°F16.8°C 50.0°F10.0°C 63% 5.6 mph SSW9.0 kmh SSW 12.5 mph20.1 kmh 29.65 in1004.1 mb 0.00 in0.0 mm 0.00 in0.0 mm 0.00 in0.0 mm
11:44 AM 62.1°F16.7°C 50.0°F10.0°C 64% 3.6 mph SSW5.8 kmh SSW 12.5 mph20.1 kmh 29.65 in1004.1 mb 0.00 in0.0 mm 0.00 in0.0 mm 0.00 in0.0 mm
11:45 AM 62.2°F16.8°C 50.0°F10.0°C 64% 2.9 mph SSW4.7 kmh SSW 12.5 mph20.1 kmh 29.65 in1004.1 mb 0.00 in0.0 mm 0.00 in0.0 mm 0.00 in0.0 mm
11:46 AM 62.2°F16.8°C 50.0°F10.0°C 64% 2.9 mph SSW4.7 kmh SSW 12.5 mph20.1 kmh 29.65 in1004.1 mb 0.00 in0.0 mm 0.00 in0.0 mm 0.00 in0.0 mm
11:47 AM 62.2°F16.8°C 50.0°F10.0°C 64% 4.5 mph SSW7.2 kmh SSW 12.5 mph20.1 kmh 29.59 in1002.0 mb 0.00 in0.0 mm 0.00 in0.0 mm 0.00 in0.0 mm
11:48 AM 62.2°F16.8°C 50.0°F10.0°C 64% 5.6 mph SSW9.0 kmh SSW 12.5 mph20.1 kmh 29.59 in1002.0 mb 0.00 in0.0 mm 0.00 in0.0 mm 0.00 in0.0 mm
11:49 AM 62.2°F16.8°C 50.0°F10.0°C 64% 4.3 mph SSW6.9 kmh SSW 12.5 mph20.1 kmh 29.59 in1002.0 mb 0.00 in0.0 mm 0.00 in0.0 mm 0.00 in0.0 mm
11:50 AM 62.2°F16.8°C 50.0°F10.0°C 64% 4.3 mph SSW6.9 kmh SSW 12.5 mph20.1 kmh 29.59 in1002.0 mb 0.00 in0.0 mm 0.00 in0.0 mm 0.00 in0.0 mm
11:51 AM 62.4°F16.9°C 50.0°F10.0°C 64% 3.6 mph SSW5.8 kmh SSW 12.5 mph20.1 kmh 29.59 in1002.0 mb 0.00 in0.0 mm 0.00 in0.0 mm 0.00 in0.0 mm
11:52 AM 62.4°F16.9°C 50.0°F10.0°C 64% 2.9 mph SSW4.7 kmh SSW 12.5 mph20.1 kmh 29.59 in1002.0 mb 0.00 in0.0 mm 0.00 in0.0 mm 0.00 in0.0 mm
11:53 AM 62.6°F17.0°C 50.0°F10.0°C 63% 2.7 mph S4.3 kmh S 7.4 mph11.9 kmh 29.59 in1002.0 mb 0.00 in0.0 mm 0.00 in0.0 mm 0.00 in0.0 mm
11:54 AM 62.6°F17.0°C 50.0°F10.0°C 63% 4.3 mph S6.9 kmh S 7.4 mph11.9 kmh 29.59 in1002.0 mb 0.00 in0.0 mm 0.00 in0.0 mm 0.00 in0.0 mm
11:55 AM 62.6°F17.0°C 50.0°F10.0°C 63% 5.6 mph S9.0 kmh S 10.3 mph16.6 kmh 29.59 in1002.0 mb 0.00 in0.0 mm 0.00 in0.0 mm 0.00 in0.0 mm
11:56 AM 62.8°F17.1°C 50.0°F10.0°C 63% 4.5 mph S7.2 kmh S 10.3 mph16.6 kmh 29.59 in1002.0 mb 0.00 in0.0 mm 0.00 in0.0 mm 0.00 in0.0 mm
11:57 AM 62.8°F17.1°C 50.0°F10.0°C 63% 2.9 mph S4.7 kmh S 10.3 mph16.6 kmh 29.59 in1002.0 mb 0.00 in0.0 mm 0.00 in0.0 mm 0.00 in0.0 mm
11:58 AM 62.8°F17.1°C 50.0°F10.0°C 63% 3.6 mph SSW5.8 kmh SSW 10.3 mph16.6 kmh 29.59 in1002.0 mb 0.00 in0.0 mm 0.00 in0.0 mm 0.00 in0.0 mm
11:59 AM 62.8°F17.1°C 50.0°F10.0°C 63% 2.9 mph S4.7 kmh S 10.3 mph16.6 kmh 29.59 in1002.0 mb 0.00 in0.0 mm 0.00 in0.0 mm 0.00 in0.0 mm
12:00 PM 63.0°F17.2°C 50.0°F10.0°C 63% 2.9 mph S4.7 kmh S 10.3 mph16.6 kmh 29.59 in1002.0 mb 0.00 in0.0 mm 0.00 in0.0 mm 0.00 in0.0 mm
12:01 PM 63.0°F17.2°C 50.0°F10.0°C 63% 3.1 mph S5.0 kmh S 10.3 mph16.6 kmh 29.59 in1002.0 mb 0.00 in0.0 mm 0.00 in0.0 mm 0.00 in0.0 mm
12:02 PM 63.0°F17.2°C 50.0°F10.0°C 63% 2.9 mph S4.7 kmh S 10.3 mph16.6 kmh 29.59 in1002.0 mb 0.00 in0.0 mm 0.00 in0.0 mm 0.00 in0.0 mm
12:03 PM 63.0°F17.2°C 50.0°F10.0°C 63% 3.6 mph S5.8 kmh S 10.3 mph16.6 kmh 29.59 in1002.0 mb 0.00 in0.0 mm 0.00 in0.0 mm 0.00 in0.0 mm
12:04 PM 63.0°F17.2°C 50.0°F10.0°C 63% 2.5 mph S4.0 kmh S 10.3 mph16.6 kmh 29.59 in1002.0 mb 0.00 in0.0 mm 0.00 in0.0 mm 0.00 in0.0 mm
12:05 PM 63.0°F17.2°C 50.0°F10.0°C 63% 3.1 mph SSW5.0 kmh SSW 9.8 mph15.8 kmh 29.59 in1002.0 mb 0.00 in0.0 mm 0.00 in0.0 mm 0.00 in0.0 mm
12:06 PM 63.0°F17.2°C 50.0°F10.0°C 63% 2.7 mph SSW4.3 kmh SSW 9.8 mph15.8 kmh 29.59 in1002.0 mb 0.00 in0.0 mm 0.00 in0.0 mm 0.00 in0.0 mm
12:07 PM 63.0°F17.2°C 50.0°F10.0°C 63% 4.3 mph SSW6.9 kmh SSW 9.8 mph15.8 kmh 29.59 in1002.0 mb 0.00 in0.0 mm 0.00 in0.0 mm 0.00 in0.0 mm
12:08 PM 63.0°F17.2°C 50.0°F10.0°C 63% 5.4 mph SSW8.7 kmh SSW 9.8 mph15.8 kmh 29.59 in1002.0 mb 0.00 in0.0 mm 0.00 in0.0 mm 0.00 in0.0 mm
12:09 PM 63.0°F17.2°C 50.0°F10.0°C 62% 2.2 mph SSW3.5 kmh SSW 9.8 mph15.8 kmh 29.59 in1002.0 mb 0.00 in0.0 mm 0.00 in0.0 mm 0.00 in0.0 mm
12:10 PM 63.0°F17.2°C 50.0°F10.0°C 62% 3.4 mph SSW5.5 kmh SSW 9.8 mph15.8 kmh 29.59 in1002.0 mb 0.00 in0.0 mm 0.00 in0.0 mm 0.00 in0.0 mm
12:11 PM 62.8°F17.1°C 50.0°F10.0°C 62% 5.8 mph SW9.3 kmh SW 9.8 mph15.8 kmh 29.59 in1002.0 mb 0.00 in0.0 mm 0.00 in0.0 mm 0.00 in0.0 mm
12:12 PM 62.8°F17.1°C 50.0°F10.0°C 62% 5.4 mph SW8.7 kmh SW 9.8 mph15.8 kmh 29.59 in1002.0 mb 0.00 in0.0 mm 0.00 in0.0 mm 0.00 in0.0 mm
12:13 PM 62.8°F17.1°C 50.0°F10.0°C 62% 6.0 mph SW9.7 kmh SW 9.8 mph15.8 kmh 29.59 in1002.0 mb 0.00 in0.0 mm 0.00 in0.0 mm 0.00 in0.0 mm
12:14 PM 62.8°F17.1°C 50.0°F10.0°C 63% 6.0 mph SW9.7 kmh SW 9.8 mph15.8 kmh 29.59 in1002.0 mb 0.00 in0.0 mm 0.00 in0.0 mm 0.00 in0.0 mm
12:15 PM 62.8°F17.1°C 50.0°F10.0°C 63% 5.6 mph SW9.0 kmh SW 8.7 mph14.0 kmh 29.59 in1002.0 mb 0.00 in0.0 mm 0.00 in0.0 mm 0.00 in0.0 mm
12:16 PM 63.0°F17.2°C 50.0°F10.0°C 63% 6.9 mph SW11.1 kmh SW 9.8 mph15.8 kmh 29.59 in1002.0 mb 0.00 in0.0 mm 0.00 in0.0 mm 0.00 in0.0 mm
12:17 PM 63.0°F17.2°C 50.0°F10.0°C 63% 3.8 mph SW6.1 kmh SW 9.8 mph15.8 kmh 29.59 in1002.0 mb 0.00 in0.0 mm 0.00 in0.0 mm 0.00 in0.0 mm
12:18 PM 63.1°F17.3°C 50.0°F10.0°C 63% 3.6 mph SW5.8 kmh SW 9.8 mph15.8 kmh 29.59 in1002.0 mb 0.00 in0.0 mm 0.00 in0.0 mm 0.00 in0.0 mm
12:19 PM 63.1°F17.3°C 50.0°F10.0°C 63% 4.3 mph SW6.9 kmh SW 9.8 mph15.8 kmh 29.59 in1002.0 mb 0.00 in0.0 mm 0.00 in0.0 mm 0.00 in0.0 mm
12:20 PM 63.1°F17.3°C 50.0°F10.0°C 63% 4.9 mph SW7.9 kmh SW 9.8 mph15.8 kmh 29.59 in1002.0 mb 0.00 in0.0 mm 0.00 in0.0 mm 0.00 in0.0 mm
12:21 PM 63.1°F17.3°C 50.0°F10.0°C 63% 8.5 mph SW13.7 kmh SW 10.3 mph16.6 kmh 29.59 in1002.0 mb 0.00 in0.0 mm 0.00 in0.0 mm 0.00 in0.0 mm
12:22 PM 63.3°F17.4°C 50.0°F10.0°C 63% 7.2 mph SW11.6 kmh SW 10.3 mph16.6 kmh 29.59 in1002.0 mb 0.00 in0.0 mm 0.00 in0.0 mm 0.00 in0.0 mm
12:23 PM 63.3°F17.4°C 50.0°F10.0°C 63% 6.3 mph SW10.1 kmh SW 10.7 mph17.2 kmh 29.59 in1002.0 mb 0.00 in0.0 mm 0.00 in0.0 mm 0.00 in0.0 mm
12:24 PM 63.3°F17.4°C 50.0°F10.0°C 63% 5.4 mph SW8.7 kmh SW 10.7 mph17.2 kmh 29.59 in1002.0 mb 0.00 in0.0 mm 0.00 in0.0 mm 0.00 in0.0 mm
12:25 PM 63.3°F17.4°C 50.0°F10.0°C 63% 3.8 mph SW6.1 kmh SW 10.7 mph17.2 kmh 29.59 in1002.0 mb 0.00 in0.0 mm 0.00 in0.0 mm 0.00 in0.0 mm
12:26 PM 63.3°F17.4°C 50.0°F10.0°C 63% 3.8 mph SW6.1 kmh SW 10.7 mph17.2 kmh 29.59 in1002.0 mb 0.00 in0.0 mm 0.00 in0.0 mm 0.00 in0.0 mm
12:27 PM 63.3°F17.4°C 51.8°F11.0°C 64% 6.5 mph SW10.5 kmh SW 10.7 mph17.2 kmh 29.59 in1002.0 mb 0.00 in0.0 mm 0.00 in0.0 mm 0.00 in0.0 mm
12:28 PM 63.3°F17.4°C 51.8°F11.0°C 64% 5.4 mph SW8.7 kmh SW 12.8 mph20.6 kmh 29.59 in1002.0 mb 0.00 in0.0 mm 0.00 in0.0 mm 0.00 in0.0 mm
12:29 PM 63.3°F17.4°C 51.8°F11.0°C 64% 5.6 mph SW9.0 kmh SW 12.8 mph20.6 kmh 29.59 in1002.0 mb 0.00 in0.0 mm 0.00 in0.0 mm 0.00 in0.0 mm
12:30 PM 63.1°F17.3°C 51.8°F11.0°C 64% 4.5 mph SW7.2 kmh SW 12.8 mph20.6 kmh 29.59 in1002.0 mb 0.00 in0.0 mm 0.00 in0.0 mm 0.00 in0.0 mm
12:31 PM 63.1°F17.3°C 51.8°F11.0°C 65% 6.9 mph SW11.1 kmh SW 15.4 mph24.8 kmh 29.59 in1002.0 mb 0.00 in0.0 mm 0.00 in0.0 mm 0.00 in0.0 mm
12:32 PM 63.1°F17.3°C 51.8°F11.0°C 65% 4.7 mph SW7.6 kmh SW 15.4 mph24.8 kmh 29.59 in1002.0 mb 0.00 in0.0 mm 0.00 in0.0 mm 0.00 in0.0 mm
12:33 PM 63.0°F17.2°C 51.8°F11.0°C 65% 3.8 mph SW6.1 kmh SW 15.4 mph24.8 kmh 29.59 in1002.0 mb 0.00 in0.0 mm 0.00 in0.0 mm 0.00 in0.0 mm
12:34 PM 62.8°F17.1°C 51.8°F11.0°C 66% 6.3 mph SW10.1 kmh SW 15.4 mph24.8 kmh 29.59 in1002.0 mb 0.00 in0.0 mm 0.00 in0.0 mm 0.00 in0.0 mm
12:35 PM 62.8°F17.1°C 51.8°F11.0°C 66% 7.4 mph SW11.9 kmh SW 15.4 mph24.8 kmh 29.59 in1002.0 mb 0.00 in0.0 mm 0.00 in0.0 mm 0.00 in0.0 mm
12:36 PM 62.8°F17.1°C 51.8°F11.0°C 66% 6.0 mph SW9.7 kmh SW 15.4 mph24.8 kmh 29.59 in1002.0 mb 0.00 in0.0 mm 0.00 in0.0 mm 0.00 in0.0 mm
12:37 PM 62.6°F17.0°C 51.8°F11.0°C 67% 6.5 mph SW10.5 kmh SW 15.4 mph24.8 kmh 29.59 in1002.0 mb 0.00 in0.0 mm 0.00 in0.0 mm 0.00 in0.0 mm
12:38 PM 62.6°F17.0°C 51.8°F11.0°C 67% 4.3 mph SW6.9 kmh SW 15.4 mph24.8 kmh 29.59 in1002.0 mb 0.00 in0.0 mm 0.00 in0.0 mm 0.00 in0.0 mm
12:39 PM 62.6°F17.0°C 51.8°F11.0°C 67% 5.8 mph SW9.3 kmh SW 15.4 mph24.8 kmh 29.59 in1002.0 mb 0.00 in0.0 mm 0.00 in0.0 mm 0.00 in0.0 mm
12:40 PM 62.4°F16.9°C 51.8°F11.0°C 68% 4.7 mph SW7.6 kmh SW 15.4 mph24.8 kmh 29.59 in1002.0 mb 0.00 in0.0 mm 0.00 in0.0 mm 0.00 in0.0 mm
12:41 PM 62.4°F16.9°C 51.8°F11.0°C 68% 5.8 mph SW9.3 kmh SW 10.1 mph16.3 kmh 29.59 in1002.0 mb 0.00 in0.0 mm 0.00 in0.0 mm 0.00 in0.0 mm
12:42 PM 62.6°F17.0°C 51.8°F11.0°C 67% 4.7 mph SW7.6 kmh SW 10.1 mph16.3 kmh 29.59 in1002.0 mb 0.00 in0.0 mm 0.00 in0.0 mm 0.00 in0.0 mm
12:43 PM 62.6°F17.0°C 51.8°F11.0°C 67% 4.7 mph SW7.6 kmh SW 10.1 mph16.3 kmh 29.59 in1002.0 mb 0.00 in0.0 mm 0.00 in0.0 mm 0.00 in0.0 mm
12:44 PM 62.6°F17.0°C 51.8°F11.0°C 67% 4.3 mph SW6.9 kmh SW 10.1 mph16.3 kmh 29.59 in1002.0 mb 0.00 in0.0 mm 0.00 in0.0 mm 0.00 in0.0 mm
12:45 PM 62.6°F17.0°C 51.8°F11.0°C 67% 4.7 mph SW7.6 kmh SW 10.1 mph16.3 kmh 29.59 in1002.0 mb 0.00 in0.0 mm 0.00 in0.0 mm 0.00 in0.0 mm
12:46 PM 62.8°F17.1°C 51.8°F11.0°C 67% 3.4 mph SSW5.5 kmh SSW 10.1 mph16.3 kmh 29.59 in1002.0 mb 0.00 in0.0 mm 0.00 in0.0 mm 0.00 in0.0 mm
12:47 PM 63.0°F17.2°C 51.8°F11.0°C 66% 4.0 mph SSW6.4 kmh SSW 9.4 mph15.1 kmh 29.56 in1001.0 mb 0.00 in0.0 mm 0.00 in0.0 mm 0.00 in0.0 mm
12:48 PM 63.0°F17.2°C 51.8°F11.0°C 66% 5.8 mph SSW9.3 kmh SSW 10.3 mph16.6 kmh 29.56 in1001.0 mb 0.00 in0.0 mm 0.00 in0.0 mm 0.00 in0.0 mm
12:49 PM 63.0°F17.2°C 51.8°F11.0°C 65% 6.0 mph SSW9.7 kmh SSW 10.3 mph16.6 kmh 29.56 in1001.0 mb 0.00 in0.0 mm 0.00 in0.0 mm 0.00 in0.0 mm
12:50 PM 63.1°F17.3°C 51.8°F11.0°C 66% 4.9 mph SSW7.9 kmh SSW 10.3 mph16.6 kmh 29.56 in1001.0 mb 0.00 in0.0 mm 0.00 in0.0 mm 0.00 in0.0 mm
12:51 PM 63.1°F17.3°C 51.8°F11.0°C 65% 6.5 mph SW10.5 kmh SW 10.7 mph17.2 kmh 29.56 in1001.0 mb 0.00 in0.0 mm 0.00 in0.0 mm 0.00 in0.0 mm
12:52 PM 63.1°F17.3°C 51.8°F11.0°C 65% 6.7 mph SW10.8 kmh SW 10.7 mph17.2 kmh 29.56 in1001.0 mb 0.00 in0.0 mm 0.00 in0.0 mm 0.00 in0.0 mm
12:53 PM 63.1°F17.3°C 51.8°F11.0°C 65% 6.7 mph SW10.8 kmh SW 12.8 mph20.6 kmh 29.56 in1001.0 mb 0.00 in0.0 mm 0.00 in0.0 mm 0.00 in0.0 mm
12:54 PM 63.1°F17.3°C 51.8°F11.0°C 65% 6.7 mph SW10.8 kmh SW 12.8 mph20.6 kmh 29.56 in1001.0 mb 0.00 in0.0 mm 0.00 in0.0 mm 0.00 in0.0 mm
12:55 PM 63.1°F17.3°C 51.8°F11.0°C 65% 6.5 mph SW10.5 kmh SW 12.8 mph20.6 kmh 29.56 in1001.0 mb 0.00 in0.0 mm 0.00 in0.0 mm 0.00 in0.0 mm
12:56 PM 63.1°F17.3°C 51.8°F11.0°C 64% 7.6 mph SW12.2 kmh SW 12.8 mph20.6 kmh 29.56 in1001.0 mb 0.00 in0.0 mm 0.00 in0.0 mm 0.00 in0.0 mm
12:57 PM 63.1°F17.3°C 51.8°F11.0°C 64% 5.6 mph SW9.0 kmh SW 12.8 mph20.6 kmh 29.56 in1001.0 mb 0.00 in0.0 mm 0.00 in0.0 mm 0.00 in0.0 mm
12:58 PM 63.1°F17.3°C 51.8°F11.0°C 65% 6.9 mph SW11.1 kmh SW 12.8 mph20.6 kmh 29.56 in1001.0 mb 0.00 in0.0 mm 0.00 in0.0 mm 0.00 in0.0 mm
12:59 PM 63.1°F17.3°C 51.8°F11.0°C 65% 4.5 mph SW7.2 kmh SW 12.8 mph20.6 kmh 29.56 in1001.0 mb 0.00 in0.0 mm 0.00 in0.0 mm 0.00 in0.0 mm
01:00 PM 63.3°F17.4°C 51.8°F11.0°C 65% 6.7 mph SW10.8 kmh SW 12.8 mph20.6 kmh 29.56 in1001.0 mb 0.00 in0.0 mm 0.00 in0.0 mm 0.00 in0.0 mm
01:01 PM 63.3°F17.4°C 51.8°F11.0°C 65% 6.0 mph SW9.7 kmh SW 12.8 mph20.6 kmh 29.56 in1001.0 mb 0.00 in0.0 mm 0.00 in0.0 mm 0.00 in0.0 mm
01:02 PM 63.1°F17.3°C 51.8°F11.0°C 65% 7.2 mph SSW11.6 kmh SSW 12.8 mph20.6 kmh 29.56 in1001.0 mb 0.00 in0.0 mm 0.00 in0.0 mm 0.00 in0.0 mm
01:03 PM 63.1°F17.3°C 51.8°F11.0°C 66% 7.8 mph SSW12.6 kmh SSW 11.9 mph19.2 kmh 29.56 in1001.0 mb 0.00 in0.0 mm 0.00 in0.0 mm 0.00 in0.0 mm
01:04 PM 63.0°F17.2°C 51.8°F11.0°C 67% 7.2 mph SW11.6 kmh SW 11.9 mph19.2 kmh 29.56 in1001.0 mb 0.00 in0.0 mm 0.00 in0.0 mm 0.00 in0.0 mm
01:05 PM 63.0°F17.2°C 51.8°F11.0°C 67% 7.8 mph SW12.6 kmh SW 11.9 mph19.2 kmh 29.56 in1001.0 mb 0.00 in0.0 mm 0.00 in0.0 mm 0.00 in0.0 mm
01:06 PM 62.8°F17.1°C 51.8°F11.0°C 67% 8.1 mph SW13.0 kmh SW 12.3 mph19.8 kmh 29.56 in1001.0 mb 0.00 in0.0 mm 0.00 in0.0 mm 0.00 in0.0 mm
01:07 PM 62.6°F17.0°C 51.8°F11.0°C 68% 5.8 mph SW9.3 kmh SW 12.3 mph19.8 kmh 29.56 in1001.0 mb 0.00 in0.0 mm 0.00 in0.0 mm 0.00 in0.0 mm
01:08 PM 62.6°F17.0°C 51.8°F11.0°C 68% 8.7 mph SSW14.0 kmh SSW 12.3 mph19.8 kmh 29.56 in1001.0 mb 0.00 in0.0 mm 0.00 in0.0 mm 0.00 in0.0 mm
01:09 PM 62.6°F17.0°C 51.8°F11.0°C 68% 4.5 mph SSW7.2 kmh SSW 12.3 mph19.8 kmh 29.56 in1001.0 mb 0.00 in0.0 mm 0.00 in0.0 mm 0.00 in0.0 mm
01:10 PM 62.4°F16.9°C 53.6°F12.0°C 70% 6.7 mph SSW10.8 kmh SSW 12.3 mph19.8 kmh 29.56 in1001.0 mb 0.00 in0.0 mm 0.00 in0.0 mm 0.00 in0.0 mm
01:11 PM 62.4°F16.9°C 53.6°F12.0°C 70% 6.7 mph SSW10.8 kmh SSW 12.3 mph19.8 kmh 29.56 in1001.0 mb 0.00 in0.0 mm 0.00 in0.0 mm 0.00 in0.0 mm
01:12 PM 62.4°F16.9°C 53.6°F12.0°C 70% 4.7 mph SSW7.6 kmh SSW 12.3 mph19.8 kmh 29.56 in1001.0 mb 0.00 in0.0 mm 0.00 in0.0 mm 0.00 in0.0 mm
01:13 PM 62.2°F16.8°C 53.6°F12.0°C 71% 4.5 mph SSW7.2 kmh SSW 12.3 mph19.8 kmh 29.56 in1001.0 mb 0.00 in0.0 mm 0.00 in0.0 mm 0.00 in0.0 mm
01:14 PM 62.2°F16.8°C 53.6°F12.0°C 72% 4.5 mph SSW7.2 kmh SSW 12.3 mph19.8 kmh 29.56 in1001.0 mb 0.00 in0.0 mm 0.00 in0.0 mm 0.00 in0.0 mm
01:15 PM 62.2°F16.8°C 53.6°F12.0°C 72% 3.8 mph SSW6.1 kmh SSW 12.3 mph19.8 kmh 29.56 in1001.0 mb 0.00 in0.0 mm 0.00 in0.0 mm 0.00 in0.0 mm
01:16 PM 62.2°F16.8°C 53.6°F12.0°C 72% 7.2 mph SSW11.6 kmh SSW 12.3 mph19.8 kmh 29.56 in1001.0 mb 0.00 in0.0 mm 0.00 in0.0 mm 0.00 in0.0 mm
01:17 PM 62.2°F16.8°C 53.6°F12.0°C 72% 6.5 mph SSW10.5 kmh SSW 12.8 mph20.6 kmh 29.56 in1001.0 mb 0.00 in0.0 mm 0.00 in0.0 mm 0.00 in0.0 mm
01:18 PM 62.2°F16.8°C 53.6°F12.0°C 71% 6.3 mph SSW10.1 kmh SSW 12.8 mph20.6 kmh 29.56 in1001.0 mb 0.00 in0.0 mm 0.00 in0.0 mm 0.00 in0.0 mm
01:19 PM 62.2°F16.8°C 53.6°F12.0°C 71% 5.4 mph SSW8.7 kmh SSW 12.8 mph20.6 kmh 29.56 in1001.0 mb 0.00 in0.0 mm 0.00 in0.0 mm 0.00 in0.0 mm
01:20 PM 62.2°F16.8°C 53.6°F12.0°C 71% 8.7 mph SW14.0 kmh SW 13.6 mph21.9 kmh 29.56 in1001.0 mb 0.00 in0.0 mm 0.00 in0.0 mm 0.00 in0.0 mm
01:21 PM 62.2°F16.8°C 53.6°F12.0°C 71% 7.2 mph SW11.6 kmh SW 13.6 mph21.9 kmh 29.56 in1001.0 mb 0.00 in0.0 mm 0.00 in0.0 mm 0.00 in0.0 mm
01:22 PM 62.2°F16.8°C 53.6°F12.0°C 71% 7.8 mph SW12.6 kmh SW 13.6 mph21.9 kmh 29.56 in1001.0 mb 0.00 in0.0 mm 0.00 in0.0 mm 0.00 in0.0 mm
01:23 PM 62.2°F16.8°C 51.8°F11.0°C 70% 7.2 mph SW11.6 kmh SW 13.6 mph21.9 kmh 29.56 in1001.0 mb 0.00 in0.0 mm 0.00 in0.0 mm 0.00 in0.0 mm
01:24 PM 62.2°F16.8°C 53.6°F12.0°C 71% 4.9 mph SW7.9 kmh SW 13.6 mph21.9 kmh 29.56 in1001.0 mb 0.00 in0.0 mm 0.00 in0.0 mm 0.00 in0.0 mm
01:25 PM 62.2°F16.8°C 53.6°F12.0°C 71% 5.4 mph SW8.7 kmh SW 13.6 mph21.9 kmh 29.56 in1001.0 mb 0.00 in0.0 mm 0.00 in0.0 mm 0.00 in0.0 mm
01:26 PM 62.2°F16.8°C 53.6°F12.0°C 71% 5.6 mph SW9.0 kmh SW 13.6 mph21.9 kmh 29.56 in1001.0 mb 0.00 in0.0 mm 0.00 in0.0 mm 0.00 in0.0 mm
01:27 PM 62.2°F16.8°C 53.6°F12.0°C 71% 7.2 mph SW11.6 kmh SW 13.6 mph21.9 kmh 29.56 in1001.0 mb 0.00 in0.0 mm 0.00 in0.0 mm 0.00 in0.0 mm
01:28 PM 62.2°F16.8°C 53.6°F12.0°C 71% 4.5 mph SW7.2 kmh SW 13.6 mph21.9 kmh 29.56 in1001.0 mb 0.00 in0.0 mm 0.00 in0.0 mm 0.00 in0.0 mm
01:29 PM 62.2°F16.8°C 53.6°F12.0°C 72% 4.5 mph SW7.2 kmh SW 13.6 mph21.9 kmh 29.56 in1001.0 mb 0.00 in0.0 mm 0.00 in0.0 mm 0.00 in0.0 mm
01:30 PM 62.2°F16.8°C 53.6°F12.0°C 72% 4.0 mph SW6.4 kmh SW 13.2 mph21.2 kmh 29.56 in1001.0 mb 0.00 in0.0 mm 0.00 in0.0 mm 0.00 in0.0 mm
01:31 PM 62.2°F16.8°C 53.6°F12.0°C 72% 3.4 mph SW5.5 kmh SW 13.2 mph21.2 kmh 29.56 in1001.0 mb 0.00 in0.0 mm 0.00 in0.0 mm 0.00 in0.0 mm
01:32 PM 62.2°F16.8°C 53.6°F12.0°C 73% 3.6 mph SW5.8 kmh SW 13.2 mph21.2 kmh 29.53 in1000.0 mb 0.00 in0.0 mm 0.00 in0.0 mm 0.00 in0.0 mm
01:33 PM 62.2°F16.8°C 53.6°F12.0°C 72% 5.4 mph SSW8.7 kmh SSW 11.9 mph19.2 kmh 29.53 in1000.0 mb 0.00 in0.0 mm 0.00 in0.0 mm 0.00 in0.0 mm
01:34 PM 62.2°F16.8°C 53.6°F12.0°C 71% 4.3 mph SSW6.9 kmh SSW 11.9 mph19.2 kmh 29.53 in1000.0 mb 0.00 in0.0 mm 0.00 in0.0 mm 0.00 in0.0 mm
01:35 PM 62.2°F16.8°C 53.6°F12.0°C 72% 4.3 mph SSW6.9 kmh SSW 11.9 mph19.2 kmh 29.53 in1000.0 mb 0.00 in0.0 mm 0.00 in0.0 mm 0.00 in0.0 mm
01:36 PM 62.2°F16.8°C 53.6°F12.0°C 71% 6.0 mph SSW9.7 kmh SSW 11.9 mph19.2 kmh 29.53 in1000.0 mb 0.00 in0.0 mm 0.00 in0.0 mm 0.00 in0.0 mm
01:37 PM 62.2°F16.8°C 53.6°F12.0°C 71% 6.0 mph SSW9.7 kmh SSW 10.3 mph16.6 kmh 29.53 in1000.0 mb 0.00 in0.0 mm 0.00 in0.0 mm 0.00 in0.0 mm
01:38 PM 62.2°F16.8°C 53.6°F12.0°C 71% 4.9 mph SSW7.9 kmh SSW 10.5 mph16.9 kmh 29.53 in1000.0 mb 0.00 in0.0 mm 0.00 in0.0 mm 0.00 in0.0 mm
01:39 PM 62.2°F16.8°C 53.6°F12.0°C 71% 6.0 mph SSW9.7 kmh SSW 10.5 mph16.9 kmh 29.53 in1000.0 mb 0.00 in0.0 mm 0.00 in0.0 mm 0.00 in0.0 mm
01:40 PM 62.2°F16.8°C 53.6°F12.0°C 71% 4.5 mph SSW7.2 kmh SSW 12.8 mph20.6 kmh 29.53 in1000.0 mb 0.00 in0.0 mm 0.00 in0.0 mm 0.00 in0.0 mm
01:41 PM 62.2°F16.8°C 53.6°F12.0°C 71% 7.8 mph SSW12.6 kmh SSW 12.8 mph20.6 kmh 29.53 in1000.0 mb 0.00 in0.0 mm 0.00 in0.0 mm 0.00 in0.0 mm
01:42 PM 62.2°F16.8°C 53.6°F12.0°C 71% 3.1 mph SSW5.0 kmh SSW 12.8 mph20.6 kmh 29.53 in1000.0 mb 0.00 in0.0 mm 0.00 in0.0 mm 0.00 in0.0 mm
01:43 PM 62.2°F16.8°C 53.6°F12.0°C 71% 5.8 mph SSW9.3 kmh SSW 12.8 mph20.6 kmh 29.53 in1000.0 mb 0.00 in0.0 mm 0.00 in0.0 mm 0.00 in0.0 mm
01:44 PM 62.4°F16.9°C 53.6°F12.0°C 71% 4.7 mph SSW7.6 kmh SSW 12.8 mph20.6 kmh 29.53 in1000.0 mb 0.00 in0.0 mm 0.00 in0.0 mm 0.00 in0.0 mm
01:45 PM 62.6°F17.0°C 53.6°F12.0°C 70% 4.0 mph SSW6.4 kmh SSW 12.8 mph20.6 kmh 29.53 in1000.0 mb 0.00 in0.0 mm 0.00 in0.0 mm 0.00 in0.0 mm
01:46 PM 62.6°F17.0°C 53.6°F12.0°C 70% 5.6 mph SSW9.0 kmh SSW 12.8 mph20.6 kmh 29.53 in1000.0 mb 0.00 in0.0 mm 0.00 in0.0 mm 0.00 in0.0 mm
01:47 PM 62.6°F17.0°C 53.6°F12.0°C 70% 6.5 mph SSW10.5 kmh SSW 12.8 mph20.6 kmh 29.53 in1000.0 mb 0.00 in0.0 mm 0.00 in0.0 mm 0.00 in0.0 mm
01:48 PM 62.6°F17.0°C 51.8°F11.0°C 69% 6.9 mph SSW11.1 kmh SSW 12.8 mph20.6 kmh 29.53 in1000.0 mb 0.00 in0.0 mm 0.00 in0.0 mm 0.00 in0.0 mm
01:49 PM 62.6°F17.0°C 53.6°F12.0°C 70% 6.9 mph SSW11.1 kmh SSW 12.8 mph20.6 kmh 29.53 in1000.0 mb 0.00 in0.0 mm 0.00 in0.0 mm 0.00 in0.0 mm
01:50 PM 62.6°F17.0°C 53.6°F12.0°C 70% 4.3 mph SSW6.9 kmh SSW 12.8 mph20.6 kmh 29.53 in1000.0 mb 0.00 in0.0 mm 0.00 in0.0 mm 0.00 in0.0 mm
01:51 PM 62.6°F17.0°C 53.6°F12.0°C 70% 6.3 mph SSW10.1 kmh SSW 11.0 mph17.7 kmh 29.53 in1000.0 mb 0.00 in0.0 mm 0.00 in0.0 mm 0.00 in0.0 mm
01:52 PM 62.6°F17.0°C 53.6°F12.0°C 70% 4.7 mph SSW7.6 kmh SSW 11.0 mph17.7 kmh 29.53 in1000.0 mb 0.00 in0.0 mm 0.00 in0.0 mm 0.00 in0.0 mm
01:53 PM 62.6°F17.0°C 53.6°F12.0°C 70% 5.8 mph SSW9.3 kmh SSW 11.0 mph17.7 kmh 29.53 in1000.0 mb 0.00 in0.0 mm 0.00 in0.0 mm 0.00 in0.0 mm
01:54 PM 62.6°F17.0°C 53.6°F12.0°C 70% 5.4 mph SSW8.7 kmh SSW 11.0 mph17.7 kmh 29.53 in1000.0 mb 0.00 in0.0 mm 0.00 in0.0 mm 0.00 in0.0 mm
01:55 PM 62.6°F17.0°C 53.6°F12.0°C 70% 6.0 mph SSW9.7 kmh SSW 14.3 mph23.0 kmh 29.53 in1000.0 mb 0.00 in0.0 mm 0.00 in0.0 mm 0.00 in0.0 mm
01:56 PM 62.6°F17.0°C 53.6°F12.0°C 70% 5.8 mph SSW9.3 kmh SSW 14.3 mph23.0 kmh 29.53 in1000.0 mb 0.00 in0.0 mm 0.00 in0.0 mm 0.00 in0.0 mm
01:57 PM 62.6°F17.0°C 53.6°F12.0°C 70% 4.0 mph SSW6.4 kmh SSW 14.3 mph23.0 kmh 29.53 in1000.0 mb 0.00 in0.0 mm 0.00 in0.0 mm 0.00 in0.0 mm
01:58 PM 62.6°F17.0°C 53.6°F12.0°C 70% 3.6 mph SSW5.8 kmh SSW 14.3 mph23.0 kmh 29.53 in1000.0 mb 0.00 in0.0 mm 0.00 in0.0 mm 0.00 in0.0 mm
01:59 PM 62.6°F17.0°C 53.6°F12.0°C 70% 8.7 mph SSW14.0 kmh SSW 14.3 mph23.0 kmh 29.53 in1000.0 mb 0.00 in0.0 mm 0.00 in0.0 mm 0.00 in0.0 mm
02:00 PM 62.6°F17.0°C 53.6°F12.0°C 70% 8.7 mph SSW14.0 kmh SSW 14.3 mph23.0 kmh 29.53 in1000.0 mb 0.00 in0.0 mm 0.00 in0.0 mm 0.00 in0.0 mm
02:01 PM 62.6°F17.0°C 53.6°F12.0°C 70% 4.3 mph SSW6.9 kmh SSW 14.3 mph23.0 kmh 29.53 in1000.0 mb 0.00 in0.0 mm 0.00 in0.0 mm 0.00 in0.0 mm
02:02 PM 62.6°F17.0°C 53.6°F12.0°C 70% 5.8 mph SSW9.3 kmh SSW 14.3 mph23.0 kmh 29.53 in1000.0 mb 0.00 in0.0 mm 0.00 in0.0 mm 0.00 in0.0 mm
02:03 PM 62.6°F17.0°C 53.6°F12.0°C 70% 3.8 mph SSW6.1 kmh SSW 14.3 mph23.0 kmh 29.53 in1000.0 mb 0.00 in0.0 mm 0.00 in0.0 mm 0.00 in0.0 mm
02:04 PM 62.6°F17.0°C 53.6°F12.0°C 71% 4.7 mph SSW7.6 kmh SSW 14.3 mph23.0 kmh 29.53 in1000.0 mb 0.00 in0.0 mm 0.00 in0.0 mm 0.00 in0.0 mm
02:05 PM 62.4°F16.9°C 53.6°F12.0°C 71% 6.7 mph S10.8 kmh S 10.3 mph16.6 kmh 29.53 in1000.0 mb 0.00 in0.0 mm 0.00 in0.0 mm 0.00 in0.0 mm
02:06 PM 62.4°F16.9°C 53.6°F12.0°C 71% 3.8 mph S6.1 kmh S 10.3 mph16.6 kmh 29.53 in1000.0 mb 0.00 in0.0 mm 0.00 in0.0 mm 0.00 in0.0 mm
02:07 PM 62.4°F16.9°C 53.6°F12.0°C 71% 3.8 mph S6.1 kmh S 10.3 mph16.6 kmh 29.53 in1000.0 mb 0.00 in0.0 mm 0.00 in0.0 mm 0.00 in0.0 mm
02:08 PM 62.4°F16.9°C 53.6°F12.0°C 72% 3.6 mph S5.8 kmh S 10.3 mph16.6 kmh 29.53 in1000.0 mb 0.00 in0.0 mm 0.00 in0.0 mm 0.00 in0.0 mm
02:09 PM 62.4°F16.9°C 53.6°F12.0°C 72% 3.6 mph S5.8 kmh S 10.3 mph16.6 kmh 29.53 in1000.0 mb 0.00 in0.0 mm 0.00 in0.0 mm 0.00 in0.0 mm
02:10 PM 62.4°F16.9°C 53.6°F12.0°C 72% 4.9 mph S7.9 kmh S 10.3 mph16.6 kmh 29.53 in1000.0 mb 0.00 in0.0 mm 0.00 in0.0 mm 0.00 in0.0 mm
02:11 PM 62.2°F16.8°C 53.6°F12.0°C 72% 3.6 mph S5.8 kmh S 10.3 mph16.6 kmh 29.53 in1000.0 mb 0.00 in0.0 mm 0.00 in0.0 mm 0.00 in0.0 mm
02:12 PM 62.2°F16.8°C 53.6°F12.0°C 72% 3.6 mph S5.8 kmh S 8.7 mph14.0 kmh 29.53 in1000.0 mb 0.00 in0.0 mm 0.00 in0.0 mm 0.00 in0.0 mm
02:13 PM 62.2°F16.8°C 53.6°F12.0°C 72% 4.3 mph S6.9 kmh S 8.7 mph14.0 kmh 29.53 in1000.0 mb 0.00 in0.0 mm 0.00 in0.0 mm 0.00 in0.0 mm
02:14 PM 62.2°F16.8°C 53.6°F12.0°C 73% 3.8 mph S6.1 kmh S 8.1 mph13.0 kmh 29.53 in1000.0 mb 0.00 in0.0 mm 0.00 in0.0 mm 0.00 in0.0 mm
02:15 PM 62.2°F16.8°C 53.6°F12.0°C 72% 4.7 mph SSW7.6 kmh SSW 6.5 mph10.5 kmh 29.53 in1000.0 mb 0.00 in0.0 mm 0.00 in0.0 mm 0.00 in0.0 mm
02:16 PM 62.2°F16.8°C 53.6°F12.0°C 72% 4.5 mph SSW7.2 kmh SSW 7.4 mph11.9 kmh 29.53 in1000.0 mb 0.00 in0.0 mm 0.00 in0.0 mm 0.00 in0.0 mm
02:17 PM 62.1°F16.7°C 53.6°F12.0°C 72% 6.5 mph SSW10.5 kmh SSW 8.7 mph14.0 kmh 29.53 in1000.0 mb 0.00 in0.0 mm 0.00 in0.0 mm 0.00 in0.0 mm
02:18 PM 62.1°F16.7°C 53.6°F12.0°C 72% 5.8 mph SSW9.3 kmh SSW 8.7 mph14.0 kmh 29.53 in1000.0 mb 0.00 in0.0 mm 0.00 in0.0 mm 0.00 in0.0 mm
02:19 PM 61.9°F16.6°C 53.6°F12.0°C 73% 4.3 mph SSW6.9 kmh SSW 8.7 mph14.0 kmh 29.53 in1000.0 mb 0.00 in0.0 mm 0.00 in0.0 mm 0.00 in0.0 mm
02:20 PM 61.9°F16.6°C 53.6°F12.0°C 73% 4.3 mph SSW6.9 kmh SSW 8.7 mph14.0 kmh 29.53 in1000.0 mb 0.00 in0.0 mm 0.00 in0.0 mm 0.00 in0.0 mm
02:21 PM 61.9°F16.6°C 53.6°F12.0°C 73% 4.9 mph SSW7.9 kmh SSW 8.7 mph14.0 kmh 29.53 in1000.0 mb 0.00 in0.0 mm 0.00 in0.0 mm 0.00 in0.0 mm
02:22 PM 61.9°F16.6°C 53.6°F12.0°C 73% 3.6 mph S5.8 kmh S 8.7 mph14.0 kmh 29.53 in1000.0 mb 0.00 in0.0 mm 0.00 in0.0 mm 0.00 in0.0 mm
02:23 PM 61.9°F16.6°C 53.6°F12.0°C 73% 4.9 mph SSW7.9 kmh SSW 8.7 mph14.0 kmh 29.53 in1000.0 mb 0.00 in0.0 mm 0.00 in0.0 mm 0.00 in0.0 mm
02:24 PM 61.9°F16.6°C 53.6°F12.0°C 73% 4.7 mph SSW7.6 kmh SSW 8.7 mph14.0 kmh 29.53 in1000.0 mb 0.00 in0.0 mm 0.00 in0.0 mm 0.00 in0.0 mm
02:25 PM 61.9°F16.6°C 53.6°F12.0°C 73% 4.5 mph SSW7.2 kmh SSW 8.7 mph14.0 kmh 29.53 in1000.0 mb 0.00 in0.0 mm 0.00 in0.0 mm 0.00 in0.0 mm
02:26 PM 61.9°F16.6°C 53.6°F12.0°C 74% 4.7 mph SSW7.6 kmh SSW 8.7 mph14.0 kmh 29.53 in1000.0 mb 0.00 in0.0 mm 0.00 in0.0 mm 0.00 in0.0 mm
02:27 PM 61.9°F16.6°C 53.6°F12.0°C 74% 4.7 mph SSW7.6 kmh SSW 8.5 mph13.7 kmh 29.53 in1000.0 mb 0.00 in0.0 mm 0.00 in0.0 mm 0.00 in0.0 mm
02:28 PM 61.9°F16.6°C 53.6°F12.0°C 74% 3.8 mph S6.1 kmh S 8.5 mph13.7 kmh 29.53 in1000.0 mb 0.00 in0.0 mm 0.00 in0.0 mm 0.00 in0.0 mm
02:29 PM 61.9°F16.6°C 53.6°F12.0°C 74% 4.0 mph S6.4 kmh S 8.5 mph13.7 kmh 29.53 in1000.0 mb 0.00 in0.0 mm 0.00 in0.0 mm 0.00 in0.0 mm
02:30 PM 61.9°F16.6°C 53.6°F12.0°C 74% 4.0 mph S6.4 kmh S 8.5 mph13.7 kmh 29.53 in1000.0 mb 0.00 in0.0 mm 0.00 in0.0 mm 0.00 in0.0 mm
02:31 PM 61.9°F16.6°C 53.6°F12.0°C 74% 4.3 mph S6.9 kmh S 7.6 mph12.2 kmh 29.53 in1000.0 mb 0.00 in0.0 mm 0.00 in0.0 mm 0.00 in0.0 mm
02:32 PM 61.9°F16.6°C 55.4°F13.0°C 75% 4.0 mph S6.4 kmh S 7.8 mph12.6 kmh 29.47 in998.0 mb 0.00 in0.0 mm 0.00 in0.0 mm 0.00 in0.0 mm
02:33 PM 61.7°F16.5°C 55.4°F13.0°C 75% 4.0 mph S6.4 kmh S 7.8 mph12.6 kmh 29.47 in998.0 mb 0.00 in0.0 mm 0.00 in0.0 mm 0.00 in0.0 mm
02:34 PM 61.7°F16.5°C 55.4°F13.0°C 75% 6.3 mph S10.1 kmh S 7.8 mph12.6 kmh 29.47 in998.0 mb 0.00 in0.0 mm 0.00 in0.0 mm 0.00 in0.0 mm
02:35 PM 61.7°F16.5°C 55.4°F13.0°C 75% 5.4 mph S8.7 kmh S 8.7 mph14.0 kmh 29.47 in998.0 mb 0.00 in0.0 mm 0.00 in0.0 mm 0.00 in0.0 mm
02:36 PM 61.7°F16.5°C 55.4°F13.0°C 75% 4.3 mph S6.9 kmh S 8.7 mph14.0 kmh 29.47 in998.0 mb 0.00 in0.0 mm 0.00 in0.0 mm 0.00 in0.0 mm
02:37 PM 61.5°F16.4°C 53.6°F12.0°C 75% 5.8 mph S9.3 kmh S 8.7 mph14.0 kmh 29.47 in998.0 mb 0.00 in0.0 mm 0.00 in0.0 mm 0.00 in0.0 mm
02:38 PM 61.5°F16.4°C 53.6°F12.0°C 75% 4.5 mph S7.2 kmh S 8.7 mph14.0 kmh 29.47 in998.0 mb 0.00 in0.0 mm 0.00 in0.0 mm 0.00 in0.0 mm
02:39 PM 61.5°F16.4°C 53.6°F12.0°C 75% 4.5 mph S7.2 kmh S 10.5 mph16.9 kmh 29.47 in998.0 mb 0.00 in0.0 mm 0.00 in0.0 mm 0.00 in0.0 mm
02:40 PM 61.5°F16.4°C 53.6°F12.0°C 75% 5.6 mph S9.0 kmh S 10.5 mph16.9 kmh 29.47 in998.0 mb 0.00 in0.0 mm 0.00 in0.0 mm 0.00 in0.0 mm
02:41 PM 61.3°F16.3°C 53.6°F12.0°C 75% 4.9 mph S7.9 kmh S 10.5 mph16.9 kmh 29.47 in998.0 mb 0.00 in0.0 mm 0.00 in0.0 mm 0.00 in0.0 mm
02:42 PM 61.3°F16.3°C 53.6°F12.0°C 75% 4.7 mph S7.6 kmh S 10.5 mph16.9 kmh 29.47 in998.0 mb 0.00 in0.0 mm 0.00 in0.0 mm 0.00 in0.0 mm
02:43 PM 61.3°F16.3°C 53.6°F12.0°C 75% 4.5 mph S7.2 kmh S 10.5 mph16.9 kmh 29.47 in998.0 mb 0.00 in0.0 mm 0.00 in0.0 mm 0.00 in0.0 mm
02:44 PM 61.2°F16.2°C 53.6°F12.0°C 75% 4.3 mph S6.9 kmh S 10.5 mph16.9 kmh 29.47 in998.0 mb 0.00 in0.0 mm 0.00 in0.0 mm 0.00 in0.0 mm
02:45 PM 61.2°F16.2°C 53.6°F12.0°C 75% 4.3 mph S6.9 kmh S 10.5 mph16.9 kmh 29.47 in998.0 mb 0.00 in0.0 mm 0.00 in0.0 mm 0.00 in0.0 mm
02:46 PM 61.2°F16.2°C 53.6°F12.0°C 75% 4.3 mph S6.9 kmh S 10.5 mph16.9 kmh 29.47 in998.0 mb 0.00 in0.0 mm 0.00 in0.0 mm 0.00 in0.0 mm
02:47 PM 61.2°F16.2°C 53.6°F12.0°C 76% 7.2 mph S11.6 kmh S 10.5 mph16.9 kmh 29.47 in998.0 mb 0.00 in0.0 mm 0.00 in0.0 mm 0.00 in0.0 mm
02:48 PM 61.2°F16.2°C 53.6°F12.0°C 76% 3.6 mph S5.8 kmh S 10.5 mph16.9 kmh 29.47 in998.0 mb 0.00 in0.0 mm 0.00 in0.0 mm 0.00 in0.0 mm
02:49 PM 61.2°F16.2°C 53.6°F12.0°C 76% 3.8 mph S6.1 kmh S 10.3 mph16.6 kmh 29.47 in998.0 mb 0.00 in0.0 mm 0.00 in0.0 mm 0.00 in0.0 mm
02:50 PM 61.2°F16.2°C 55.4°F13.0°C 77% 5.4 mph S8.7 kmh S 10.3 mph16.6 kmh 29.47 in998.0 mb 0.00 in0.0 mm 0.00 in0.0 mm 0.00 in0.0 mm
02:51 PM 61.2°F16.2°C 55.4°F13.0°C 77% 4.9 mph S7.9 kmh S 10.3 mph16.6 kmh 29.47 in998.0 mb 0.00 in0.0 mm 0.00 in0.0 mm 0.00 in0.0 mm
02:52 PM 61.0°F16.1°C 53.6°F12.0°C 77% 6.0 mph S9.7 kmh S 10.3 mph16.6 kmh 29.47 in998.0 mb 0.00 in0.0 mm 0.00 in0.0 mm 0.00 in0.0 mm
02:53 PM 61.0°F16.1°C 53.6°F12.0°C 77% 4.7 mph S7.6 kmh S 10.3 mph16.6 kmh 29.47 in998.0 mb 0.00 in0.0 mm 0.00 in0.0 mm 0.00 in0.0 mm
02:54 PM 61.0°F16.1°C 53.6°F12.0°C 77% 4.7 mph S7.6 kmh S 10.1 mph16.3 kmh 29.47 in998.0 mb 0.00 in0.0 mm 0.00 in0.0 mm 0.00 in0.0 mm
02:55 PM 61.0°F16.1°C 53.6°F12.0°C 77% 4.0 mph S6.4 kmh S 10.1 mph16.3 kmh 29.47 in998.0 mb 0.00 in0.0 mm 0.00 in0.0 mm 0.00 in0.0 mm
02:56 PM 61.0°F16.1°C 53.6°F12.0°C 77% 4.0 mph S6.4 kmh S 10.1 mph16.3 kmh 29.47 in998.0 mb 0.00 in0.0 mm 0.00 in0.0 mm 0.00 in0.0 mm
02:57 PM 61.0°F16.1°C 53.6°F12.0°C 77% 3.8 mph S6.1 kmh S 8.1 mph13.0 kmh 29.47 in998.0 mb 0.00 in0.0 mm 0.00 in0.0 mm 0.00 in0.0 mm
02:58 PM 61.2°F16.2°C 55.4°F13.0°C 77% 4.9 mph S7.9 kmh S 8.7 mph14.0 kmh 29.47 in998.0 mb 0.00 in0.0 mm 0.00 in0.0 mm 0.00 in0.0 mm
02:59 PM 61.2°F16.2°C 55.4°F13.0°C 77% 3.4 mph SSW5.5 kmh SSW 8.7 mph14.0 kmh 29.47 in998.0 mb 0.00 in0.0 mm 0.00 in0.0 mm 0.00 in0.0 mm
03:00 PM 61.2°F16.2°C 55.4°F13.0°C 77% 3.4 mph S5.5 kmh S 8.7 mph14.0 kmh 29.47 in998.0 mb 0.00 in0.0 mm 0.00 in0.0 mm 0.00 in0.0 mm
03:01 PM 61.2°F16.2°C 55.4°F13.0°C 77% 4.3 mph SSW6.9 kmh SSW 8.7 mph14.0 kmh 29.47 in998.0 mb 0.00 in0.0 mm 0.00 in0.0 mm 0.00 in0.0 mm
03:02 PM 61.2°F16.2°C 55.4°F13.0°C 77% 3.4 mph SSW5.5 kmh SSW 8.7 mph14.0 kmh 29.47 in998.0 mb 0.00 in0.0 mm 0.00 in0.0 mm 0.00 in0.0 mm
03:03 PM 61.2°F16.2°C 55.4°F13.0°C 77% 4.5 mph S7.2 kmh S 8.7 mph14.0 kmh 29.47 in998.0 mb 0.00 in0.0 mm 0.00 in0.0 mm 0.00 in0.0 mm
03:04 PM 61.2°F16.2°C 55.4°F13.0°C 77% 4.5 mph SSW7.2 kmh SSW 8.7 mph14.0 kmh 29.47 in998.0 mb 0.00 in0.0 mm 0.00 in0.0 mm 0.00 in0.0 mm
03:05 PM 61.2°F16.2°C 55.4°F13.0°C 77% 6.3 mph SSW10.1 kmh SSW 12.3 mph19.8 kmh 29.47 in998.0 mb 0.00 in0.0 mm 0.00 in0.0 mm 0.00 in0.0 mm
03:06 PM 61.2°F16.2°C 55.4°F13.0°C 77% 5.4 mph SSW8.7 kmh SSW 12.3 mph19.8 kmh 29.47 in998.0 mb 0.00 in0.0 mm 0.00 in0.0 mm 0.00 in0.0 mm
03:07 PM 61.3°F16.3°C 55.4°F13.0°C 77% 6.7 mph S10.8 kmh S 12.3 mph19.8 kmh 29.47 in998.0 mb 0.00 in0.0 mm 0.00 in0.0 mm 0.00 in0.0 mm
03:08 PM 61.3°F16.3°C 55.4°F13.0°C 77% 6.3 mph S10.1 kmh S 12.3 mph19.8 kmh 29.47 in998.0 mb 0.00 in0.0 mm 0.00 in0.0 mm 0.00 in0.0 mm
03:09 PM 61.3°F16.3°C 55.4°F13.0°C 77% 4.0 mph S6.4 kmh S 12.3 mph19.8 kmh 29.47 in998.0 mb 0.00 in0.0 mm 0.00 in0.0 mm 0.00 in0.0 mm
03:10 PM 61.3°F16.3°C 55.4°F13.0°C 77% 7.6 mph S12.2 kmh S 12.3 mph19.8 kmh 29.47 in998.0 mb 0.00 in0.0 mm 0.00 in0.0 mm 0.00 in0.0 mm
03:11 PM 61.3°F16.3°C 53.6°F12.0°C 76% 5.4 mph S8.7 kmh S 12.3 mph19.8 kmh 29.47 in998.0 mb 0.00 in0.0 mm 0.00 in0.0 mm 0.00 in0.0 mm
03:12 PM 61.3°F16.3°C 53.6°F12.0°C 76% 5.8 mph S9.3 kmh S 12.3 mph19.8 kmh 29.47 in998.0 mb 0.00 in0.0 mm 0.00 in0.0 mm 0.00 in0.0 mm
03:13 PM 61.3°F16.3°C 53.6°F12.0°C 76% 5.8 mph S9.3 kmh S 12.3 mph19.8 kmh 29.47 in998.0 mb 0.00 in0.0 mm 0.00 in0.0 mm 0.00 in0.0 mm
03:14 PM 61.5°F16.4°C 53.6°F12.0°C 76% 4.5 mph S7.2 kmh S 12.3 mph19.8 kmh 29.47 in998.0 mb 0.00 in0.0 mm 0.00 in0.0 mm 0.00 in0.0 mm
03:15 PM 61.5°F16.4°C 53.6°F12.0°C 76% 5.4 mph S8.7 kmh S 11.9 mph19.2 kmh 29.47 in998.0 mb 0.00 in0.0 mm 0.00 in0.0 mm 0.00 in0.0 mm
03:16 PM 61.5°F16.4°C 53.6°F12.0°C 76% 5.6 mph S9.0 kmh S 11.9 mph19.2 kmh 29.47 in998.0 mb 0.00 in0.0 mm 0.00 in0.0 mm 0.00 in0.0 mm
03:17 PM 61.7°F16.5°C 55.4°F13.0°C 76% 4.5 mph S7.2 kmh S 11.9 mph19.2 kmh 29.44 in997.0 mb 0.00 in0.0 mm 0.00 in0.0 mm 0.00 in0.0 mm
03:18 PM 61.7°F16.5°C 55.4°F13.0°C 76% 4.7 mph S7.6 kmh S 11.0 mph17.7 kmh 29.44 in997.0 mb 0.00 in0.0 mm 0.00 in0.0 mm 0.00 in0.0 mm
03:19 PM 61.7°F16.5°C 55.4°F13.0°C 76% 4.9 mph S7.9 kmh S 11.0 mph17.7 kmh 29.44 in997.0 mb 0.00 in0.0 mm 0.00 in0.0 mm 0.00 in0.0 mm
03:20 PM 61.7°F16.5°C 55.4°F13.0°C 76% 4.9 mph S7.9 kmh S 10.3 mph16.6 kmh 29.44 in997.0 mb 0.00 in0.0 mm 0.00 in0.0 mm 0.00 in0.0 mm
03:21 PM 61.7°F16.5°C 55.4°F13.0°C 75% 6.3 mph S10.1 kmh S 14.5 mph23.3 kmh 29.44 in997.0 mb 0.00 in0.0 mm 0.00 in0.0 mm 0.00 in0.0 mm
03:22 PM 61.7°F16.5°C 55.4°F13.0°C 75% 6.5 mph S10.5 kmh S 14.5 mph23.3 kmh 29.44 in997.0 mb 0.00 in0.0 mm 0.00 in0.0 mm 0.00 in0.0 mm
03:23 PM 61.5°F16.4°C 53.6°F12.0°C 75% 5.8 mph S9.3 kmh S 14.5 mph23.3 kmh 29.44 in997.0 mb 0.00 in0.0 mm 0.00 in0.0 mm 0.00 in0.0 mm
03:24 PM 61.5°F16.4°C 53.6°F12.0°C 76% 6.5 mph S10.5 kmh S 14.5 mph23.3 kmh 29.44 in997.0 mb 0.00 in0.0 mm 0.00 in0.0 mm 0.00 in0.0 mm
03:25 PM 61.5°F16.4°C 53.6°F12.0°C 76% 7.2 mph S11.6 kmh S 14.5 mph23.3 kmh 29.44 in997.0 mb 0.00 in0.0 mm 0.00 in0.0 mm 0.00 in0.0 mm
03:26 PM 61.5°F16.4°C 53.6°F12.0°C 76% 6.7 mph S10.8 kmh S 14.5 mph23.3 kmh 29.44 in997.0 mb 0.00 in0.0 mm 0.00 in0.0 mm 0.00 in0.0 mm
03:27 PM 61.5°F16.4°C 53.6°F12.0°C 76% 4.9 mph S7.9 kmh S 14.5 mph23.3 kmh 29.44 in997.0 mb 0.00 in0.0 mm 0.00 in0.0 mm 0.00 in0.0 mm
03:28 PM 61.3°F16.3°C 53.6°F12.0°C 76% 5.8 mph S9.3 kmh S 14.5 mph23.3 kmh 29.44 in997.0 mb 0.00 in0.0 mm 0.00 in0.0 mm 0.00 in0.0 mm
03:29 PM 61.3°F16.3°C 53.6°F12.0°C 76% 7.6 mph S12.2 kmh S 15.4 mph24.8 kmh 29.44 in997.0 mb 0.00 in0.0 mm 0.00 in0.0 mm 0.00 in0.0 mm
03:30 PM 61.3°F16.3°C 53.6°F12.0°C 76% 8.9 mph S14.3 kmh S 15.4 mph24.8 kmh 29.44 in997.0 mb 0.00 in0.0 mm 0.00 in0.0 mm 0.00 in0.0 mm
03:31 PM 61.3°F16.3°C 53.6°F12.0°C 76% 6.3 mph S10.1 kmh S 15.4 mph24.8 kmh 29.44 in997.0 mb 0.00 in0.0 mm 0.00 in0.0 mm 0.00 in0.0 mm
03:32 PM 61.3°F16.3°C 53.6°F12.0°C 76% 7.2 mph S11.6 kmh S 15.4 mph24.8 kmh 29.38 in994.9 mb 0.00 in0.0 mm 0.00 in0.0 mm 0.00 in0.0 mm
03:33 PM 61.3°F16.3°C 55.4°F13.0°C 77% 6.7 mph S10.8 kmh S 15.4 mph24.8 kmh 29.38 in994.9 mb 0.00 in0.0 mm 0.00 in0.0 mm 0.00 in0.0 mm
03:34 PM 61.2°F16.2°C 55.4°F13.0°C 77% 6.9 mph S11.1 kmh S 15.4 mph24.8 kmh 29.38 in994.9 mb 0.00 in0.0 mm 0.00 in0.0 mm 0.00 in0.0 mm
03:35 PM 61.2°F16.2°C 55.4°F13.0°C 77% 6.5 mph S10.5 kmh S 15.4 mph24.8 kmh 29.38 in994.9 mb 0.00 in0.0 mm 0.00 in0.0 mm 0.00 in0.0 mm
03:36 PM 61.2°F16.2°C 55.4°F13.0°C 77% 7.2 mph S11.6 kmh S 15.4 mph24.8 kmh 29.38 in994.9 mb 0.00 in0.0 mm 0.00 in0.0 mm 0.00 in0.0 mm
03:37 PM 61.2°F16.2°C 55.4°F13.0°C 77% 6.0 mph S9.7 kmh S 15.4 mph24.8 kmh 29.38 in994.9 mb 0.00 in0.0 mm 0.00 in0.0 mm 0.00 in0.0 mm
03:38 PM 61.2°F16.2°C 55.4°F13.0°C 77% 3.8 mph S6.1 kmh S 15.4 mph24.8 kmh 29.38 in994.9 mb 0.00 in0.0 mm 0.00 in0.0 mm 0.00 in0.0 mm
03:39 PM 61.2°F16.2°C 55.4°F13.0°C 77% 3.8 mph S6.1 kmh S 15.4 mph24.8 kmh 29.38 in994.9 mb 0.00 in0.0 mm 0.00 in0.0 mm 0.00 in0.0 mm
03:40 PM 61.2°F16.2°C 55.4°F13.0°C 77% 5.6 mph S9.0 kmh S 14.8 mph23.8 kmh 29.38 in994.9 mb 0.00 in0.0 mm 0.00 in0.0 mm 0.00 in0.0 mm
03:41 PM 61.0°F16.1°C 53.6°F12.0°C 77% 6.3 mph S10.1 kmh S 14.8 mph23.8 kmh 29.38 in994.9 mb 0.00 in0.0 mm 0.00 in0.0 mm 0.00 in0.0 mm
03:42 PM 61.0°F16.1°C 53.6°F12.0°C 77% 8.5 mph S13.7 kmh S 14.8 mph23.8 kmh 29.38 in994.9 mb 0.00 in0.0 mm 0.00 in0.0 mm 0.00 in0.0 mm
03:43 PM 61.0°F16.1°C 53.6°F12.0°C 77% 6.7 mph S10.8 kmh S 14.8 mph23.8 kmh 29.38 in994.9 mb 0.00 in0.0 mm 0.00 in0.0 mm 0.00 in0.0 mm
03:44 PM 61.0°F16.1°C 53.6°F12.0°C 78% 6.9 mph S11.1 kmh S 14.8 mph23.8 kmh 29.38 in994.9 mb 0.00 in0.0 mm 0.00 in0.0 mm 0.00 in0.0 mm
03:45 PM 61.0°F16.1°C 53.6°F12.0°C 78% 6.3 mph S10.1 kmh S 14.8 mph23.8 kmh 29.38 in994.9 mb 0.00 in0.0 mm 0.00 in0.0 mm 0.00 in0.0 mm
03:46 PM 61.0°F16.1°C 53.6°F12.0°C 78% 4.3 mph S6.9 kmh S 14.8 mph23.8 kmh 29.38 in994.9 mb 0.00 in0.0 mm 0.00 in0.0 mm 0.00 in0.0 mm
03:47 PM 61.0°F16.1°C 53.6°F12.0°C 78% 6.0 mph S9.7 kmh S 14.8 mph23.8 kmh 29.41 in995.9 mb 0.00 in0.0 mm 0.00 in0.0 mm 0.00 in0.0 mm
03:48 PM 61.0°F16.1°C 53.6°F12.0°C 78% 6.9 mph S11.1 kmh S 14.8 mph23.8 kmh 29.41 in995.9 mb 0.00 in0.0 mm 0.00 in0.0 mm 0.00 in0.0 mm
03:49 PM 61.0°F16.1°C 53.6°F12.0°C 78% 4.5 mph S7.2 kmh S 14.8 mph23.8 kmh 29.41 in995.9 mb 0.00 in0.0 mm 0.00 in0.0 mm 0.00 in0.0 mm
03:50 PM 61.0°F16.1°C 53.6°F12.0°C 78% 3.1 mph S5.0 kmh S 14.8 mph23.8 kmh 29.41 in995.9 mb 0.00 in0.0 mm 0.00 in0.0 mm 0.00 in0.0 mm
03:51 PM 61.0°F16.1°C 53.6°F12.0°C 78% 4.7 mph S7.6 kmh S 14.8 mph23.8 kmh 29.41 in995.9 mb 0.00 in0.0 mm 0.00 in0.0 mm 0.00 in0.0 mm
03:52 PM 60.8°F16.0°C 53.6°F12.0°C 78% 4.7 mph S7.6 kmh S 10.1 mph16.3 kmh 29.41 in995.9 mb 0.00 in0.0 mm 0.00 in0.0 mm 0.00 in0.0 mm
03:53 PM 61.0°F16.1°C 53.6°F12.0°C 78% 4.3 mph S6.9 kmh S 9.8 mph15.8 kmh 29.41 in995.9 mb 0.00 in0.0 mm 0.00 in0.0 mm 0.00 in0.0 mm
03:54 PM 60.8°F16.0°C 53.6°F12.0°C 78% 6.5 mph S10.5 kmh S 14.1 mph22.7 kmh 29.41 in995.9 mb 0.00 in0.0 mm 0.00 in0.0 mm 0.00 in0.0 mm
03:55 PM 60.8°F16.0°C 53.6°F12.0°C 78% 6.3 mph S10.1 kmh S 14.1 mph22.7 kmh 29.41 in995.9 mb 0.00 in0.0 mm 0.00 in0.0 mm 0.00 in0.0 mm
03:56 PM 60.8°F16.0°C 53.6°F12.0°C 78% 3.8 mph S6.1 kmh S 14.1 mph22.7 kmh 29.41 in995.9 mb 0.00 in0.0 mm 0.00 in0.0 mm 0.00 in0.0 mm
03:57 PM 60.8°F16.0°C 53.6°F12.0°C 78% 4.5 mph S7.2 kmh S 14.1 mph22.7 kmh 29.41 in995.9 mb 0.00 in0.0 mm 0.00 in0.0 mm 0.00 in0.0 mm
03:58 PM 60.8°F16.0°C 53.6°F12.0°C 78% 4.9 mph S7.9 kmh S 14.1 mph22.7 kmh 29.41 in995.9 mb 0.00 in0.0 mm 0.00 in0.0 mm 0.00 in0.0 mm
03:59 PM 60.8°F16.0°C 53.6°F12.0°C 78% 6.5 mph S10.5 kmh S 14.1 mph22.7 kmh 29.41 in995.9 mb 0.00 in0.0 mm 0.00 in0.0 mm 0.00 in0.0 mm
04:00 PM 60.8°F16.0°C 55.4°F13.0°C 79% 4.0 mph SSW6.4 kmh SSW 14.1 mph22.7 kmh 29.41 in995.9 mb 0.00 in0.0 mm 0.00 in0.0 mm 0.00 in0.0 mm
04:01 PM 60.8°F16.0°C 53.6°F12.0°C 78% 4.7 mph SSW7.6 kmh SSW 14.1 mph22.7 kmh 29.41 in995.9 mb 0.00 in0.0 mm 0.00 in0.0 mm 0.00 in0.0 mm
04:02 PM 60.6°F15.9°C 53.6°F12.0°C 78% 4.9 mph S7.9 kmh S 14.1 mph22.7 kmh 29.41 in995.9 mb 0.00 in0.0 mm 0.00 in0.0 mm 0.00 in0.0 mm
04:03 PM 60.6°F15.9°C 53.6°F12.0°C 78% 5.8 mph S9.3 kmh S 14.1 mph22.7 kmh 29.41 in995.9 mb 0.00 in0.0 mm 0.00 in0.0 mm 0.00 in0.0 mm
04:04 PM 60.4°F15.8°C 53.6°F12.0°C 79% 5.8 mph SSW9.3 kmh SSW 12.5 mph20.1 kmh 29.41 in995.9 mb 0.00 in0.0 mm 0.00 in0.0 mm 0.00 in0.0 mm
04:05 PM 60.4°F15.8°C 53.6°F12.0°C 79% 5.4 mph SSW8.7 kmh SSW 11.9 mph19.2 kmh 29.41 in995.9 mb 0.00 in0.0 mm 0.00 in0.0 mm 0.00 in0.0 mm
04:06 PM 60.4°F15.8°C 53.6°F12.0°C 79% 5.6 mph SSW9.0 kmh SSW 11.9 mph19.2 kmh 29.41 in995.9 mb 0.00 in0.0 mm 0.00 in0.0 mm 0.00 in0.0 mm
04:07 PM 60.4°F15.8°C 53.6°F12.0°C 79% 6.3 mph SSW10.1 kmh SSW 11.9 mph19.2 kmh 29.41 in995.9 mb 0.00 in0.0 mm 0.00 in0.0 mm 0.00 in0.0 mm
04:08 PM 60.4°F15.8°C 53.6°F12.0°C 79% 5.4 mph SSW8.7 kmh SSW 11.9 mph19.2 kmh 29.41 in995.9 mb 0.00 in0.0 mm 0.00 in0.0 mm 0.00 in0.0 mm
04:09 PM 60.4°F15.8°C 53.6°F12.0°C 79% 6.0 mph SSW9.7 kmh SSW 8.5 mph13.7 kmh 29.41 in995.9 mb 0.00 in0.0 mm 0.00 in0.0 mm 0.00 in0.0 mm
04:10 PM 60.4°F15.8°C 53.6°F12.0°C 79% 6.0 mph SSW9.7 kmh SSW 8.5 mph13.7 kmh 29.41 in995.9 mb 0.00 in0.0 mm 0.00 in0.0 mm 0.00 in0.0 mm
04:11 PM 60.4°F15.8°C 53.6°F12.0°C 79% 4.9 mph SSW7.9 kmh SSW 8.5 mph13.7 kmh 29.41 in995.9 mb 0.00 in0.0 mm 0.00 in0.0 mm 0.00 in0.0 mm
04:12 PM 60.4°F15.8°C 55.4°F13.0°C 80% 6.9 mph SSW11.1 kmh SSW 10.1 mph16.3 kmh 29.41 in995.9 mb 0.00 in0.0 mm 0.00 in0.0 mm 0.00 in0.0 mm
04:13 PM 60.3°F15.7°C 55.4°F13.0°C 80% 6.7 mph S10.8 kmh S 12.3 mph19.8 kmh 29.41 in995.9 mb 0.00 in0.0 mm 0.00 in0.0 mm 0.00 in0.0 mm
04:14 PM 60.3°F15.7°C 55.4°F13.0°C 80% 6.5 mph S10.5 kmh S 12.3 mph19.8 kmh 29.41 in995.9 mb 0.00 in0.0 mm 0.00 in0.0 mm 0.00 in0.0 mm
04:15 PM 60.3°F15.7°C 55.4°F13.0°C 80% 5.8 mph S9.3 kmh S 12.3 mph19.8 kmh 29.41 in995.9 mb 0.00 in0.0 mm 0.00 in0.0 mm 0.00 in0.0 mm
04:16 PM 60.3°F15.7°C 55.4°F13.0°C 80% 6.3 mph SSW10.1 kmh SSW 12.3 mph19.8 kmh 29.41 in995.9 mb 0.00 in0.0 mm 0.00 in0.0 mm 0.00 in0.0 mm
04:17 PM 60.1°F15.6°C 55.4°F13.0°C 80% 4.5 mph SSW7.2 kmh SSW 12.3 mph19.8 kmh 29.38 in994.9 mb 0.00 in0.0 mm 0.00 in0.0 mm 0.00 in0.0 mm
04:18 PM 60.1°F15.6°C 55.4°F13.0°C 80% 5.6 mph SSW9.0 kmh SSW 12.3 mph19.8 kmh 29.38 in994.9 mb 0.00 in0.0 mm 0.00 in0.0 mm 0.00 in0.0 mm
04:19 PM 60.1°F15.6°C 55.4°F13.0°C 80% 6.7 mph SSW10.8 kmh SSW 12.3 mph19.8 kmh 29.38 in994.9 mb 0.00 in0.0 mm 0.00 in0.0 mm 0.00 in0.0 mm
04:20 PM 60.1°F15.6°C 53.6°F12.0°C 79% 4.7 mph SSW7.6 kmh SSW 12.3 mph19.8 kmh 29.38 in994.9 mb 0.00 in0.0 mm 0.00 in0.0 mm 0.00 in0.0 mm
04:21 PM 60.1°F15.6°C 53.6°F12.0°C 79% 4.7 mph SSW7.6 kmh SSW 12.3 mph19.8 kmh 29.38 in994.9 mb 0.00 in0.0 mm 0.00 in0.0 mm 0.00 in0.0 mm
04:22 PM 60.1°F15.6°C 53.6°F12.0°C 79% 4.0 mph SSW6.4 kmh SSW 12.3 mph19.8 kmh 29.38 in994.9 mb 0.00 in0.0 mm 0.00 in0.0 mm 0.00 in0.0 mm
04:23 PM 60.3°F15.7°C 53.6°F12.0°C 79% 4.0 mph SSW6.4 kmh SSW 10.3 mph16.6 kmh 29.38 in994.9 mb 0.00 in0.0 mm 0.00 in0.0 mm 0.00 in0.0 mm
04:24 PM 60.3°F15.7°C 53.6°F12.0°C 79% 4.7 mph SSW7.6 kmh SSW 10.3 mph16.6 kmh 29.38 in994.9 mb 0.00 in0.0 mm 0.00 in0.0 mm 0.00 in0.0 mm
04:25 PM 60.3°F15.7°C 53.6°F12.0°C 79% 5.8 mph SSW9.3 kmh SSW 10.3 mph16.6 kmh 29.38 in994.9 mb 0.00 in0.0 mm 0.00 in0.0 mm 0.00 in0.0 mm
04:26 PM 60.3°F15.7°C 53.6°F12.0°C 79% 4.9 mph SSW7.9 kmh SSW 10.3 mph16.6 kmh 29.38 in994.9 mb 0.00 in0.0 mm 0.00 in0.0 mm 0.00 in0.0 mm
04:27 PM 60.3°F15.7°C 53.6°F12.0°C 79% 4.7 mph SSW7.6 kmh SSW 10.3 mph16.6 kmh 29.38 in994.9 mb 0.00 in0.0 mm 0.00 in0.0 mm 0.00 in0.0 mm
04:28 PM 60.3°F15.7°C 53.6°F12.0°C 79% 3.8 mph SSW6.1 kmh SSW 10.3 mph16.6 kmh 29.38 in994.9 mb 0.00 in0.0 mm 0.00 in0.0 mm 0.00 in0.0 mm
04:29 PM 60.3°F15.7°C 53.6°F12.0°C 78% 4.9 mph SSW7.9 kmh SSW 10.3 mph16.6 kmh 29.38 in994.9 mb 0.00 in0.0 mm 0.00 in0.0 mm 0.00 in0.0 mm
04:30 PM 60.3°F15.7°C 53.6°F12.0°C 78% 4.9 mph SSW7.9 kmh SSW 9.8 mph15.8 kmh 29.38 in994.9 mb 0.00 in0.0 mm 0.00 in0.0 mm 0.00 in0.0 mm
04:31 PM 60.3°F15.7°C 53.6°F12.0°C 78% 4.0 mph SSW6.4 kmh SSW 9.8 mph15.8 kmh 29.38 in994.9 mb 0.00 in0.0 mm 0.00 in0.0 mm 0.00 in0.0 mm
04:32 PM 60.3°F15.7°C 53.6°F12.0°C 78% 6.5 mph SSW10.5 kmh SSW 9.8 mph15.8 kmh 29.41 in995.9 mb 0.00 in0.0 mm 0.00 in0.0 mm 0.00 in0.0 mm
04:33 PM 60.3°F15.7°C 53.6°F12.0°C 78% 5.6 mph SSW9.0 kmh SSW 9.8 mph15.8 kmh 29.41 in995.9 mb 0.00 in0.0 mm 0.00 in0.0 mm 0.00 in0.0 mm
04:34 PM 60.3°F15.7°C 53.6°F12.0°C 78% 6.3 mph SSW10.1 kmh SSW 9.8 mph15.8 kmh 29.41 in995.9 mb 0.00 in0.0 mm 0.00 in0.0 mm 0.00 in0.0 mm
04:35 PM 60.3°F15.7°C 53.6°F12.0°C 78% 5.6 mph SSW9.0 kmh SSW 11.4 mph18.3 kmh 29.41 in995.9 mb 0.00 in0.0 mm 0.00 in0.0 mm 0.00 in0.0 mm
04:36 PM 60.3°F15.7°C 53.6°F12.0°C 78% 6.0 mph SSW9.7 kmh SSW 11.4 mph18.3 kmh 29.41 in995.9 mb 0.00 in0.0 mm 0.00 in0.0 mm 0.00 in0.0 mm
04:37 PM 60.4°F15.8°C 53.6°F12.0°C 77% 6.7 mph SSW10.8 kmh SSW 11.4 mph18.3 kmh 29.41 in995.9 mb 0.00 in0.0 mm 0.00 in0.0 mm 0.00 in0.0 mm
04:38 PM 60.4°F15.8°C 53.6°F12.0°C 77% 5.6 mph SSW9.0 kmh SSW 11.4 mph18.3 kmh 29.41 in995.9 mb 0.00 in0.0 mm 0.00 in0.0 mm 0.00 in0.0 mm
04:39 PM 60.4°F15.8°C 53.6°F12.0°C 77% 5.6 mph SSW9.0 kmh SSW 11.4 mph18.3 kmh 29.41 in995.9 mb 0.00 in0.0 mm 0.00 in0.0 mm 0.00 in0.0 mm
04:40 PM 60.4°F15.8°C 53.6°F12.0°C 77% 5.6 mph SSW9.0 kmh SSW 11.4 mph18.3 kmh 29.41 in995.9 mb 0.00 in0.0 mm 0.00 in0.0 mm 0.00 in0.0 mm
04:41 PM 60.4°F15.8°C 53.6°F12.0°C 77% 4.9 mph SSW7.9 kmh SSW 11.4 mph18.3 kmh 29.41 in995.9 mb 0.00 in0.0 mm 0.00 in0.0 mm 0.00 in0.0 mm
04:42 PM 60.4°F15.8°C 53.6°F12.0°C 77% 5.4 mph SSW8.7 kmh SSW 11.4 mph18.3 kmh 29.41 in995.9 mb 0.00 in0.0 mm 0.00 in0.0 mm 0.00 in0.0 mm
04:43 PM 60.4°F15.8°C 53.6°F12.0°C 77% 2.9 mph SSW4.7 kmh SSW 11.4 mph18.3 kmh 29.41 in995.9 mb 0.00 in0.0 mm 0.00 in0.0 mm 0.00 in0.0 mm
04:44 PM 60.4°F15.8°C 53.6°F12.0°C 77% 3.8 mph SSW6.1 kmh SSW 11.4 mph18.3 kmh 29.41 in995.9 mb 0.00 in0.0 mm 0.00 in0.0 mm 0.00 in0.0 mm
04:45 PM 60.4°F15.8°C 53.6°F12.0°C 77% 4.5 mph SSW7.2 kmh SSW 10.5 mph16.9 kmh 29.41 in995.9 mb 0.00 in0.0 mm 0.00 in0.0 mm 0.00 in0.0 mm
04:46 PM 60.4°F15.8°C 53.6°F12.0°C 77% 7.2 mph SSW11.6 kmh SSW 13.2 mph21.2 kmh 29.41 in995.9 mb 0.00 in0.0 mm 0.00 in0.0 mm 0.00 in0.0 mm
04:47 PM 60.4°F15.8°C 53.6°F12.0°C 77% 6.5 mph SSW10.5 kmh SSW 13.2 mph21.2 kmh 29.41 in995.9 mb 0.00 in0.0 mm 0.00 in0.0 mm 0.00 in0.0 mm
04:48 PM 60.3°F15.7°C 53.6°F12.0°C 78% 4.0 mph SSW6.4 kmh SSW 13.2 mph21.2 kmh 29.41 in995.9 mb 0.00 in0.0 mm 0.00 in0.0 mm 0.00 in0.0 mm
04:49 PM 60.3°F15.7°C 53.6°F12.0°C 79% 5.4 mph S8.7 kmh S 13.2 mph21.2 kmh 29.41 in995.9 mb 0.00 in0.0 mm 0.00 in0.0 mm 0.00 in0.0 mm
04:50 PM 60.1°F15.6°C 53.6°F12.0°C 79% 5.6 mph SSW9.0 kmh SSW 13.2 mph21.2 kmh 29.41 in995.9 mb 0.00 in0.0 mm 0.00 in0.0 mm 0.00 in0.0 mm
04:51 PM 60.1°F15.6°C 55.4°F13.0°C 80% 3.8 mph SSW6.1 kmh SSW 13.2 mph21.2 kmh 29.41 in995.9 mb 0.00 in0.0 mm 0.00 in0.0 mm 0.00 in0.0 mm
04:52 PM 60.1°F15.6°C 55.4°F13.0°C 80% 6.0 mph SSW9.7 kmh SSW 13.2 mph21.2 kmh 29.41 in995.9 mb 0.00 in0.0 mm 0.00 in0.0 mm 0.00 in0.0 mm
04:53 PM 59.9°F15.5°C 55.4°F13.0°C 80% 4.7 mph SSW7.6 kmh SSW 13.2 mph21.2 kmh 29.41 in995.9 mb 0.00 in0.0 mm 0.00 in0.0 mm 0.00 in0.0 mm
04:54 PM 59.9°F15.5°C 55.4°F13.0°C 80% 4.3 mph SSW6.9 kmh SSW 13.2 mph21.2 kmh 29.41 in995.9 mb 0.00 in0.0 mm 0.00 in0.0 mm 0.00 in0.0 mm
04:55 PM 59.9°F15.5°C 55.4°F13.0°C 81% 5.4 mph SSW8.7 kmh SSW 13.2 mph21.2 kmh 29.41 in995.9 mb 0.00 in0.0 mm 0.00 in0.0 mm 0.00 in0.0 mm
04:56 PM 59.7°F15.4°C 53.6°F12.0°C 81% 5.8 mph SSW9.3 kmh SSW 10.1 mph16.3 kmh 29.41 in995.9 mb 0.00 in0.0 mm 0.00 in0.0 mm 0.00 in0.0 mm
04:57 PM 59.5°F15.3°C 53.6°F12.0°C 81% 4.5 mph SSW7.2 kmh SSW 10.1 mph16.3 kmh 29.41 in995.9 mb 0.00 in0.0 mm 0.00 in0.0 mm 0.00 in0.0 mm
04:58 PM 59.5°F15.3°C 55.4°F13.0°C 82% 4.3 mph SSW6.9 kmh SSW 10.1 mph16.3 kmh 29.41 in995.9 mb 0.00 in0.0 mm 0.00 in0.0 mm 0.00 in0.0 mm
04:59 PM 59.5°F15.3°C 55.4°F13.0°C 82% 4.0 mph SSW6.4 kmh SSW 10.1 mph16.3 kmh 29.41 in995.9 mb 0.00 in0.0 mm 0.00 in0.0 mm 0.00 in0.0 mm
05:00 PM 59.4°F15.2°C 55.4°F13.0°C 82% 4.7 mph SW7.6 kmh SW 10.1 mph16.3 kmh 29.41 in995.9 mb 0.00 in0.0 mm 0.00 in0.0 mm 0.00 in0.0 mm
05:01 PM 59.4°F15.2°C 55.4°F13.0°C 82% 3.6 mph SSW5.8 kmh SSW 10.1 mph16.3 kmh 29.41 in995.9 mb 0.00 in0.0 mm 0.00 in0.0 mm 0.00 in0.0 mm
05:02 PM 59.4°F15.2°C 55.4°F13.0°C 82% 4.3 mph SSW6.9 kmh SSW 10.1 mph16.3 kmh 29.44 in997.0 mb 0.00 in0.0 mm 0.00 in0.0 mm 0.00 in0.0 mm
05:03 PM 59.2°F15.1°C 53.6°F12.0°C 83% 2.7 mph SSW4.3 kmh SSW 10.1 mph16.3 kmh 29.44 in997.0 mb 0.00 in0.0 mm 0.00 in0.0 mm 0.00 in0.0 mm
05:04 PM 59.2°F15.1°C 53.6°F12.0°C 83% 3.6 mph SW5.8 kmh SW 10.1 mph16.3 kmh 29.44 in997.0 mb 0.00 in0.0 mm 0.00 in0.0 mm 0.00 in0.0 mm
05:05 PM 59.2°F15.1°C 53.6°F12.0°C 83% 4.0 mph SSW6.4 kmh SSW 10.1 mph16.3 kmh 29.44 in997.0 mb 0.00 in0.0 mm 0.00 in0.0 mm 0.00 in0.0 mm
05:06 PM 59.0°F15.0°C 55.4°F13.0°C 84% 3.1 mph SSW5.0 kmh SSW 6.7 mph10.8 kmh 29.44 in997.0 mb 0.00 in0.0 mm 0.00 in0.0 mm 0.00 in0.0 mm
05:07 PM 59.0°F15.0°C 55.4°F13.0°C 84% 4.3 mph SW6.9 kmh SW 7.8 mph12.6 kmh 29.44 in997.0 mb 0.00 in0.0 mm 0.00 in0.0 mm 0.00 in0.0 mm
05:08 PM 59.0°F15.0°C 55.4°F13.0°C 84% 4.0 mph SW6.4 kmh SW 7.8 mph12.6 kmh 29.44 in997.0 mb 0.00 in0.0 mm 0.00 in0.0 mm 0.00 in0.0 mm
05:09 PM 59.0°F15.0°C 55.4°F13.0°C 84% 4.5 mph SSW7.2 kmh SSW 7.8 mph12.6 kmh 29.44 in997.0 mb 0.00 in0.0 mm 0.00 in0.0 mm 0.00 in0.0 mm
05:10 PM 59.0°F15.0°C 55.4°F13.0°C 84% 2.9 mph SSW4.7 kmh SSW 7.8 mph12.6 kmh 29.44 in997.0 mb 0.00 in0.0 mm 0.00 in0.0 mm 0.00 in0.0 mm
05:11 PM 58.8°F14.9°C 55.4°F13.0°C 84% 4.3 mph SSW6.9 kmh SSW 7.8 mph12.6 kmh 29.44 in997.0 mb 0.00 in0.0 mm 0.00 in0.0 mm 0.00 in0.0 mm
05:12 PM 58.8°F14.9°C 55.4°F13.0°C 84% 3.8 mph SSW6.1 kmh SSW 7.8 mph12.6 kmh 29.44 in997.0 mb 0.00 in0.0 mm 0.00 in0.0 mm 0.00 in0.0 mm
05:13 PM 58.8°F14.9°C 55.4°F13.0°C 84% 3.4 mph SSW5.5 kmh SSW 7.8 mph12.6 kmh 29.44 in997.0 mb 0.00 in0.0 mm 0.00 in0.0 mm 0.00 in0.0 mm
05:14 PM 58.8°F14.9°C 55.4°F13.0°C 84% 3.1 mph SSW5.0 kmh SSW 7.8 mph12.6 kmh 29.44 in997.0 mb 0.00 in0.0 mm 0.00 in0.0 mm 0.00 in0.0 mm
05:15 PM 58.8°F14.9°C 55.4°F13.0°C 85% 4.3 mph SSW6.9 kmh SSW 7.8 mph12.6 kmh 29.44 in997.0 mb 0.00 in0.0 mm 0.00 in0.0 mm 0.00 in0.0 mm
05:16 PM 58.6°F14.8°C 55.4°F13.0°C 85% 4.3 mph SSW6.9 kmh SSW 7.8 mph12.6 kmh 29.44 in997.0 mb 0.00 in0.0 mm 0.00 in0.0 mm 0.00 in0.0 mm
05:17 PM 58.6°F14.8°C 55.4°F13.0°C 85% 3.6 mph SSW5.8 kmh SSW 7.6 mph12.2 kmh 29.41 in995.9 mb 0.00 in0.0 mm 0.00 in0.0 mm 0.00 in0.0 mm
05:18 PM 58.6°F14.8°C 55.4°F13.0°C 85% 3.6 mph S5.8 kmh S 7.6 mph12.2 kmh 29.41 in995.9 mb 0.00 in0.0 mm 0.00 in0.0 mm 0.00 in0.0 mm
05:19 PM 58.6°F14.8°C 55.4°F13.0°C 85% 4.7 mph SSW7.6 kmh SSW 7.6 mph12.2 kmh 29.41 in995.9 mb 0.00 in0.0 mm 0.00 in0.0 mm 0.00 in0.0 mm
05:20 PM 58.6°F14.8°C 55.4°F13.0°C 85% 5.4 mph S8.7 kmh S 7.4 mph11.9 kmh 29.41 in995.9 mb 0.00 in0.0 mm 0.00 in0.0 mm 0.00 in0.0 mm
05:21 PM 58.6°F14.8°C 55.4°F13.0°C 85% 3.4 mph SSW5.5 kmh SSW 7.4 mph11.9 kmh 29.41 in995.9 mb 0.00 in0.0 mm 0.00 in0.0 mm 0.00 in0.0 mm
05:22 PM 58.6°F14.8°C 55.4°F13.0°C 85% 3.8 mph SSW6.1 kmh SSW 7.4 mph11.9 kmh 29.41 in995.9 mb 0.00 in0.0 mm 0.00 in0.0 mm 0.00 in0.0 mm
05:23 PM 58.6°F14.8°C 55.4°F13.0°C 85% 4.9 mph SSW7.9 kmh SSW 7.4 mph11.9 kmh 29.41 in995.9 mb 0.00 in0.0 mm 0.00 in0.0 mm 0.00 in0.0 mm
05:24 PM 58.8°F14.9°C 55.4°F13.0°C 85% 3.8 mph S6.1 kmh S 7.4 mph11.9 kmh 29.41 in995.9 mb 0.00 in0.0 mm 0.00 in0.0 mm 0.00 in0.0 mm
05:25 PM 58.6°F14.8°C 55.4°F13.0°C 85% 3.1 mph S5.0 kmh S 7.4 mph11.9 kmh 29.41 in995.9 mb 0.00 in0.0 mm 0.00 in0.0 mm 0.00 in0.0 mm
05:26 PM 58.6°F14.8°C 55.4°F13.0°C 85% 4.0 mph S6.4 kmh S 7.4 mph11.9 kmh 29.41 in995.9 mb 0.00 in0.0 mm 0.00 in0.0 mm 0.00 in0.0 mm
05:27 PM 58.6°F14.8°C 55.4°F13.0°C 85% 5.4 mph S8.7 kmh S 7.6 mph12.2 kmh 29.41 in995.9 mb 0.00 in0.0 mm 0.00 in0.0 mm 0.00 in0.0 mm
05:28 PM 58.6°F14.8°C 55.4°F13.0°C 85% 6.0 mph S9.7 kmh S 7.6 mph12.2 kmh 29.41 in995.9 mb 0.00 in0.0 mm 0.00 in0.0 mm 0.00 in0.0 mm
05:29 PM 58.6°F14.8°C 55.4°F13.0°C 85% 4.5 mph S7.2 kmh S 7.6 mph12.2 kmh 29.41 in995.9 mb 0.00 in0.0 mm 0.00 in0.0 mm 0.00 in0.0 mm
05:30 PM 58.6°F14.8°C 55.4°F13.0°C 85% 5.6 mph SSW9.0 kmh SSW 9.6 mph15.4 kmh 29.41 in995.9 mb 0.00 in0.0 mm 0.00 in0.0 mm 0.00 in0.0 mm
05:31 PM 58.6°F14.8°C 55.4°F13.0°C 86% 5.4 mph S8.7 kmh S 9.6 mph15.4 kmh 29.41 in995.9 mb 0.00 in0.0 mm 0.00 in0.0 mm 0.00 in0.0 mm
05:32 PM 58.6°F14.8°C 55.4°F13.0°C 86% 4.9 mph S7.9 kmh S 9.6 mph15.4 kmh 29.41 in995.9 mb 0.00 in0.0 mm 0.00 in0.0 mm 0.00 in0.0 mm
05:33 PM 58.8°F14.9°C 55.4°F13.0°C 86% 4.0 mph S6.4 kmh S 9.6 mph15.4 kmh 29.41 in995.9 mb 0.00 in0.0 mm 0.00 in0.0 mm 0.00 in0.0 mm
05:34 PM 58.8°F14.9°C 55.4°F13.0°C 86% 5.8 mph SSW9.3 kmh SSW 11.9 mph19.2 kmh 29.41 in995.9 mb 0.00 in0.0 mm 0.00 in0.0 mm 0.00 in0.0 mm
05:35 PM 58.8°F14.9°C 55.4°F13.0°C 86% 5.4 mph SSW8.7 kmh SSW 11.9 mph19.2 kmh 29.41 in995.9 mb 0.00 in0.0 mm 0.00 in0.0 mm 0.00 in0.0 mm
05:36 PM 58.8°F14.9°C 55.4°F13.0°C 86% 5.4 mph SSW8.7 kmh SSW 11.9 mph19.2 kmh 29.41 in995.9 mb 0.00 in0.0 mm 0.00 in0.0 mm 0.00 in0.0 mm
05:37 PM 58.8°F14.9°C 55.4°F13.0°C 86% 3.8 mph SSW6.1 kmh SSW 11.9 mph19.2 kmh 29.41 in995.9 mb 0.00 in0.0 mm 0.00 in0.0 mm 0.00 in0.0 mm
05:38 PM 58.8°F14.9°C 55.4°F13.0°C 86% 4.0 mph SSW6.4 kmh SSW 11.9 mph19.2 kmh 29.41 in995.9 mb 0.00 in0.0 mm 0.00 in0.0 mm 0.00 in0.0 mm
05:39 PM 58.8°F14.9°C 55.4°F13.0°C 86% 4.0 mph SW6.4 kmh SW 11.9 mph19.2 kmh 29.41 in995.9 mb 0.00 in0.0 mm 0.00 in0.0 mm 0.00 in0.0 mm
05:40 PM 58.8°F14.9°C 55.4°F13.0°C 86% 3.8 mph SSW6.1 kmh SSW 11.9 mph19.2 kmh 29.41 in995.9 mb 0.00 in0.0 mm 0.00 in0.0 mm 0.00 in0.0 mm
05:41 PM 58.8°F14.9°C 55.4°F13.0°C 86% 5.4 mph SSW8.7 kmh SSW 11.9 mph19.2 kmh 29.41 in995.9 mb 0.00 in0.0 mm 0.00 in0.0 mm 0.00 in0.0 mm
05:42 PM 58.8°F14.9°C 55.4°F13.0°C 86% 4.5 mph SSW7.2 kmh SSW 11.9 mph19.2 kmh 29.41 in995.9 mb 0.00 in0.0 mm 0.00 in0.0 mm 0.00 in0.0 mm
05:43 PM 59.0°F15.0°C 55.4°F13.0°C 86% 4.5 mph SSW7.2 kmh SSW 11.9 mph19.2 kmh 29.41 in995.9 mb 0.00 in0.0 mm 0.00 in0.0 mm 0.00 in0.0 mm
05:44 PM 59.0°F15.0°C 55.4°F13.0°C 86% 5.4 mph SSW8.7 kmh SSW 9.8 mph15.8 kmh 29.41 in995.9 mb 0.00 in0.0 mm 0.00 in0.0 mm 0.00 in0.0 mm
05:45 PM 59.0°F15.0°C 55.4°F13.0°C 86% 3.8 mph SSW6.1 kmh SSW 9.8 mph15.8 kmh 29.41 in995.9 mb 0.00 in0.0 mm 0.00 in0.0 mm 0.00 in0.0 mm
05:46 PM 59.0°F15.0°C 55.4°F13.0°C 86% 3.6 mph SSW5.8 kmh SSW 9.8 mph15.8 kmh 29.41 in995.9 mb 0.00 in0.0 mm 0.00 in0.0 mm 0.00 in0.0 mm
05:47 PM 59.0°F15.0°C 55.4°F13.0°C 86% 3.6 mph SSW5.8 kmh SSW 9.8 mph15.8 kmh 29.35 in993.9 mb 0.00 in0.0 mm 0.00 in0.0 mm 0.00 in0.0 mm
05:48 PM 59.0°F15.0°C 55.4°F13.0°C 86% 4.5 mph SSW7.2 kmh SSW 9.8 mph15.8 kmh 29.35 in993.9 mb 0.00 in0.0 mm 0.00 in0.0 mm 0.00 in0.0 mm
05:49 PM 59.0°F15.0°C 55.4°F13.0°C 86% 4.3 mph SSW6.9 kmh SSW 9.8 mph15.8 kmh 29.35 in993.9 mb 0.00 in0.0 mm 0.00 in0.0 mm 0.00 in0.0 mm
05:50 PM 59.2°F15.1°C 55.4°F13.0°C 86% 6.7 mph SSW10.8 kmh SSW 16.8 mph27.0 kmh 29.35 in993.9 mb 0.00 in0.0 mm 0.00 in0.0 mm 0.00 in0.0 mm
05:51 PM 59.2°F15.1°C 55.4°F13.0°C 86% 6.0 mph SSW9.7 kmh SSW 16.8 mph27.0 kmh 29.35 in993.9 mb 0.00 in0.0 mm 0.00 in0.0 mm 0.00 in0.0 mm
05:52 PM 59.2°F15.1°C 55.4°F13.0°C 86% 5.6 mph SW9.0 kmh SW 16.8 mph27.0 kmh 29.35 in993.9 mb 0.00 in0.0 mm 0.00 in0.0 mm 0.00 in0.0 mm
05:53 PM 59.2°F15.1°C 55.4°F13.0°C 86% 5.8 mph SSW9.3 kmh SSW 16.8 mph27.0 kmh 29.35 in993.9 mb 0.00 in0.0 mm 0.00 in0.0 mm 0.00 in0.0 mm
05:54 PM 59.2°F15.1°C 55.4°F13.0°C 86% 3.8 mph SSW6.1 kmh SSW 16.8 mph27.0 kmh 29.35 in993.9 mb 0.00 in0.0 mm 0.00 in0.0 mm 0.00 in0.0 mm
05:55 PM 59.2°F15.1°C 55.4°F13.0°C 86% 6.0 mph SSW9.7 kmh SSW 16.8 mph27.0 kmh 29.35 in993.9 mb 0.00 in0.0 mm 0.00 in0.0 mm 0.00 in0.0 mm
05:56 PM 59.4°F15.2°C 55.4°F13.0°C 86% 9.4 mph SSW15.1 kmh SSW 16.8 mph27.0 kmh 29.35 in993.9 mb 0.00 in0.0 mm 0.00 in0.0 mm 0.00 in0.0 mm
05:57 PM 59.4°F15.2°C 55.4°F13.0°C 86% 4.0 mph SSW6.4 kmh SSW 16.8 mph27.0 kmh 29.35 in993.9 mb 0.00 in0.0 mm 0.00 in0.0 mm 0.00 in0.0 mm
05:58 PM 59.4°F15.2°C 55.4°F13.0°C 86% 3.4 mph SSW5.5 kmh SSW 16.8 mph27.0 kmh 29.35 in993.9 mb 0.00 in0.0 mm 0.00 in0.0 mm 0.00 in0.0 mm
05:59 PM 59.4°F15.2°C 55.4°F13.0°C 86% 4.0 mph SW6.4 kmh SW 16.8 mph27.0 kmh 29.35 in993.9 mb 0.00 in0.0 mm 0.00 in0.0 mm 0.00 in0.0 mm
06:00 PM 59.4°F15.2°C 55.4°F13.0°C 86% 7.4 mph SW11.9 kmh SW 14.1 mph22.7 kmh 29.35 in993.9 mb 0.00 in0.0 mm 0.00 in0.0 mm 0.00 in0.0 mm
06:01 PM 59.4°F15.2°C 55.4°F13.0°C 86% 7.4 mph SW11.9 kmh SW 17.2 mph27.7 kmh 29.35 in993.9 mb 0.00 in0.0 mm 0.00 in0.0 mm 0.00 in0.0 mm
06:02 PM 59.5°F15.3°C 55.4°F13.0°C 86% 9.8 mph SW15.8 kmh SW 17.2 mph27.7 kmh 29.35 in993.9 mb 0.00 in0.0 mm 0.00 in0.0 mm 0.00 in0.0 mm
06:03 PM 59.5°F15.3°C 55.4°F13.0°C 86% 5.6 mph SW9.0 kmh SW 17.2 mph27.7 kmh 29.35 in993.9 mb 0.00 in0.0 mm 0.00 in0.0 mm 0.00 in0.0 mm
06:04 PM 59.5°F15.3°C 55.4°F13.0°C 86% 5.6 mph SW9.0 kmh SW 17.2 mph27.7 kmh 29.35 in993.9 mb 0.00 in0.0 mm 0.00 in0.0 mm 0.00 in0.0 mm
06:05 PM 59.5°F15.3°C 55.4°F13.0°C 87% 7.4 mph SW11.9 kmh SW 17.2 mph27.7 kmh 29.35 in993.9 mb 0.00 in0.0 mm 0.00 in0.0 mm 0.00 in0.0 mm
06:06 PM 59.7°F15.4°C 55.4°F13.0°C 86% 6.5 mph SW10.5 kmh SW 17.2 mph27.7 kmh 29.35 in993.9 mb 0.00 in0.0 mm 0.00 in0.0 mm 0.00 in0.0 mm
06:07 PM 59.5°F15.3°C 55.4°F13.0°C 86% 6.5 mph SW10.5 kmh SW 17.2 mph27.7 kmh 29.35 in993.9 mb 0.00 in0.0 mm 0.00 in0.0 mm 0.00 in0.0 mm
06:08 PM 59.7°F15.4°C 55.4°F13.0°C 86% 4.9 mph SW7.9 kmh SW 17.2 mph27.7 kmh 29.35 in993.9 mb 0.00 in0.0 mm 0.00 in0.0 mm 0.00 in0.0 mm
06:09 PM 59.7°F15.4°C 55.4°F13.0°C 86% 4.5 mph SW7.2 kmh SW 17.2 mph27.7 kmh 29.35 in993.9 mb 0.00 in0.0 mm 0.00 in0.0 mm 0.00 in0.0 mm
06:10 PM 59.7°F15.4°C 55.4°F13.0°C 87% 6.9 mph SW11.1 kmh SW 17.2 mph27.7 kmh 29.35 in993.9 mb 0.00 in0.0 mm 0.00 in0.0 mm 0.00 in0.0 mm
06:11 PM 59.5°F15.3°C 55.4°F13.0°C 87% 8.1 mph SW13.0 kmh SW 12.5 mph20.1 kmh 29.35 in993.9 mb 0.00 in0.0 mm 0.00 in0.0 mm 0.00 in0.0 mm
06:12 PM 59.5°F15.3°C 55.4°F13.0°C 87% 6.5 mph SW10.5 kmh SW 12.5 mph20.1 kmh 29.35 in993.9 mb 0.00 in0.0 mm 0.00 in0.0 mm 0.00 in0.0 mm
06:13 PM 59.7°F15.4°C 55.4°F13.0°C 87% 7.8 mph SW12.6 kmh SW 12.5 mph20.1 kmh 29.35 in993.9 mb 0.00 in0.0 mm 0.00 in0.0 mm 0.00 in0.0 mm
06:14 PM 59.7°F15.4°C 55.4°F13.0°C 87% 4.5 mph SSW7.2 kmh SSW 12.5 mph20.1 kmh 29.35 in993.9 mb 0.00 in0.0 mm 0.00 in0.0 mm 0.00 in0.0 mm
06:15 PM 59.7°F15.4°C 55.4°F13.0°C 87% 5.4 mph SW8.7 kmh SW 12.5 mph20.1 kmh 29.35 in993.9 mb 0.00 in0.0 mm 0.00 in0.0 mm 0.00 in0.0 mm
06:16 PM 59.7°F15.4°C 55.4°F13.0°C 87% 4.0 mph SW6.4 kmh SW 11.0 mph17.7 kmh 29.35 in993.9 mb 0.00 in0.0 mm 0.00 in0.0 mm 0.00 in0.0 mm
06:17 PM 59.7°F15.4°C 55.4°F13.0°C 87% 7.8 mph SSW12.6 kmh SSW 11.4 mph18.3 kmh 29.32 in992.9 mb 0.00 in0.0 mm 0.00 in0.0 mm 0.00 in0.0 mm
06:18 PM 59.7°F15.4°C 55.4°F13.0°C 87% 6.7 mph SW10.8 kmh SW 11.4 mph18.3 kmh 29.32 in992.9 mb 0.00 in0.0 mm 0.00 in0.0 mm 0.00 in0.0 mm
06:19 PM 59.7°F15.4°C 55.4°F13.0°C 87% 4.5 mph SSW7.2 kmh SSW 11.4 mph18.3 kmh 29.32 in992.9 mb 0.00 in0.0 mm 0.00 in0.0 mm 0.00 in0.0 mm
06:20 PM 59.7°F15.4°C 55.4°F13.0°C 87% 3.8 mph SSW6.1 kmh SSW 11.4 mph18.3 kmh 29.32 in992.9 mb 0.00 in0.0 mm 0.00 in0.0 mm 0.00 in0.0 mm
06:21 PM 59.7°F15.4°C 55.4°F13.0°C 87% 4.3 mph SSW6.9 kmh SSW 11.4 mph18.3 kmh 29.32 in992.9 mb 0.00 in0.0 mm 0.00 in0.0 mm 0.00 in0.0 mm
06:22 PM 59.7°F15.4°C 55.4°F13.0°C 87% 3.1 mph SSW5.0 kmh SSW 11.4 mph18.3 kmh 29.32 in992.9 mb 0.00 in0.0 mm 0.00 in0.0 mm 0.00 in0.0 mm
06:23 PM 59.7°F15.4°C 55.4°F13.0°C 87% 4.0 mph SSW6.4 kmh SSW 11.4 mph18.3 kmh 29.32 in992.9 mb 0.00 in0.0 mm 0.00 in0.0 mm 0.00 in0.0 mm
06:24 PM 59.9°F15.5°C 57.2°F14.0°C 87% 6.0 mph SSW9.7 kmh SSW 11.4 mph18.3 kmh 29.32 in992.9 mb 0.00 in0.0 mm 0.00 in0.0 mm 0.00 in0.0 mm
06:25 PM 59.9°F15.5°C 57.2°F14.0°C 88% 6.5 mph SSW10.5 kmh SSW 11.9 mph19.2 kmh 29.32 in992.9 mb 0.00 in0.0 mm 0.00 in0.0 mm 0.00 in0.0 mm
06:26 PM 59.9°F15.5°C 57.2°F14.0°C 88% 5.8 mph SSW9.3 kmh SSW 11.9 mph19.2 kmh 29.32 in992.9 mb 0.00 in0.0 mm 0.00 in0.0 mm 0.00 in0.0 mm
06:27 PM 59.9°F15.5°C 57.2°F14.0°C 88% 6.3 mph SSW10.1 kmh SSW 11.9 mph19.2 kmh 29.32 in992.9 mb 0.00 in0.0 mm 0.00 in0.0 mm 0.00 in0.0 mm
06:28 PM 60.1°F15.6°C 57.2°F14.0°C 87% 5.6 mph SSW9.0 kmh SSW 11.9 mph19.2 kmh 29.32 in992.9 mb 0.00 in0.0 mm 0.00 in0.0 mm 0.00 in0.0 mm
06:29 PM 60.1°F15.6°C 57.2°F14.0°C 87% 5.6 mph SSW9.0 kmh SSW 12.8 mph20.6 kmh 29.32 in992.9 mb 0.00 in0.0 mm 0.00 in0.0 mm 0.00 in0.0 mm
06:30 PM 60.1°F15.6°C 57.2°F14.0°C 87% 4.3 mph SSW6.9 kmh SSW 12.8 mph20.6 kmh 29.32 in992.9 mb 0.00 in0.0 mm 0.00 in0.0 mm 0.00 in0.0 mm
06:31 PM 60.1°F15.6°C 57.2°F14.0°C 87% 5.4 mph SW8.7 kmh SW 12.8 mph20.6 kmh 29.32 in992.9 mb 0.00 in0.0 mm 0.00 in0.0 mm 0.00 in0.0 mm
06:32 PM 60.1°F15.6°C 57.2°F14.0°C 87% 5.6 mph SW9.0 kmh SW 12.8 mph20.6 kmh 29.35 in993.9 mb 0.00 in0.0 mm 0.00 in0.0 mm 0.00 in0.0 mm
06:33 PM 60.1°F15.6°C 57.2°F14.0°C 87% 5.6 mph SW9.0 kmh SW 13.4 mph21.6 kmh 29.35 in993.9 mb 0.00 in0.0 mm 0.00 in0.0 mm 0.00 in0.0 mm
06:34 PM 60.1°F15.6°C 57.2°F14.0°C 88% 5.4 mph SW8.7 kmh SW 13.4 mph21.6 kmh 29.35 in993.9 mb 0.00 in0.0 mm 0.00 in0.0 mm 0.00 in0.0 mm
06:35 PM 60.1°F15.6°C 57.2°F14.0°C 88% 4.9 mph SW7.9 kmh SW 13.4 mph21.6 kmh 29.35 in993.9 mb 0.00 in0.0 mm 0.00 in0.0 mm 0.00 in0.0 mm
06:36 PM 60.1°F15.6°C 57.2°F14.0°C 88% 4.3 mph SW6.9 kmh SW 13.4 mph21.6 kmh 29.35 in993.9 mb 0.00 in0.0 mm 0.00 in0.0 mm 0.00 in0.0 mm
06:37 PM 60.1°F15.6°C 57.2°F14.0°C 88% 4.7 mph SW7.6 kmh SW 13.4 mph21.6 kmh 29.35 in993.9 mb 0.00 in0.0 mm 0.00 in0.0 mm 0.00 in0.0 mm
06:38 PM 60.1°F15.6°C 57.2°F14.0°C 88% 5.4 mph SW8.7 kmh SW 13.4 mph21.6 kmh 29.35 in993.9 mb 0.00 in0.0 mm 0.00 in0.0 mm 0.00 in0.0 mm
06:39 PM 60.1°F15.6°C 57.2°F14.0°C 88% 3.4 mph SW5.5 kmh SW 13.4 mph21.6 kmh 29.35 in993.9 mb 0.00 in0.0 mm 0.00 in0.0 mm 0.00 in0.0 mm
06:40 PM 60.1°F15.6°C 57.2°F14.0°C 88% 2.9 mph SW4.7 kmh SW 13.4 mph21.6 kmh 29.35 in993.9 mb 0.00 in0.0 mm 0.00 in0.0 mm 0.00 in0.0 mm
06:41 PM 60.1°F15.6°C 57.2°F14.0°C 88% 6.3 mph SW10.1 kmh SW 13.4 mph21.6 kmh 29.35 in993.9 mb 0.00 in0.0 mm 0.00 in0.0 mm 0.00 in0.0 mm
06:42 PM 60.1°F15.6°C 57.2°F14.0°C 88% 7.6 mph SW12.2 kmh SW 14.8 mph23.8 kmh 29.35 in993.9 mb 0.00 in0.0 mm 0.00 in0.0 mm 0.00 in0.0 mm
06:43 PM 60.1°F15.6°C 57.2°F14.0°C 88% 5.4 mph SSW8.7 kmh SSW 14.8 mph23.8 kmh 29.35 in993.9 mb 0.00 in0.0 mm 0.00 in0.0 mm 0.00 in0.0 mm
06:44 PM 60.1°F15.6°C 57.2°F14.0°C 88% 4.5 mph SW7.2 kmh SW 14.8 mph23.8 kmh 29.35 in993.9 mb 0.00 in0.0 mm 0.00 in0.0 mm 0.00 in0.0 mm
06:45 PM 60.1°F15.6°C 57.2°F14.0°C 88% 4.9 mph SW7.9 kmh SW 14.8 mph23.8 kmh 29.35 in993.9 mb 0.00 in0.0 mm 0.00 in0.0 mm 0.00 in0.0 mm
06:46 PM 60.1°F15.6°C 57.2°F14.0°C 88% 5.6 mph SW9.0 kmh SW 14.8 mph23.8 kmh 29.35 in993.9 mb 0.00 in0.0 mm 0.00 in0.0 mm 0.00 in0.0 mm
06:47 PM 60.1°F15.6°C 57.2°F14.0°C 89% 6.7 mph SW10.8 kmh SW 14.8 mph23.8 kmh 29.32 in992.9 mb 0.00 in0.0 mm 0.00 in0.0 mm 0.00 in0.0 mm
06:48 PM 60.1°F15.6°C 57.2°F14.0°C 89% 4.0 mph SW6.4 kmh SW 14.8 mph23.8 kmh 29.32 in992.9 mb 0.00 in0.0 mm 0.00 in0.0 mm 0.00 in0.0 mm
06:49 PM 60.1°F15.6°C 57.2°F14.0°C 89% 4.9 mph SW7.9 kmh SW 14.8 mph23.8 kmh 29.32 in992.9 mb 0.00 in0.0 mm 0.00 in0.0 mm 0.00 in0.0 mm
06:50 PM 60.1°F15.6°C 57.2°F14.0°C 89% 4.9 mph SW7.9 kmh SW 14.8 mph23.8 kmh 29.32 in992.9 mb 0.00 in0.0 mm 0.00 in0.0 mm 0.00 in0.0 mm
06:51 PM 59.9°F15.5°C 57.2°F14.0°C 90% 7.2 mph SW11.6 kmh SW 14.8 mph23.8 kmh 29.32 in992.9 mb 0.05 in1.3 mm 3.00 in76.2 mm 0.05 in1.3 mm
06:52 PM 59.9°F15.5°C 57.2°F14.0°C 90% 4.9 mph SW7.9 kmh SW 13.0 mph20.9 kmh 29.32 in992.9 mb 0.05 in1.3 mm 0.00 in0.0 mm 0.05 in1.3 mm
06:53 PM 59.7°F15.4°C 57.2°F14.0°C 90% 4.9 mph SW7.9 kmh SW 13.0 mph20.9 kmh 29.32 in992.9 mb 0.05 in1.3 mm 0.00 in0.0 mm 0.05 in1.3 mm
06:54 PM 59.7°F15.4°C 57.2°F14.0°C 90% 7.8 mph SW12.6 kmh SW 13.0 mph20.9 kmh 29.32 in992.9 mb 0.05 in1.3 mm 0.00 in0.0 mm 0.05 in1.3 mm
06:55 PM 59.7°F15.4°C 57.2°F14.0°C 90% 13.0 mph WSW20.9 kmh WSW 15.2 mph24.5 kmh 29.32 in992.9 mb 0.05 in1.3 mm 0.00 in0.0 mm 0.05 in1.3 mm
06:56 PM 59.9°F15.5°C 57.2°F14.0°C 91% 12.1 mph WSW19.5 kmh WSW 15.2 mph24.5 kmh 29.32 in992.9 mb 0.13 in3.3 mm 4.80 in121.9 mm 0.13 in3.3 mm
06:57 PM 59.7°F15.4°C 57.2°F14.0°C 92% 12.8 mph WSW20.6 kmh WSW 19.0 mph30.6 kmh 29.32 in992.9 mb 0.21 in5.3 mm 4.80 in121.9 mm 0.21 in5.3 mm
06:58 PM 59.5°F15.3°C 57.2°F14.0°C 92% 13.4 mph WSW21.6 kmh WSW 19.0 mph30.6 kmh 29.32 in992.9 mb 0.26 in6.6 mm 3.00 in76.2 mm 0.26 in6.6 mm
06:59 PM 59.4°F15.2°C 57.2°F14.0°C 92% 15.9 mph WSW25.6 kmh WSW 19.9 mph32.0 kmh 29.32 in992.9 mb 0.30 in7.6 mm 2.40 in61.0 mm 0.30 in7.6 mm
07:00 PM 59.4°F15.2°C 57.2°F14.0°C 92% 13.4 mph WSW21.6 kmh WSW 19.9 mph32.0 kmh 29.32 in992.9 mb 0.30 in7.6 mm 0.00 in0.0 mm 0.30 in7.6 mm
07:01 PM 59.2°F15.1°C 57.2°F14.0°C 92% 14.5 mph WSW23.3 kmh WSW 19.9 mph32.0 kmh 29.32 in992.9 mb 0.30 in7.6 mm 0.00 in0.0 mm 0.30 in7.6 mm
07:02 PM 59.0°F15.0°C 57.2°F14.0°C 92% 12.1 mph WSW19.5 kmh WSW 19.9 mph32.0 kmh 29.41 in995.9 mb 0.30 in7.6 mm 0.00 in0.0 mm 0.30 in7.6 mm
07:03 PM 59.0°F15.0°C 57.2°F14.0°C 92% 11.0 mph WSW17.7 kmh WSW 19.9 mph32.0 kmh 29.41 in995.9 mb 0.30 in7.6 mm 0.00 in0.0 mm 0.30 in7.6 mm
07:04 PM 59.0°F15.0°C 57.2°F14.0°C 92% 10.7 mph WSW17.2 kmh WSW 19.9 mph32.0 kmh 29.41 in995.9 mb 0.30 in7.6 mm 0.00 in0.0 mm 0.30 in7.6 mm
07:05 PM 59.0°F15.0°C 57.2°F14.0°C 92% 9.4 mph WSW15.1 kmh WSW 19.9 mph32.0 kmh 29.41 in995.9 mb 0.30 in7.6 mm 0.00 in0.0 mm 0.30 in7.6 mm
07:06 PM 58.8°F14.9°C 57.2°F14.0°C 92% 8.9 mph WSW14.3 kmh WSW 19.9 mph32.0 kmh 29.41 in995.9 mb 0.30 in7.6 mm 0.00 in0.0 mm 0.30 in7.6 mm
07:07 PM 58.6°F14.8°C 55.4°F13.0°C 92% 8.5 mph WSW13.7 kmh WSW 19.9 mph32.0 kmh 29.41 in995.9 mb 0.30 in7.6 mm 0.00 in0.0 mm 0.30 in7.6 mm
07:08 PM 58.6°F14.8°C 55.4°F13.0°C 92% 9.6 mph WSW15.4 kmh WSW 19.9 mph32.0 kmh 29.41 in995.9 mb 0.34 in8.6 mm 2.40 in61.0 mm 0.34 in8.6 mm
07:09 PM 58.5°F14.7°C 55.4°F13.0°C 92% 8.9 mph WSW14.3 kmh WSW 19.5 mph31.4 kmh 29.41 in995.9 mb 0.34 in8.6 mm 0.00 in0.0 mm 0.34 in8.6 mm
07:10 PM 58.5°F14.7°C 55.4°F13.0°C 91% 8.1 mph WSW13.0 kmh WSW 17.7 mph28.5 kmh 29.41 in995.9 mb 0.34 in8.6 mm 0.00 in0.0 mm 0.34 in8.6 mm
07:11 PM 58.5°F14.7°C 55.4°F13.0°C 91% 9.2 mph WSW14.8 kmh WSW 17.7 mph28.5 kmh 29.41 in995.9 mb 0.34 in8.6 mm 0.00 in0.0 mm 0.34 in8.6 mm
07:12 PM 58.3°F14.6°C 55.4°F13.0°C 91% 6.0 mph WSW9.7 kmh WSW 15.2 mph24.5 kmh 29.41 in995.9 mb 0.34 in8.6 mm 0.00 in0.0 mm 0.34 in8.6 mm
07:13 PM 58.3°F14.6°C 55.4°F13.0°C 91% 7.4 mph WSW11.9 kmh WSW 15.2 mph24.5 kmh 29.41 in995.9 mb 0.34 in8.6 mm 0.00 in0.0 mm 0.34 in8.6 mm
07:14 PM 58.3°F14.6°C 55.4°F13.0°C 91% 9.6 mph WSW15.4 kmh WSW 15.2 mph24.5 kmh 29.41 in995.9 mb 0.34 in8.6 mm 0.00 in0.0 mm 0.34 in8.6 mm
07:15 PM 58.3°F14.6°C 55.4°F13.0°C 91% 9.6 mph WSW15.4 kmh WSW 15.2 mph24.5 kmh 29.41 in995.9 mb 0.34 in8.6 mm 0.00 in0.0 mm 0.34 in8.6 mm
07:16 PM 58.3°F14.6°C 55.4°F13.0°C 91% 6.5 mph WSW10.5 kmh WSW 15.2 mph24.5 kmh 29.41 in995.9 mb 0.38 in9.7 mm 2.40 in61.0 mm 0.38 in9.7 mm
07:17 PM 58.1°F14.5°C 55.4°F13.0°C 91% 6.3 mph WSW10.1 kmh WSW 15.2 mph24.5 kmh 29.41 in995.9 mb 0.38 in9.7 mm 0.00 in0.0 mm 0.38 in9.7 mm
07:18 PM 58.1°F14.5°C 55.4°F13.0°C 91% 6.9 mph WSW11.1 kmh WSW 12.3 mph19.8 kmh 29.41 in995.9 mb 0.38 in9.7 mm 0.00 in0.0 mm 0.38 in9.7 mm
07:19 PM 58.1°F14.5°C 55.4°F13.0°C 92% 6.9 mph WSW11.1 kmh WSW 12.3 mph19.8 kmh 29.41 in995.9 mb 0.38 in9.7 mm 0.00 in0.0 mm 0.38 in9.7 mm
07:20 PM 57.9°F14.4°C 55.4°F13.0°C 92% 4.9 mph WSW7.9 kmh WSW 12.3 mph19.8 kmh 29.41 in995.9 mb 0.38 in9.7 mm 0.00 in0.0 mm 0.38 in9.7 mm
07:21 PM 57.9°F14.4°C 55.4°F13.0°C 92% 4.0 mph WSW6.4 kmh WSW 12.3 mph19.8 kmh 29.41 in995.9 mb 0.38 in9.7 mm 0.00 in0.0 mm 0.38 in9.7 mm
07:22 PM 57.9°F14.4°C 55.4°F13.0°C 92% 4.7 mph WSW7.6 kmh WSW 12.3 mph19.8 kmh 29.41 in995.9 mb 0.38 in9.7 mm 0.00 in0.0 mm 0.38 in9.7 mm
07:23 PM 57.9°F14.4°C 55.4°F13.0°C 92% 5.6 mph WSW9.0 kmh WSW 12.1 mph19.5 kmh 29.41 in995.9 mb 0.38 in9.7 mm 0.00 in0.0 mm 0.38 in9.7 mm
07:24 PM 57.7°F14.3°C 55.4°F13.0°C 92% 3.6 mph WSW5.8 kmh WSW 11.2 mph18.0 kmh 29.41 in995.9 mb 0.38 in9.7 mm 0.00 in0.0 mm 0.38 in9.7 mm
07:25 PM 57.7°F14.3°C 55.4°F13.0°C 92% 2.9 mph WSW4.7 kmh WSW 8.9 mph14.3 kmh 29.41 in995.9 mb 0.42 in10.7 mm 2.40 in61.0 mm 0.42 in10.7 mm
07:26 PM 57.7°F14.3°C 55.4°F13.0°C 92% 2.9 mph WSW4.7 kmh WSW 8.9 mph14.3 kmh 29.41 in995.9 mb 0.42 in10.7 mm 0.00 in0.0 mm 0.42 in10.7 mm
07:27 PM 57.7°F14.3°C 55.4°F13.0°C 92% 5.6 mph WSW9.0 kmh WSW 8.9 mph14.3 kmh 29.41 in995.9 mb 0.42 in10.7 mm 0.00 in0.0 mm 0.42 in10.7 mm
07:28 PM 57.7°F14.3°C 55.4°F13.0°C 92% 2.9 mph WSW4.7 kmh WSW 8.1 mph13.0 kmh 29.41 in995.9 mb 0.42 in10.7 mm 0.00 in0.0 mm 0.42 in10.7 mm
07:29 PM 57.7°F14.3°C 55.4°F13.0°C 92% 2.0 mph WSW3.2 kmh WSW